<?xml version="1.0" encoding="UTF-8" standalone="no" ?>
<gpx xmlns="http://www.topografix.com/GPX/1/1" xmlns:xsi="http://www.w3.org/2001/XMLSchema-instance" xsi:schemaLocation="http://www.topografix.com/GPX/1/1 http://www.topografix.com/GPX/1/1/gpx.xsd" version="1.1" creator="VisuGPX - https://www.visugpx.com">
  <metadata>
    <name>Villaines Clermont 2022-07-22 Neris-Les-Bains Evaux-Les-Bains</name>
  </metadata>
  <trk>
    <name><![CDATA[2022-07-22 13:51:36]]></name>
    <trkseg>
      <trkpt lat="46.28637" lon="2.66152">
        <ele>364</ele>
        <time>2022-07-22T05:12:48Z</time>
      </trkpt>
      <trkpt lat="46.28652" lon="2.66152">
        <ele>364.48</ele>
        <time>2022-07-22T05:13:16Z</time>
      </trkpt>
      <trkpt lat="46.28649" lon="2.66137">
        <ele>371.21</ele>
        <time>2022-07-22T05:13:35Z</time>
      </trkpt>
      <trkpt lat="46.28646" lon="2.66127">
        <ele>375.53</ele>
        <time>2022-07-22T05:13:57Z</time>
      </trkpt>
      <trkpt lat="46.2865" lon="2.66135">
        <ele>376.01</ele>
        <time>2022-07-22T05:14:14Z</time>
      </trkpt>
      <trkpt lat="46.2865" lon="2.66135">
        <ele>376.01</ele>
        <time>2022-07-22T05:14:16Z</time>
      </trkpt>
      <trkpt lat="46.28623" lon="2.6616">
        <ele>343.81</ele>
        <time>2022-07-22T05:14:41Z</time>
      </trkpt>
      <trkpt lat="46.28648" lon="2.66146">
        <ele>372.65</ele>
        <time>2022-07-22T05:15:07Z</time>
      </trkpt>
      <trkpt lat="46.28655" lon="2.66157">
        <ele>372.65</ele>
        <time>2022-07-22T05:15:23Z</time>
      </trkpt>
      <trkpt lat="46.28658" lon="2.66156">
        <ele>371.21</ele>
        <time>2022-07-22T05:15:41Z</time>
      </trkpt>
      <trkpt lat="46.28658" lon="2.66152">
        <ele>371.21</ele>
        <time>2022-07-22T05:15:47Z</time>
      </trkpt>
      <trkpt lat="46.2865" lon="2.66123">
        <ele>370.24</ele>
        <time>2022-07-22T05:16:06Z</time>
      </trkpt>
      <trkpt lat="46.28642" lon="2.661">
        <ele>367.36</ele>
        <time>2022-07-22T05:16:23Z</time>
      </trkpt>
      <trkpt lat="46.28642" lon="2.66099">
        <ele>367.36</ele>
        <time>2022-07-22T05:16:24Z</time>
      </trkpt>
      <trkpt lat="46.28635" lon="2.66083">
        <ele>364.96</ele>
        <time>2022-07-22T05:16:39Z</time>
      </trkpt>
      <trkpt lat="46.28625" lon="2.6606">
        <ele>361.11</ele>
        <time>2022-07-22T05:16:57Z</time>
      </trkpt>
      <trkpt lat="46.28618" lon="2.66034">
        <ele>361.11</ele>
        <time>2022-07-22T05:17:14Z</time>
      </trkpt>
      <trkpt lat="46.28615" lon="2.66024">
        <ele>360.15</ele>
        <time>2022-07-22T05:17:21Z</time>
      </trkpt>
      <trkpt lat="46.28609" lon="2.66004">
        <ele>359.67</ele>
        <time>2022-07-22T05:17:35Z</time>
      </trkpt>
      <trkpt lat="46.28602" lon="2.65988">
        <ele>364.48</ele>
        <time>2022-07-22T05:17:48Z</time>
      </trkpt>
      <trkpt lat="46.28598" lon="2.65967">
        <ele>359.19</ele>
        <time>2022-07-22T05:18:01Z</time>
      </trkpt>
      <trkpt lat="46.28595" lon="2.65959">
        <ele>357.27</ele>
        <time>2022-07-22T05:18:07Z</time>
      </trkpt>
      <trkpt lat="46.28593" lon="2.65951">
        <ele>355.83</ele>
        <time>2022-07-22T05:18:12Z</time>
      </trkpt>
      <trkpt lat="46.28592" lon="2.65939">
        <ele>355.83</ele>
        <time>2022-07-22T05:18:20Z</time>
      </trkpt>
      <trkpt lat="46.28603" lon="2.65921">
        <ele>356.31</ele>
        <time>2022-07-22T05:18:35Z</time>
      </trkpt>
      <trkpt lat="46.28616" lon="2.6591">
        <ele>359.67</ele>
        <time>2022-07-22T05:18:51Z</time>
      </trkpt>
      <trkpt lat="46.28623" lon="2.65903">
        <ele>361.11</ele>
        <time>2022-07-22T05:19:03Z</time>
      </trkpt>
      <trkpt lat="46.28625" lon="2.65901">
        <ele>361.11</ele>
        <time>2022-07-22T05:19:05Z</time>
      </trkpt>
      <trkpt lat="46.28638" lon="2.65894">
        <ele>361.11</ele>
        <time>2022-07-22T05:19:18Z</time>
      </trkpt>
      <trkpt lat="46.28655" lon="2.65882">
        <ele>359.19</ele>
        <time>2022-07-22T05:19:35Z</time>
      </trkpt>
      <trkpt lat="46.28671" lon="2.65868">
        <ele>361.59</ele>
        <time>2022-07-22T05:19:52Z</time>
      </trkpt>
      <trkpt lat="46.28672" lon="2.65849">
        <ele>359.19</ele>
        <time>2022-07-22T05:20:07Z</time>
      </trkpt>
      <trkpt lat="46.28668" lon="2.65825">
        <ele>356.79</ele>
        <time>2022-07-22T05:20:24Z</time>
      </trkpt>
      <trkpt lat="46.28669" lon="2.65805">
        <ele>358.71</ele>
        <time>2022-07-22T05:20:38Z</time>
      </trkpt>
      <trkpt lat="46.28676" lon="2.65792">
        <ele>360.15</ele>
        <time>2022-07-22T05:20:49Z</time>
      </trkpt>
      <trkpt lat="46.28696" lon="2.65777">
        <ele>360.63</ele>
        <time>2022-07-22T05:21:07Z</time>
      </trkpt>
      <trkpt lat="46.28714" lon="2.6577">
        <ele>358.71</ele>
        <time>2022-07-22T05:21:26Z</time>
      </trkpt>
      <trkpt lat="46.28733" lon="2.65763">
        <ele>355.34</ele>
        <time>2022-07-22T05:21:43Z</time>
      </trkpt>
      <trkpt lat="46.28754" lon="2.65759">
        <ele>356.31</ele>
        <time>2022-07-22T05:22:01Z</time>
      </trkpt>
      <trkpt lat="46.28773" lon="2.65751">
        <ele>356.31</ele>
        <time>2022-07-22T05:22:19Z</time>
      </trkpt>
      <trkpt lat="46.28779" lon="2.65744">
        <ele>354.38</ele>
        <time>2022-07-22T05:22:28Z</time>
      </trkpt>
      <trkpt lat="46.28779" lon="2.65738">
        <ele>352.94</ele>
        <time>2022-07-22T05:22:33Z</time>
      </trkpt>
      <trkpt lat="46.28767" lon="2.65723">
        <ele>348.62</ele>
        <time>2022-07-22T05:22:48Z</time>
      </trkpt>
      <trkpt lat="46.28756" lon="2.65708">
        <ele>350.54</ele>
        <time>2022-07-22T05:23:04Z</time>
      </trkpt>
      <trkpt lat="46.28746" lon="2.65691">
        <ele>353.42</ele>
        <time>2022-07-22T05:23:18Z</time>
      </trkpt>
      <trkpt lat="46.28734" lon="2.65675">
        <ele>356.79</ele>
        <time>2022-07-22T05:23:33Z</time>
      </trkpt>
      <trkpt lat="46.28725" lon="2.65658">
        <ele>360.15</ele>
        <time>2022-07-22T05:23:47Z</time>
      </trkpt>
      <trkpt lat="46.28717" lon="2.65648">
        <ele>361.59</ele>
        <time>2022-07-22T05:23:56Z</time>
      </trkpt>
      <trkpt lat="46.28706" lon="2.65625">
        <ele>363.04</ele>
        <time>2022-07-22T05:24:14Z</time>
      </trkpt>
      <trkpt lat="46.28701" lon="2.65614">
        <ele>364</ele>
        <time>2022-07-22T05:24:22Z</time>
      </trkpt>
      <trkpt lat="46.28702" lon="2.65608">
        <ele>364.48</ele>
        <time>2022-07-22T05:24:26Z</time>
      </trkpt>
      <trkpt lat="46.28715" lon="2.65585">
        <ele>363.52</ele>
        <time>2022-07-22T05:24:45Z</time>
      </trkpt>
      <trkpt lat="46.28728" lon="2.65566">
        <ele>362.07</ele>
        <time>2022-07-22T05:25:02Z</time>
      </trkpt>
      <trkpt lat="46.28731" lon="2.65563">
        <ele>361.59</ele>
        <time>2022-07-22T05:25:05Z</time>
      </trkpt>
      <trkpt lat="46.28744" lon="2.65541">
        <ele>361.59</ele>
        <time>2022-07-22T05:25:22Z</time>
      </trkpt>
      <trkpt lat="46.2876" lon="2.65515">
        <ele>361.11</ele>
        <time>2022-07-22T05:25:44Z</time>
      </trkpt>
      <trkpt lat="46.28775" lon="2.65492">
        <ele>359.67</ele>
        <time>2022-07-22T05:26:04Z</time>
      </trkpt>
      <trkpt lat="46.2879" lon="2.65469">
        <ele>359.19</ele>
        <time>2022-07-22T05:26:24Z</time>
      </trkpt>
      <trkpt lat="46.28802" lon="2.65454">
        <ele>357.75</ele>
        <time>2022-07-22T05:26:38Z</time>
      </trkpt>
      <trkpt lat="46.28813" lon="2.65433">
        <ele>353.42</ele>
        <time>2022-07-22T05:26:55Z</time>
      </trkpt>
      <trkpt lat="46.28826" lon="2.6541">
        <ele>350.06</ele>
        <time>2022-07-22T05:27:13Z</time>
      </trkpt>
      <trkpt lat="46.2884" lon="2.65389">
        <ele>349.58</ele>
        <time>2022-07-22T05:27:29Z</time>
      </trkpt>
      <trkpt lat="46.28847" lon="2.65378">
        <ele>350.54</ele>
        <time>2022-07-22T05:27:38Z</time>
      </trkpt>
      <trkpt lat="46.28849" lon="2.65376">
        <ele>350.06</ele>
        <time>2022-07-22T05:27:40Z</time>
      </trkpt>
      <trkpt lat="46.28859" lon="2.6536">
        <ele>345.25</ele>
        <time>2022-07-22T05:27:57Z</time>
      </trkpt>
      <trkpt lat="46.28865" lon="2.6535">
        <ele>346.21</ele>
        <time>2022-07-22T05:28:11Z</time>
      </trkpt>
      <trkpt lat="46.28871" lon="2.65344">
        <ele>347.17</ele>
        <time>2022-07-22T05:28:28Z</time>
      </trkpt>
      <trkpt lat="46.2887" lon="2.65346">
        <ele>351.98</ele>
        <time>2022-07-22T05:28:53Z</time>
      </trkpt>
      <trkpt lat="46.28876" lon="2.65343">
        <ele>351.98</ele>
        <time>2022-07-22T05:29:20Z</time>
      </trkpt>
      <trkpt lat="46.28882" lon="2.65335">
        <ele>351.5</ele>
        <time>2022-07-22T05:29:41Z</time>
      </trkpt>
      <trkpt lat="46.28887" lon="2.65333">
        <ele>351.5</ele>
        <time>2022-07-22T05:29:46Z</time>
      </trkpt>
      <trkpt lat="46.28909" lon="2.65331">
        <ele>350.06</ele>
        <time>2022-07-22T05:30:05Z</time>
      </trkpt>
      <trkpt lat="46.28921" lon="2.6532">
        <ele>349.1</ele>
        <time>2022-07-22T05:30:18Z</time>
      </trkpt>
      <trkpt lat="46.28931" lon="2.65294">
        <ele>346.21</ele>
        <time>2022-07-22T05:30:36Z</time>
      </trkpt>
      <trkpt lat="46.28935" lon="2.65267">
        <ele>344.77</ele>
        <time>2022-07-22T05:30:53Z</time>
      </trkpt>
      <trkpt lat="46.2894" lon="2.65245">
        <ele>341.41</ele>
        <time>2022-07-22T05:31:09Z</time>
      </trkpt>
      <trkpt lat="46.28941" lon="2.65242">
        <ele>341.41</ele>
        <time>2022-07-22T05:31:11Z</time>
      </trkpt>
      <trkpt lat="46.28946" lon="2.65236">
        <ele>342.37</ele>
        <time>2022-07-22T05:31:23Z</time>
      </trkpt>
      <trkpt lat="46.28948" lon="2.65223">
        <ele>342.37</ele>
        <time>2022-07-22T05:31:35Z</time>
      </trkpt>
      <trkpt lat="46.28956" lon="2.65198">
        <ele>344.77</ele>
        <time>2022-07-22T05:31:51Z</time>
      </trkpt>
      <trkpt lat="46.28958" lon="2.6519">
        <ele>344.29</ele>
        <time>2022-07-22T05:31:56Z</time>
      </trkpt>
      <trkpt lat="46.28958" lon="2.65185">
        <ele>344.29</ele>
        <time>2022-07-22T05:31:59Z</time>
      </trkpt>
      <trkpt lat="46.2896" lon="2.65168">
        <ele>343.33</ele>
        <time>2022-07-22T05:32:09Z</time>
      </trkpt>
      <trkpt lat="46.28951" lon="2.65141">
        <ele>343.81</ele>
        <time>2022-07-22T05:32:26Z</time>
      </trkpt>
      <trkpt lat="46.28934" lon="2.65131">
        <ele>341.41</ele>
        <time>2022-07-22T05:32:42Z</time>
      </trkpt>
      <trkpt lat="46.28921" lon="2.65129">
        <ele>339</ele>
        <time>2022-07-22T05:32:53Z</time>
      </trkpt>
      <trkpt lat="46.28918" lon="2.65128">
        <ele>337.56</ele>
        <time>2022-07-22T05:32:56Z</time>
      </trkpt>
      <trkpt lat="46.28895" lon="2.65127">
        <ele>336.12</ele>
        <time>2022-07-22T05:33:14Z</time>
      </trkpt>
      <trkpt lat="46.28876" lon="2.65123">
        <ele>335.64</ele>
        <time>2022-07-22T05:33:31Z</time>
      </trkpt>
      <trkpt lat="46.28862" lon="2.65124">
        <ele>335.16</ele>
        <time>2022-07-22T05:33:43Z</time>
      </trkpt>
      <trkpt lat="46.28851" lon="2.6513">
        <ele>333.71</ele>
        <time>2022-07-22T05:33:52Z</time>
      </trkpt>
      <trkpt lat="46.28847" lon="2.6513">
        <ele>332.75</ele>
        <time>2022-07-22T05:33:56Z</time>
      </trkpt>
      <trkpt lat="46.2883" lon="2.65136">
        <ele>331.31</ele>
        <time>2022-07-22T05:34:12Z</time>
      </trkpt>
      <trkpt lat="46.28825" lon="2.65137">
        <ele>330.83</ele>
        <time>2022-07-22T05:34:16Z</time>
      </trkpt>
      <trkpt lat="46.28807" lon="2.65133">
        <ele>327.95</ele>
        <time>2022-07-22T05:34:31Z</time>
      </trkpt>
      <trkpt lat="46.2879" lon="2.65126">
        <ele>325.06</ele>
        <time>2022-07-22T05:34:46Z</time>
      </trkpt>
      <trkpt lat="46.28788" lon="2.65125">
        <ele>324.58</ele>
        <time>2022-07-22T05:34:48Z</time>
      </trkpt>
      <trkpt lat="46.28773" lon="2.6512">
        <ele>319.78</ele>
        <time>2022-07-22T05:35:02Z</time>
      </trkpt>
      <trkpt lat="46.28758" lon="2.65117">
        <ele>312.09</ele>
        <time>2022-07-22T05:35:17Z</time>
      </trkpt>
      <trkpt lat="46.28743" lon="2.65115">
        <ele>307.28</ele>
        <time>2022-07-22T05:35:30Z</time>
      </trkpt>
      <trkpt lat="46.28728" lon="2.65115">
        <ele>301.03</ele>
        <time>2022-07-22T05:35:43Z</time>
      </trkpt>
      <trkpt lat="46.28726" lon="2.65115">
        <ele>301.03</ele>
        <time>2022-07-22T05:35:45Z</time>
      </trkpt>
      <trkpt lat="46.28709" lon="2.65116">
        <ele>296.7</ele>
        <time>2022-07-22T05:36:00Z</time>
      </trkpt>
      <trkpt lat="46.28695" lon="2.65115">
        <ele>293.82</ele>
        <time>2022-07-22T05:36:13Z</time>
      </trkpt>
      <trkpt lat="46.28677" lon="2.65108">
        <ele>294.78</ele>
        <time>2022-07-22T05:36:28Z</time>
      </trkpt>
      <trkpt lat="46.28663" lon="2.65095">
        <ele>295.74</ele>
        <time>2022-07-22T05:36:42Z</time>
      </trkpt>
      <trkpt lat="46.28656" lon="2.65077">
        <ele>299.59</ele>
        <time>2022-07-22T05:37:04Z</time>
      </trkpt>
      <trkpt lat="46.28646" lon="2.65059">
        <ele>299.11</ele>
        <time>2022-07-22T05:37:16Z</time>
      </trkpt>
      <trkpt lat="46.28641" lon="2.65049">
        <ele>294.78</ele>
        <time>2022-07-22T05:37:27Z</time>
      </trkpt>
      <trkpt lat="46.28648" lon="2.65037">
        <ele>293.34</ele>
        <time>2022-07-22T05:37:40Z</time>
      </trkpt>
      <trkpt lat="46.28654" lon="2.65033">
        <ele>293.82</ele>
        <time>2022-07-22T05:37:46Z</time>
      </trkpt>
      <trkpt lat="46.28656" lon="2.6503">
        <ele>294.3</ele>
        <time>2022-07-22T05:37:48Z</time>
      </trkpt>
      <trkpt lat="46.28669" lon="2.65016">
        <ele>298.63</ele>
        <time>2022-07-22T05:38:02Z</time>
      </trkpt>
      <trkpt lat="46.28684" lon="2.65001">
        <ele>302.47</ele>
        <time>2022-07-22T05:38:19Z</time>
      </trkpt>
      <trkpt lat="46.28699" lon="2.64986">
        <ele>304.39</ele>
        <time>2022-07-22T05:38:35Z</time>
      </trkpt>
      <trkpt lat="46.28715" lon="2.64974">
        <ele>309.2</ele>
        <time>2022-07-22T05:38:48Z</time>
      </trkpt>
      <trkpt lat="46.28719" lon="2.64972">
        <ele>310.64</ele>
        <time>2022-07-22T05:38:51Z</time>
      </trkpt>
      <trkpt lat="46.28738" lon="2.64963">
        <ele>317.85</ele>
        <time>2022-07-22T05:39:07Z</time>
      </trkpt>
      <trkpt lat="46.28753" lon="2.64956">
        <ele>317.37</ele>
        <time>2022-07-22T05:39:22Z</time>
      </trkpt>
      <trkpt lat="46.28763" lon="2.64955">
        <ele>317.37</ele>
        <time>2022-07-22T05:39:29Z</time>
      </trkpt>
      <trkpt lat="46.28785" lon="2.64954">
        <ele>321.7</ele>
        <time>2022-07-22T05:39:47Z</time>
      </trkpt>
      <trkpt lat="46.28801" lon="2.64946">
        <ele>322.66</ele>
        <time>2022-07-22T05:40:04Z</time>
      </trkpt>
      <trkpt lat="46.28813" lon="2.64938">
        <ele>323.62</ele>
        <time>2022-07-22T05:40:17Z</time>
      </trkpt>
      <trkpt lat="46.2882" lon="2.6493">
        <ele>326.5</ele>
        <time>2022-07-22T05:40:32Z</time>
      </trkpt>
      <trkpt lat="46.28817" lon="2.6493">
        <ele>326.99</ele>
        <time>2022-07-22T05:40:35Z</time>
      </trkpt>
      <trkpt lat="46.28804" lon="2.64935">
        <ele>326.99</ele>
        <time>2022-07-22T05:40:48Z</time>
      </trkpt>
      <trkpt lat="46.28793" lon="2.64937">
        <ele>327.95</ele>
        <time>2022-07-22T05:41:00Z</time>
      </trkpt>
      <trkpt lat="46.28793" lon="2.64937">
        <ele>328.43</ele>
        <time>2022-07-22T05:41:01Z</time>
      </trkpt>
      <trkpt lat="46.28774" lon="2.64939">
        <ele>330.83</ele>
        <time>2022-07-22T05:41:17Z</time>
      </trkpt>
      <trkpt lat="46.28757" lon="2.64939">
        <ele>328.91</ele>
        <time>2022-07-22T05:41:31Z</time>
      </trkpt>
      <trkpt lat="46.28736" lon="2.6494">
        <ele>328.43</ele>
        <time>2022-07-22T05:41:48Z</time>
      </trkpt>
      <trkpt lat="46.28722" lon="2.6494">
        <ele>327.47</ele>
        <time>2022-07-22T05:42:01Z</time>
      </trkpt>
      <trkpt lat="46.28701" lon="2.64941">
        <ele>328.91</ele>
        <time>2022-07-22T05:42:19Z</time>
      </trkpt>
      <trkpt lat="46.28692" lon="2.64944">
        <ele>331.31</ele>
        <time>2022-07-22T05:42:26Z</time>
      </trkpt>
      <trkpt lat="46.28675" lon="2.64954">
        <ele>332.27</ele>
        <time>2022-07-22T05:42:41Z</time>
      </trkpt>
      <trkpt lat="46.28668" lon="2.64958">
        <ele>333.71</ele>
        <time>2022-07-22T05:42:47Z</time>
      </trkpt>
      <trkpt lat="46.28662" lon="2.64962">
        <ele>334.2</ele>
        <time>2022-07-22T05:42:54Z</time>
      </trkpt>
      <trkpt lat="46.28646" lon="2.64959">
        <ele>332.75</ele>
        <time>2022-07-22T05:43:09Z</time>
      </trkpt>
      <trkpt lat="46.28631" lon="2.64955">
        <ele>330.83</ele>
        <time>2022-07-22T05:43:23Z</time>
      </trkpt>
      <trkpt lat="46.28618" lon="2.64949">
        <ele>331.79</ele>
        <time>2022-07-22T05:43:39Z</time>
      </trkpt>
      <trkpt lat="46.28606" lon="2.64944">
        <ele>335.16</ele>
        <time>2022-07-22T05:43:53Z</time>
      </trkpt>
      <trkpt lat="46.28597" lon="2.64935">
        <ele>338.52</ele>
        <time>2022-07-22T05:44:06Z</time>
      </trkpt>
      <trkpt lat="46.2859" lon="2.64925">
        <ele>341.89</ele>
        <time>2022-07-22T05:44:17Z</time>
      </trkpt>
      <trkpt lat="46.28582" lon="2.64912">
        <ele>346.21</ele>
        <time>2022-07-22T05:44:31Z</time>
      </trkpt>
      <trkpt lat="46.28571" lon="2.64897">
        <ele>351.02</ele>
        <time>2022-07-22T05:44:49Z</time>
      </trkpt>
      <trkpt lat="46.28561" lon="2.64884">
        <ele>354.86</ele>
        <time>2022-07-22T05:45:03Z</time>
      </trkpt>
      <trkpt lat="46.28555" lon="2.64874">
        <ele>357.75</ele>
        <time>2022-07-22T05:45:14Z</time>
      </trkpt>
      <trkpt lat="46.28549" lon="2.6486">
        <ele>362.55</ele>
        <time>2022-07-22T05:45:28Z</time>
      </trkpt>
      <trkpt lat="46.28546" lon="2.64847">
        <ele>364.48</ele>
        <time>2022-07-22T05:45:40Z</time>
      </trkpt>
      <trkpt lat="46.28538" lon="2.6483">
        <ele>364.48</ele>
        <time>2022-07-22T05:45:52Z</time>
      </trkpt>
      <trkpt lat="46.28532" lon="2.64814">
        <ele>364.96</ele>
        <time>2022-07-22T05:46:05Z</time>
      </trkpt>
      <trkpt lat="46.28526" lon="2.64799">
        <ele>366.88</ele>
        <time>2022-07-22T05:46:17Z</time>
      </trkpt>
      <trkpt lat="46.28521" lon="2.64786">
        <ele>365.44</ele>
        <time>2022-07-22T05:46:26Z</time>
      </trkpt>
      <trkpt lat="46.28515" lon="2.64786">
        <ele>365.44</ele>
        <time>2022-07-22T05:46:31Z</time>
      </trkpt>
      <trkpt lat="46.285" lon="2.64797">
        <ele>366.88</ele>
        <time>2022-07-22T05:46:48Z</time>
      </trkpt>
      <trkpt lat="46.28484" lon="2.64812">
        <ele>368.32</ele>
        <time>2022-07-22T05:47:05Z</time>
      </trkpt>
      <trkpt lat="46.28469" lon="2.64829">
        <ele>369.28</ele>
        <time>2022-07-22T05:47:21Z</time>
      </trkpt>
      <trkpt lat="46.28463" lon="2.64836">
        <ele>368.8</ele>
        <time>2022-07-22T05:47:29Z</time>
      </trkpt>
      <trkpt lat="46.28448" lon="2.64852">
        <ele>368.8</ele>
        <time>2022-07-22T05:47:46Z</time>
      </trkpt>
      <trkpt lat="46.28435" lon="2.64865">
        <ele>368.32</ele>
        <time>2022-07-22T05:48:00Z</time>
      </trkpt>
      <trkpt lat="46.2843" lon="2.64868">
        <ele>368.8</ele>
        <time>2022-07-22T05:48:05Z</time>
      </trkpt>
      <trkpt lat="46.28409" lon="2.64884">
        <ele>370.73</ele>
        <time>2022-07-22T05:48:23Z</time>
      </trkpt>
      <trkpt lat="46.28395" lon="2.64894">
        <ele>370.24</ele>
        <time>2022-07-22T05:48:37Z</time>
      </trkpt>
      <trkpt lat="46.28378" lon="2.64905">
        <ele>371.69</ele>
        <time>2022-07-22T05:48:52Z</time>
      </trkpt>
      <trkpt lat="46.28358" lon="2.64919">
        <ele>372.17</ele>
        <time>2022-07-22T05:49:10Z</time>
      </trkpt>
      <trkpt lat="46.28337" lon="2.64932">
        <ele>372.65</ele>
        <time>2022-07-22T05:49:29Z</time>
      </trkpt>
      <trkpt lat="46.28318" lon="2.64941">
        <ele>373.13</ele>
        <time>2022-07-22T05:49:45Z</time>
      </trkpt>
      <trkpt lat="46.283" lon="2.6495">
        <ele>372.65</ele>
        <time>2022-07-22T05:50:01Z</time>
      </trkpt>
      <trkpt lat="46.28277" lon="2.64958">
        <ele>372.65</ele>
        <time>2022-07-22T05:50:20Z</time>
      </trkpt>
      <trkpt lat="46.28256" lon="2.64962">
        <ele>373.13</ele>
        <time>2022-07-22T05:50:38Z</time>
      </trkpt>
      <trkpt lat="46.28236" lon="2.64965">
        <ele>372.17</ele>
        <time>2022-07-22T05:50:55Z</time>
      </trkpt>
      <trkpt lat="46.28216" lon="2.64969">
        <ele>371.69</ele>
        <time>2022-07-22T05:51:12Z</time>
      </trkpt>
      <trkpt lat="46.28194" lon="2.64977">
        <ele>373.61</ele>
        <time>2022-07-22T05:51:31Z</time>
      </trkpt>
      <trkpt lat="46.28175" lon="2.64983">
        <ele>374.57</ele>
        <time>2022-07-22T05:51:47Z</time>
      </trkpt>
      <trkpt lat="46.28172" lon="2.64985">
        <ele>375.53</ele>
        <time>2022-07-22T05:51:50Z</time>
      </trkpt>
      <trkpt lat="46.28166" lon="2.64988">
        <ele>376.49</ele>
        <time>2022-07-22T05:51:55Z</time>
      </trkpt>
      <trkpt lat="46.28145" lon="2.64999">
        <ele>378.9</ele>
        <time>2022-07-22T05:52:14Z</time>
      </trkpt>
      <trkpt lat="46.28128" lon="2.65007">
        <ele>379.86</ele>
        <time>2022-07-22T05:52:30Z</time>
      </trkpt>
      <trkpt lat="46.28116" lon="2.65011">
        <ele>379.86</ele>
        <time>2022-07-22T05:52:45Z</time>
      </trkpt>
      <trkpt lat="46.28116" lon="2.65015">
        <ele>381.78</ele>
        <time>2022-07-22T05:53:00Z</time>
      </trkpt>
      <trkpt lat="46.28092" lon="2.65027">
        <ele>383.7</ele>
        <time>2022-07-22T05:53:21Z</time>
      </trkpt>
      <trkpt lat="46.28081" lon="2.65033">
        <ele>384.66</ele>
        <time>2022-07-22T05:53:31Z</time>
      </trkpt>
      <trkpt lat="46.28064" lon="2.65043">
        <ele>384.66</ele>
        <time>2022-07-22T05:53:47Z</time>
      </trkpt>
      <trkpt lat="46.28046" lon="2.65053">
        <ele>386.11</ele>
        <time>2022-07-22T05:54:03Z</time>
      </trkpt>
      <trkpt lat="46.28033" lon="2.65062">
        <ele>387.07</ele>
        <time>2022-07-22T05:54:15Z</time>
      </trkpt>
      <trkpt lat="46.28017" lon="2.65071">
        <ele>388.03</ele>
        <time>2022-07-22T05:54:30Z</time>
      </trkpt>
      <trkpt lat="46.27998" lon="2.65083">
        <ele>388.51</ele>
        <time>2022-07-22T05:54:47Z</time>
      </trkpt>
      <trkpt lat="46.27978" lon="2.65092">
        <ele>388.51</ele>
        <time>2022-07-22T05:55:05Z</time>
      </trkpt>
      <trkpt lat="46.27959" lon="2.65103">
        <ele>390.43</ele>
        <time>2022-07-22T05:55:22Z</time>
      </trkpt>
      <trkpt lat="46.27941" lon="2.65113">
        <ele>393.32</ele>
        <time>2022-07-22T05:55:39Z</time>
      </trkpt>
      <trkpt lat="46.27925" lon="2.65121">
        <ele>394.28</ele>
        <time>2022-07-22T05:55:54Z</time>
      </trkpt>
      <trkpt lat="46.27906" lon="2.65132">
        <ele>396.2</ele>
        <time>2022-07-22T05:56:10Z</time>
      </trkpt>
      <trkpt lat="46.27891" lon="2.65139">
        <ele>396.68</ele>
        <time>2022-07-22T05:56:23Z</time>
      </trkpt>
      <trkpt lat="46.27871" lon="2.65151">
        <ele>397.16</ele>
        <time>2022-07-22T05:56:41Z</time>
      </trkpt>
      <trkpt lat="46.2785" lon="2.65163">
        <ele>397.64</ele>
        <time>2022-07-22T05:56:59Z</time>
      </trkpt>
      <trkpt lat="46.27833" lon="2.65173">
        <ele>396.2</ele>
        <time>2022-07-22T05:57:14Z</time>
      </trkpt>
      <trkpt lat="46.27821" lon="2.6519">
        <ele>392.84</ele>
        <time>2022-07-22T05:57:32Z</time>
      </trkpt>
      <trkpt lat="46.27822" lon="2.65191">
        <ele>392.84</ele>
        <time>2022-07-22T05:57:33Z</time>
      </trkpt>
      <trkpt lat="46.27831" lon="2.65219">
        <ele>389.95</ele>
        <time>2022-07-22T05:57:50Z</time>
      </trkpt>
      <trkpt lat="46.27843" lon="2.65251">
        <ele>385.63</ele>
        <time>2022-07-22T05:58:12Z</time>
      </trkpt>
      <trkpt lat="46.27845" lon="2.65285">
        <ele>381.78</ele>
        <time>2022-07-22T05:58:33Z</time>
      </trkpt>
      <trkpt lat="46.27844" lon="2.65313">
        <ele>378.9</ele>
        <time>2022-07-22T05:58:49Z</time>
      </trkpt>
      <trkpt lat="46.27844" lon="2.65343">
        <ele>375.53</ele>
        <time>2022-07-22T05:59:07Z</time>
      </trkpt>
      <trkpt lat="46.27843" lon="2.65369">
        <ele>371.69</ele>
        <time>2022-07-22T05:59:22Z</time>
      </trkpt>
      <trkpt lat="46.27845" lon="2.65396">
        <ele>370.24</ele>
        <time>2022-07-22T05:59:38Z</time>
      </trkpt>
      <trkpt lat="46.27849" lon="2.65423">
        <ele>365.92</ele>
        <time>2022-07-22T05:59:55Z</time>
      </trkpt>
      <trkpt lat="46.27856" lon="2.65458">
        <ele>364</ele>
        <time>2022-07-22T06:00:14Z</time>
      </trkpt>
      <trkpt lat="46.27855" lon="2.65464">
        <ele>363.04</ele>
        <time>2022-07-22T06:00:19Z</time>
      </trkpt>
      <trkpt lat="46.27837" lon="2.65477">
        <ele>365.44</ele>
        <time>2022-07-22T06:00:34Z</time>
      </trkpt>
      <trkpt lat="46.27829" lon="2.655">
        <ele>367.36</ele>
        <time>2022-07-22T06:00:51Z</time>
      </trkpt>
      <trkpt lat="46.2783" lon="2.65527">
        <ele>369.28</ele>
        <time>2022-07-22T06:01:07Z</time>
      </trkpt>
      <trkpt lat="46.27831" lon="2.6553">
        <ele>369.76</ele>
        <time>2022-07-22T06:01:09Z</time>
      </trkpt>
      <trkpt lat="46.27836" lon="2.65556">
        <ele>371.21</ele>
        <time>2022-07-22T06:01:26Z</time>
      </trkpt>
      <trkpt lat="46.27833" lon="2.65579">
        <ele>372.17</ele>
        <time>2022-07-22T06:01:43Z</time>
      </trkpt>
      <trkpt lat="46.27828" lon="2.65598">
        <ele>371.21</ele>
        <time>2022-07-22T06:01:58Z</time>
      </trkpt>
      <trkpt lat="46.27822" lon="2.65599">
        <ele>373.61</ele>
        <time>2022-07-22T06:02:21Z</time>
      </trkpt>
      <trkpt lat="46.2781" lon="2.65594">
        <ele>373.61</ele>
        <time>2022-07-22T06:02:36Z</time>
      </trkpt>
      <trkpt lat="46.27798" lon="2.65587">
        <ele>375.05</ele>
        <time>2022-07-22T06:02:52Z</time>
      </trkpt>
      <trkpt lat="46.27789" lon="2.65582">
        <ele>377.94</ele>
        <time>2022-07-22T06:03:05Z</time>
      </trkpt>
      <trkpt lat="46.27786" lon="2.6558">
        <ele>378.42</ele>
        <time>2022-07-22T06:03:09Z</time>
      </trkpt>
      <trkpt lat="46.27775" lon="2.65575">
        <ele>381.78</ele>
        <time>2022-07-22T06:03:22Z</time>
      </trkpt>
      <trkpt lat="46.27764" lon="2.65571">
        <ele>386.59</ele>
        <time>2022-07-22T06:03:36Z</time>
      </trkpt>
      <trkpt lat="46.2775" lon="2.65569">
        <ele>388.03</ele>
        <time>2022-07-22T06:03:51Z</time>
      </trkpt>
      <trkpt lat="46.27735" lon="2.65564">
        <ele>391.87</ele>
        <time>2022-07-22T06:04:06Z</time>
      </trkpt>
      <trkpt lat="46.27724" lon="2.65561">
        <ele>393.32</ele>
        <time>2022-07-22T06:04:18Z</time>
      </trkpt>
      <trkpt lat="46.27714" lon="2.65556">
        <ele>393.32</ele>
        <time>2022-07-22T06:04:31Z</time>
      </trkpt>
      <trkpt lat="46.27704" lon="2.65552">
        <ele>394.28</ele>
        <time>2022-07-22T06:04:43Z</time>
      </trkpt>
      <trkpt lat="46.27695" lon="2.65548">
        <ele>394.76</ele>
        <time>2022-07-22T06:04:56Z</time>
      </trkpt>
      <trkpt lat="46.27685" lon="2.65544">
        <ele>396.2</ele>
        <time>2022-07-22T06:05:09Z</time>
      </trkpt>
      <trkpt lat="46.27673" lon="2.65541">
        <ele>397.64</ele>
        <time>2022-07-22T06:05:24Z</time>
      </trkpt>
      <trkpt lat="46.27662" lon="2.65537">
        <ele>400.05</ele>
        <time>2022-07-22T06:05:38Z</time>
      </trkpt>
      <trkpt lat="46.27652" lon="2.65536">
        <ele>402.45</ele>
        <time>2022-07-22T06:05:51Z</time>
      </trkpt>
      <trkpt lat="46.27642" lon="2.65541">
        <ele>405.81</ele>
        <time>2022-07-22T06:06:05Z</time>
      </trkpt>
      <trkpt lat="46.2763" lon="2.65547">
        <ele>410.14</ele>
        <time>2022-07-22T06:06:19Z</time>
      </trkpt>
      <trkpt lat="46.27622" lon="2.65552">
        <ele>413.98</ele>
        <time>2022-07-22T06:06:33Z</time>
      </trkpt>
      <trkpt lat="46.27613" lon="2.65556">
        <ele>416.39</ele>
        <time>2022-07-22T06:06:52Z</time>
      </trkpt>
      <trkpt lat="46.27612" lon="2.65556">
        <ele>416.87</ele>
        <time>2022-07-22T06:07:07Z</time>
      </trkpt>
      <trkpt lat="46.27611" lon="2.65557">
        <ele>420.23</ele>
        <time>2022-07-22T06:07:27Z</time>
      </trkpt>
      <trkpt lat="46.27611" lon="2.65559">
        <ele>424.56</ele>
        <time>2022-07-22T06:07:48Z</time>
      </trkpt>
      <trkpt lat="46.27611" lon="2.65557">
        <ele>426.48</ele>
        <time>2022-07-22T06:08:06Z</time>
      </trkpt>
      <trkpt lat="46.27613" lon="2.65555">
        <ele>426</ele>
        <time>2022-07-22T06:08:27Z</time>
      </trkpt>
      <trkpt lat="46.2761" lon="2.65562">
        <ele>426.48</ele>
        <time>2022-07-22T06:08:41Z</time>
      </trkpt>
      <trkpt lat="46.27599" lon="2.65564">
        <ele>425.52</ele>
        <time>2022-07-22T06:08:56Z</time>
      </trkpt>
      <trkpt lat="46.27591" lon="2.65567">
        <ele>426</ele>
        <time>2022-07-22T06:09:10Z</time>
      </trkpt>
      <trkpt lat="46.27583" lon="2.65579">
        <ele>425.52</ele>
        <time>2022-07-22T06:09:24Z</time>
      </trkpt>
      <trkpt lat="46.27581" lon="2.65574">
        <ele>424.08</ele>
        <time>2022-07-22T06:09:35Z</time>
      </trkpt>
      <trkpt lat="46.27582" lon="2.65567">
        <ele>421.19</ele>
        <time>2022-07-22T06:09:54Z</time>
      </trkpt>
      <trkpt lat="46.27584" lon="2.65577">
        <ele>421.68</ele>
        <time>2022-07-22T06:10:05Z</time>
      </trkpt>
      <trkpt lat="46.27577" lon="2.656">
        <ele>417.83</ele>
        <time>2022-07-22T06:10:23Z</time>
      </trkpt>
      <trkpt lat="46.27571" lon="2.65621">
        <ele>413.02</ele>
        <time>2022-07-22T06:10:39Z</time>
      </trkpt>
      <trkpt lat="46.27568" lon="2.65639">
        <ele>410.14</ele>
        <time>2022-07-22T06:10:53Z</time>
      </trkpt>
      <trkpt lat="46.27567" lon="2.65643">
        <ele>410.14</ele>
        <time>2022-07-22T06:10:56Z</time>
      </trkpt>
      <trkpt lat="46.27559" lon="2.65672">
        <ele>410.62</ele>
        <time>2022-07-22T06:11:13Z</time>
      </trkpt>
      <trkpt lat="46.27542" lon="2.65683">
        <ele>409.18</ele>
        <time>2022-07-22T06:11:28Z</time>
      </trkpt>
      <trkpt lat="46.27532" lon="2.65685">
        <ele>405.81</ele>
        <time>2022-07-22T06:11:41Z</time>
      </trkpt>
      <trkpt lat="46.27527" lon="2.65688">
        <ele>408.7</ele>
        <time>2022-07-22T06:12:02Z</time>
      </trkpt>
      <trkpt lat="46.27519" lon="2.6569">
        <ele>412.54</ele>
        <time>2022-07-22T06:12:21Z</time>
      </trkpt>
      <trkpt lat="46.27512" lon="2.65691">
        <ele>414.47</ele>
        <time>2022-07-22T06:12:37Z</time>
      </trkpt>
      <trkpt lat="46.27509" lon="2.65687">
        <ele>411.58</ele>
        <time>2022-07-22T06:13:01Z</time>
      </trkpt>
      <trkpt lat="46.27511" lon="2.65688">
        <ele>414.47</ele>
        <time>2022-07-22T06:13:18Z</time>
      </trkpt>
      <trkpt lat="46.27509" lon="2.65693">
        <ele>413.98</ele>
        <time>2022-07-22T06:13:47Z</time>
      </trkpt>
      <trkpt lat="46.27506" lon="2.65684">
        <ele>415.91</ele>
        <time>2022-07-22T06:14:04Z</time>
      </trkpt>
      <trkpt lat="46.27502" lon="2.65679">
        <ele>417.35</ele>
        <time>2022-07-22T06:14:09Z</time>
      </trkpt>
      <trkpt lat="46.27493" lon="2.65671">
        <ele>420.23</ele>
        <time>2022-07-22T06:14:24Z</time>
      </trkpt>
      <trkpt lat="46.27489" lon="2.65667">
        <ele>419.75</ele>
        <time>2022-07-22T06:14:31Z</time>
      </trkpt>
      <trkpt lat="46.27471" lon="2.65656">
        <ele>421.68</ele>
        <time>2022-07-22T06:14:48Z</time>
      </trkpt>
      <trkpt lat="46.27456" lon="2.65648">
        <ele>424.08</ele>
        <time>2022-07-22T06:15:03Z</time>
      </trkpt>
      <trkpt lat="46.27437" lon="2.65641">
        <ele>424.08</ele>
        <time>2022-07-22T06:15:21Z</time>
      </trkpt>
      <trkpt lat="46.27416" lon="2.65632">
        <ele>424.56</ele>
        <time>2022-07-22T06:15:37Z</time>
      </trkpt>
      <trkpt lat="46.274" lon="2.65625">
        <ele>424.08</ele>
        <time>2022-07-22T06:15:52Z</time>
      </trkpt>
      <trkpt lat="46.27386" lon="2.65621">
        <ele>425.04</ele>
        <time>2022-07-22T06:16:06Z</time>
      </trkpt>
      <trkpt lat="46.27371" lon="2.65616">
        <ele>425.52</ele>
        <time>2022-07-22T06:16:19Z</time>
      </trkpt>
      <trkpt lat="46.27342" lon="2.6561">
        <ele>425.52</ele>
        <time>2022-07-22T06:16:40Z</time>
      </trkpt>
      <trkpt lat="46.2732" lon="2.65607">
        <ele>423.12</ele>
        <time>2022-07-22T06:16:58Z</time>
      </trkpt>
      <trkpt lat="46.27301" lon="2.65604">
        <ele>422.16</ele>
        <time>2022-07-22T06:17:15Z</time>
      </trkpt>
      <trkpt lat="46.27285" lon="2.65592">
        <ele>422.16</ele>
        <time>2022-07-22T06:17:29Z</time>
      </trkpt>
      <trkpt lat="46.27268" lon="2.65575">
        <ele>419.27</ele>
        <time>2022-07-22T06:17:45Z</time>
      </trkpt>
      <trkpt lat="46.27256" lon="2.65548">
        <ele>418.79</ele>
        <time>2022-07-22T06:18:02Z</time>
      </trkpt>
      <trkpt lat="46.27245" lon="2.65519">
        <ele>420.23</ele>
        <time>2022-07-22T06:18:19Z</time>
      </trkpt>
      <trkpt lat="46.27228" lon="2.65498">
        <ele>421.68</ele>
        <time>2022-07-22T06:18:37Z</time>
      </trkpt>
      <trkpt lat="46.27212" lon="2.6548">
        <ele>420.23</ele>
        <time>2022-07-22T06:18:54Z</time>
      </trkpt>
      <trkpt lat="46.27202" lon="2.6547">
        <ele>419.27</ele>
        <time>2022-07-22T06:19:05Z</time>
      </trkpt>
      <trkpt lat="46.27186" lon="2.6546">
        <ele>416.87</ele>
        <time>2022-07-22T06:19:20Z</time>
      </trkpt>
      <trkpt lat="46.27169" lon="2.65449">
        <ele>413.98</ele>
        <time>2022-07-22T06:19:35Z</time>
      </trkpt>
      <trkpt lat="46.27155" lon="2.65435">
        <ele>413.98</ele>
        <time>2022-07-22T06:19:48Z</time>
      </trkpt>
      <trkpt lat="46.27142" lon="2.65423">
        <ele>416.87</ele>
        <time>2022-07-22T06:20:02Z</time>
      </trkpt>
      <trkpt lat="46.27124" lon="2.65408">
        <ele>417.83</ele>
        <time>2022-07-22T06:20:20Z</time>
      </trkpt>
      <trkpt lat="46.27106" lon="2.65394">
        <ele>419.27</ele>
        <time>2022-07-22T06:20:35Z</time>
      </trkpt>
      <trkpt lat="46.27102" lon="2.6539">
        <ele>419.75</ele>
        <time>2022-07-22T06:20:39Z</time>
      </trkpt>
      <trkpt lat="46.27081" lon="2.65372">
        <ele>420.23</ele>
        <time>2022-07-22T06:20:58Z</time>
      </trkpt>
      <trkpt lat="46.27063" lon="2.6535">
        <ele>419.75</ele>
        <time>2022-07-22T06:21:16Z</time>
      </trkpt>
      <trkpt lat="46.27047" lon="2.65329">
        <ele>422.64</ele>
        <time>2022-07-22T06:21:32Z</time>
      </trkpt>
      <trkpt lat="46.27032" lon="2.65306">
        <ele>426.96</ele>
        <time>2022-07-22T06:21:49Z</time>
      </trkpt>
      <trkpt lat="46.27018" lon="2.65281">
        <ele>425.52</ele>
        <time>2022-07-22T06:22:07Z</time>
      </trkpt>
      <trkpt lat="46.27004" lon="2.65256">
        <ele>426.96</ele>
        <time>2022-07-22T06:22:24Z</time>
      </trkpt>
      <trkpt lat="46.26988" lon="2.6523">
        <ele>427.44</ele>
        <time>2022-07-22T06:22:44Z</time>
      </trkpt>
      <trkpt lat="46.26974" lon="2.65206">
        <ele>427.44</ele>
        <time>2022-07-22T06:23:01Z</time>
      </trkpt>
      <trkpt lat="46.26959" lon="2.65182">
        <ele>426.48</ele>
        <time>2022-07-22T06:23:19Z</time>
      </trkpt>
      <trkpt lat="46.26946" lon="2.65163">
        <ele>425.04</ele>
        <time>2022-07-22T06:23:35Z</time>
      </trkpt>
      <trkpt lat="46.26932" lon="2.65142">
        <ele>422.16</ele>
        <time>2022-07-22T06:23:54Z</time>
      </trkpt>
      <trkpt lat="46.26919" lon="2.65107">
        <ele>424.56</ele>
        <time>2022-07-22T06:24:11Z</time>
      </trkpt>
      <trkpt lat="46.26906" lon="2.65078">
        <ele>426.48</ele>
        <time>2022-07-22T06:24:29Z</time>
      </trkpt>
      <trkpt lat="46.26896" lon="2.65045">
        <ele>429.37</ele>
        <time>2022-07-22T06:24:47Z</time>
      </trkpt>
      <trkpt lat="46.26894" lon="2.65017">
        <ele>428.89</ele>
        <time>2022-07-22T06:25:03Z</time>
      </trkpt>
      <trkpt lat="46.26892" lon="2.64986">
        <ele>429.85</ele>
        <time>2022-07-22T06:25:19Z</time>
      </trkpt>
      <trkpt lat="46.2689" lon="2.64949">
        <ele>428.89</ele>
        <time>2022-07-22T06:25:39Z</time>
      </trkpt>
      <trkpt lat="46.26891" lon="2.64918">
        <ele>429.37</ele>
        <time>2022-07-22T06:25:57Z</time>
      </trkpt>
      <trkpt lat="46.26891" lon="2.64898">
        <ele>428.89</ele>
        <time>2022-07-22T06:26:08Z</time>
      </trkpt>
      <trkpt lat="46.26886" lon="2.6486">
        <ele>430.81</ele>
        <time>2022-07-22T06:26:28Z</time>
      </trkpt>
      <trkpt lat="46.2689" lon="2.64824">
        <ele>431.29</ele>
        <time>2022-07-22T06:26:49Z</time>
      </trkpt>
      <trkpt lat="46.2689" lon="2.64786">
        <ele>433.21</ele>
        <time>2022-07-22T06:27:10Z</time>
      </trkpt>
      <trkpt lat="46.26876" lon="2.64772">
        <ele>432.25</ele>
        <time>2022-07-22T06:27:27Z</time>
      </trkpt>
      <trkpt lat="46.26849" lon="2.64769">
        <ele>432.25</ele>
        <time>2022-07-22T06:27:49Z</time>
      </trkpt>
      <trkpt lat="46.26835" lon="2.64766">
        <ele>432.25</ele>
        <time>2022-07-22T06:28:06Z</time>
      </trkpt>
      <trkpt lat="46.26825" lon="2.64765">
        <ele>431.29</ele>
        <time>2022-07-22T06:28:18Z</time>
      </trkpt>
      <trkpt lat="46.26803" lon="2.6475">
        <ele>432.25</ele>
        <time>2022-07-22T06:28:38Z</time>
      </trkpt>
      <trkpt lat="46.26785" lon="2.64734">
        <ele>434.17</ele>
        <time>2022-07-22T06:28:55Z</time>
      </trkpt>
      <trkpt lat="46.26763" lon="2.64716">
        <ele>434.65</ele>
        <time>2022-07-22T06:29:15Z</time>
      </trkpt>
      <trkpt lat="46.26745" lon="2.64698">
        <ele>434.65</ele>
        <time>2022-07-22T06:29:33Z</time>
      </trkpt>
      <trkpt lat="46.26727" lon="2.64684">
        <ele>435.13</ele>
        <time>2022-07-22T06:29:50Z</time>
      </trkpt>
      <trkpt lat="46.26712" lon="2.64662">
        <ele>433.69</ele>
        <time>2022-07-22T06:30:07Z</time>
      </trkpt>
      <trkpt lat="46.26696" lon="2.64639">
        <ele>432.73</ele>
        <time>2022-07-22T06:30:25Z</time>
      </trkpt>
      <trkpt lat="46.26677" lon="2.6461">
        <ele>431.29</ele>
        <time>2022-07-22T06:30:47Z</time>
      </trkpt>
      <trkpt lat="46.26665" lon="2.64587">
        <ele>431.77</ele>
        <time>2022-07-22T06:31:03Z</time>
      </trkpt>
      <trkpt lat="46.2665" lon="2.6456">
        <ele>433.69</ele>
        <time>2022-07-22T06:31:22Z</time>
      </trkpt>
      <trkpt lat="46.26639" lon="2.6454">
        <ele>434.65</ele>
        <time>2022-07-22T06:31:38Z</time>
      </trkpt>
      <trkpt lat="46.26628" lon="2.64516">
        <ele>434.17</ele>
        <time>2022-07-22T06:31:54Z</time>
      </trkpt>
      <trkpt lat="46.26623" lon="2.645">
        <ele>437.54</ele>
        <time>2022-07-22T06:32:10Z</time>
      </trkpt>
      <trkpt lat="46.26623" lon="2.64498">
        <ele>437.54</ele>
        <time>2022-07-22T06:32:11Z</time>
      </trkpt>
      <trkpt lat="46.26628" lon="2.64464">
        <ele>437.54</ele>
        <time>2022-07-22T06:32:30Z</time>
      </trkpt>
      <trkpt lat="46.26634" lon="2.64435">
        <ele>437.06</ele>
        <time>2022-07-22T06:32:47Z</time>
      </trkpt>
      <trkpt lat="46.26641" lon="2.6442">
        <ele>435.61</ele>
        <time>2022-07-22T06:32:58Z</time>
      </trkpt>
      <trkpt lat="46.26644" lon="2.64389">
        <ele>435.13</ele>
        <time>2022-07-22T06:33:15Z</time>
      </trkpt>
      <trkpt lat="46.26651" lon="2.64352">
        <ele>436.1</ele>
        <time>2022-07-22T06:33:36Z</time>
      </trkpt>
      <trkpt lat="46.26659" lon="2.64321">
        <ele>435.61</ele>
        <time>2022-07-22T06:33:54Z</time>
      </trkpt>
      <trkpt lat="46.26665" lon="2.64292">
        <ele>433.69</ele>
        <time>2022-07-22T06:34:11Z</time>
      </trkpt>
      <trkpt lat="46.26676" lon="2.64256">
        <ele>433.21</ele>
        <time>2022-07-22T06:34:33Z</time>
      </trkpt>
      <trkpt lat="46.26685" lon="2.6423">
        <ele>432.73</ele>
        <time>2022-07-22T06:34:50Z</time>
      </trkpt>
      <trkpt lat="46.26695" lon="2.64197">
        <ele>431.77</ele>
        <time>2022-07-22T06:35:09Z</time>
      </trkpt>
      <trkpt lat="46.26706" lon="2.64163">
        <ele>432.73</ele>
        <time>2022-07-22T06:35:30Z</time>
      </trkpt>
      <trkpt lat="46.26718" lon="2.64131">
        <ele>429.85</ele>
        <time>2022-07-22T06:35:51Z</time>
      </trkpt>
      <trkpt lat="46.2673" lon="2.641">
        <ele>427.44</ele>
        <time>2022-07-22T06:36:11Z</time>
      </trkpt>
      <trkpt lat="46.26739" lon="2.64067">
        <ele>425.52</ele>
        <time>2022-07-22T06:36:30Z</time>
      </trkpt>
      <trkpt lat="46.26744" lon="2.64037">
        <ele>426</ele>
        <time>2022-07-22T06:36:48Z</time>
      </trkpt>
      <trkpt lat="46.26744" lon="2.64015">
        <ele>424.56</ele>
        <time>2022-07-22T06:37:06Z</time>
      </trkpt>
      <trkpt lat="46.26743" lon="2.64005">
        <ele>424.56</ele>
        <time>2022-07-22T06:37:12Z</time>
      </trkpt>
      <trkpt lat="46.26737" lon="2.63978">
        <ele>422.64</ele>
        <time>2022-07-22T06:37:28Z</time>
      </trkpt>
      <trkpt lat="46.26735" lon="2.63971">
        <ele>421.68</ele>
        <time>2022-07-22T06:37:40Z</time>
      </trkpt>
      <trkpt lat="46.26719" lon="2.6395">
        <ele>418.79</ele>
        <time>2022-07-22T06:37:59Z</time>
      </trkpt>
      <trkpt lat="46.26704" lon="2.63942">
        <ele>418.31</ele>
        <time>2022-07-22T06:38:16Z</time>
      </trkpt>
      <trkpt lat="46.26704" lon="2.63934">
        <ele>419.27</ele>
        <time>2022-07-22T06:38:41Z</time>
      </trkpt>
      <trkpt lat="46.26704" lon="2.6393">
        <ele>421.19</ele>
        <time>2022-07-22T06:38:47Z</time>
      </trkpt>
      <trkpt lat="46.26705" lon="2.63917">
        <ele>419.75</ele>
        <time>2022-07-22T06:38:57Z</time>
      </trkpt>
      <trkpt lat="46.26696" lon="2.63889">
        <ele>419.75</ele>
        <time>2022-07-22T06:39:16Z</time>
      </trkpt>
      <trkpt lat="46.26692" lon="2.63885">
        <ele>419.75</ele>
        <time>2022-07-22T06:39:32Z</time>
      </trkpt>
      <trkpt lat="46.26698" lon="2.63907">
        <ele>420.23</ele>
        <time>2022-07-22T06:39:48Z</time>
      </trkpt>
      <trkpt lat="46.26699" lon="2.6391">
        <ele>420.71</ele>
        <time>2022-07-22T06:39:50Z</time>
      </trkpt>
      <trkpt lat="46.26703" lon="2.63917">
        <ele>421.19</ele>
        <time>2022-07-22T06:39:57Z</time>
      </trkpt>
      <trkpt lat="46.26701" lon="2.63928">
        <ele>418.79</ele>
        <time>2022-07-22T06:40:09Z</time>
      </trkpt>
      <trkpt lat="46.26684" lon="2.63926">
        <ele>418.79</ele>
        <time>2022-07-22T06:40:29Z</time>
      </trkpt>
      <trkpt lat="46.26681" lon="2.63928">
        <ele>419.27</ele>
        <time>2022-07-22T06:40:43Z</time>
      </trkpt>
      <trkpt lat="46.26673" lon="2.63908">
        <ele>419.75</ele>
        <time>2022-07-22T06:40:57Z</time>
      </trkpt>
      <trkpt lat="46.26669" lon="2.63876">
        <ele>419.75</ele>
        <time>2022-07-22T06:41:16Z</time>
      </trkpt>
      <trkpt lat="46.26663" lon="2.63849">
        <ele>421.68</ele>
        <time>2022-07-22T06:41:31Z</time>
      </trkpt>
      <trkpt lat="46.26653" lon="2.63828">
        <ele>424.08</ele>
        <time>2022-07-22T06:41:47Z</time>
      </trkpt>
      <trkpt lat="46.26642" lon="2.63807">
        <ele>423.6</ele>
        <time>2022-07-22T06:42:01Z</time>
      </trkpt>
      <trkpt lat="46.26634" lon="2.63789">
        <ele>421.68</ele>
        <time>2022-07-22T06:42:16Z</time>
      </trkpt>
      <trkpt lat="46.26619" lon="2.63769">
        <ele>421.68</ele>
        <time>2022-07-22T06:42:33Z</time>
      </trkpt>
      <trkpt lat="46.26603" lon="2.63745">
        <ele>422.64</ele>
        <time>2022-07-22T06:42:51Z</time>
      </trkpt>
      <trkpt lat="46.26586" lon="2.63722">
        <ele>424.56</ele>
        <time>2022-07-22T06:43:09Z</time>
      </trkpt>
      <trkpt lat="46.26571" lon="2.637">
        <ele>423.12</ele>
        <time>2022-07-22T06:43:27Z</time>
      </trkpt>
      <trkpt lat="46.26556" lon="2.63683">
        <ele>422.16</ele>
        <time>2022-07-22T06:43:44Z</time>
      </trkpt>
      <trkpt lat="46.26539" lon="2.63677">
        <ele>420.71</ele>
        <time>2022-07-22T06:43:59Z</time>
      </trkpt>
      <trkpt lat="46.26521" lon="2.63666">
        <ele>418.79</ele>
        <time>2022-07-22T06:44:15Z</time>
      </trkpt>
      <trkpt lat="46.26503" lon="2.6365">
        <ele>415.91</ele>
        <time>2022-07-22T06:44:33Z</time>
      </trkpt>
      <trkpt lat="46.26483" lon="2.63632">
        <ele>416.87</ele>
        <time>2022-07-22T06:44:52Z</time>
      </trkpt>
      <trkpt lat="46.26465" lon="2.63612">
        <ele>417.35</ele>
        <time>2022-07-22T06:45:10Z</time>
      </trkpt>
      <trkpt lat="46.26447" lon="2.63594">
        <ele>415.43</ele>
        <time>2022-07-22T06:45:28Z</time>
      </trkpt>
      <trkpt lat="46.26428" lon="2.63576">
        <ele>412.54</ele>
        <time>2022-07-22T06:45:47Z</time>
      </trkpt>
      <trkpt lat="46.26407" lon="2.63561">
        <ele>412.06</ele>
        <time>2022-07-22T06:46:06Z</time>
      </trkpt>
      <trkpt lat="46.26387" lon="2.6355">
        <ele>411.1</ele>
        <time>2022-07-22T06:46:24Z</time>
      </trkpt>
      <trkpt lat="46.26369" lon="2.63546">
        <ele>407.26</ele>
        <time>2022-07-22T06:46:41Z</time>
      </trkpt>
      <trkpt lat="46.26341" lon="2.63551">
        <ele>405.81</ele>
        <time>2022-07-22T06:47:02Z</time>
      </trkpt>
      <trkpt lat="46.26317" lon="2.63563">
        <ele>407.74</ele>
        <time>2022-07-22T06:47:21Z</time>
      </trkpt>
      <trkpt lat="46.26295" lon="2.63559">
        <ele>407.74</ele>
        <time>2022-07-22T06:47:40Z</time>
      </trkpt>
      <trkpt lat="46.26278" lon="2.6355">
        <ele>407.26</ele>
        <time>2022-07-22T06:47:56Z</time>
      </trkpt>
      <trkpt lat="46.26264" lon="2.63541">
        <ele>407.26</ele>
        <time>2022-07-22T06:48:10Z</time>
      </trkpt>
      <trkpt lat="46.26242" lon="2.63526">
        <ele>405.81</ele>
        <time>2022-07-22T06:48:28Z</time>
      </trkpt>
      <trkpt lat="46.26224" lon="2.6351">
        <ele>403.41</ele>
        <time>2022-07-22T06:48:46Z</time>
      </trkpt>
      <trkpt lat="46.26213" lon="2.63495">
        <ele>401.49</ele>
        <time>2022-07-22T06:49:00Z</time>
      </trkpt>
      <trkpt lat="46.26202" lon="2.63472">
        <ele>401.97</ele>
        <time>2022-07-22T06:49:16Z</time>
      </trkpt>
      <trkpt lat="46.26187" lon="2.6344">
        <ele>404.37</ele>
        <time>2022-07-22T06:49:34Z</time>
      </trkpt>
      <trkpt lat="46.26173" lon="2.63418">
        <ele>404.85</ele>
        <time>2022-07-22T06:49:51Z</time>
      </trkpt>
      <trkpt lat="46.26158" lon="2.63402">
        <ele>403.41</ele>
        <time>2022-07-22T06:50:08Z</time>
      </trkpt>
      <trkpt lat="46.26139" lon="2.63382">
        <ele>401.97</ele>
        <time>2022-07-22T06:50:26Z</time>
      </trkpt>
      <trkpt lat="46.26136" lon="2.63382">
        <ele>401.97</ele>
        <time>2022-07-22T06:50:41Z</time>
      </trkpt>
      <trkpt lat="46.26133" lon="2.63382">
        <ele>401.49</ele>
        <time>2022-07-22T06:51:01Z</time>
      </trkpt>
      <trkpt lat="46.26123" lon="2.63374">
        <ele>400.05</ele>
        <time>2022-07-22T06:51:12Z</time>
      </trkpt>
      <trkpt lat="46.26104" lon="2.63362">
        <ele>398.6</ele>
        <time>2022-07-22T06:51:30Z</time>
      </trkpt>
      <trkpt lat="46.26077" lon="2.63353">
        <ele>397.16</ele>
        <time>2022-07-22T06:51:51Z</time>
      </trkpt>
      <trkpt lat="46.26055" lon="2.63345">
        <ele>392.84</ele>
        <time>2022-07-22T06:52:09Z</time>
      </trkpt>
      <trkpt lat="46.26033" lon="2.63337">
        <ele>394.76</ele>
        <time>2022-07-22T06:52:27Z</time>
      </trkpt>
      <trkpt lat="46.26012" lon="2.63331">
        <ele>395.24</ele>
        <time>2022-07-22T06:52:44Z</time>
      </trkpt>
      <trkpt lat="46.25991" lon="2.63327">
        <ele>394.28</ele>
        <time>2022-07-22T06:53:01Z</time>
      </trkpt>
      <trkpt lat="46.25971" lon="2.63325">
        <ele>392.84</ele>
        <time>2022-07-22T06:53:17Z</time>
      </trkpt>
      <trkpt lat="46.25953" lon="2.63316">
        <ele>392.36</ele>
        <time>2022-07-22T06:53:36Z</time>
      </trkpt>
      <trkpt lat="46.2594" lon="2.63305">
        <ele>390.43</ele>
        <time>2022-07-22T06:53:52Z</time>
      </trkpt>
      <trkpt lat="46.25925" lon="2.63294">
        <ele>390.43</ele>
        <time>2022-07-22T06:54:06Z</time>
      </trkpt>
      <trkpt lat="46.25916" lon="2.63287">
        <ele>393.32</ele>
        <time>2022-07-22T06:54:21Z</time>
      </trkpt>
      <trkpt lat="46.2591" lon="2.63284">
        <ele>393.32</ele>
        <time>2022-07-22T06:54:38Z</time>
      </trkpt>
      <trkpt lat="46.25904" lon="2.63277">
        <ele>392.36</ele>
        <time>2022-07-22T06:54:54Z</time>
      </trkpt>
      <trkpt lat="46.25902" lon="2.63278">
        <ele>392.36</ele>
        <time>2022-07-22T06:55:13Z</time>
      </trkpt>
      <trkpt lat="46.25901" lon="2.63275">
        <ele>394.76</ele>
        <time>2022-07-22T06:55:37Z</time>
      </trkpt>
      <trkpt lat="46.25899" lon="2.63269">
        <ele>399.08</ele>
        <time>2022-07-22T06:56:04Z</time>
      </trkpt>
      <trkpt lat="46.25897" lon="2.63264">
        <ele>401.49</ele>
        <time>2022-07-22T06:56:27Z</time>
      </trkpt>
      <trkpt lat="46.259" lon="2.6327">
        <ele>402.93</ele>
        <time>2022-07-22T06:56:57Z</time>
      </trkpt>
      <trkpt lat="46.25898" lon="2.63268">
        <ele>400.05</ele>
        <time>2022-07-22T06:57:20Z</time>
      </trkpt>
      <trkpt lat="46.25901" lon="2.63253">
        <ele>401.97</ele>
        <time>2022-07-22T06:57:57Z</time>
      </trkpt>
      <trkpt lat="46.25905" lon="2.63274">
        <ele>395.24</ele>
        <time>2022-07-22T06:58:16Z</time>
      </trkpt>
      <trkpt lat="46.25895" lon="2.63272">
        <ele>389.95</ele>
        <time>2022-07-22T06:58:43Z</time>
      </trkpt>
      <trkpt lat="46.25884" lon="2.63259">
        <ele>388.99</ele>
        <time>2022-07-22T06:58:56Z</time>
      </trkpt>
      <trkpt lat="46.25875" lon="2.63245">
        <ele>388.03</ele>
        <time>2022-07-22T06:59:08Z</time>
      </trkpt>
      <trkpt lat="46.25869" lon="2.63221">
        <ele>390.91</ele>
        <time>2022-07-22T06:59:25Z</time>
      </trkpt>
      <trkpt lat="46.25857" lon="2.63209">
        <ele>394.28</ele>
        <time>2022-07-22T06:59:40Z</time>
      </trkpt>
      <trkpt lat="46.25848" lon="2.63205">
        <ele>396.2</ele>
        <time>2022-07-22T06:59:53Z</time>
      </trkpt>
      <trkpt lat="46.25833" lon="2.63199">
        <ele>397.64</ele>
        <time>2022-07-22T07:00:09Z</time>
      </trkpt>
      <trkpt lat="46.2582" lon="2.63184">
        <ele>398.6</ele>
        <time>2022-07-22T07:00:26Z</time>
      </trkpt>
      <trkpt lat="46.2581" lon="2.63174">
        <ele>400.05</ele>
        <time>2022-07-22T07:00:40Z</time>
      </trkpt>
      <trkpt lat="46.258" lon="2.6316">
        <ele>402.45</ele>
        <time>2022-07-22T07:00:54Z</time>
      </trkpt>
      <trkpt lat="46.2579" lon="2.63146">
        <ele>404.37</ele>
        <time>2022-07-22T07:01:10Z</time>
      </trkpt>
      <trkpt lat="46.25778" lon="2.63137">
        <ele>406.29</ele>
        <time>2022-07-22T07:01:25Z</time>
      </trkpt>
      <trkpt lat="46.25769" lon="2.63127">
        <ele>410.14</ele>
        <time>2022-07-22T07:01:39Z</time>
      </trkpt>
      <trkpt lat="46.2576" lon="2.63119">
        <ele>413.02</ele>
        <time>2022-07-22T07:01:53Z</time>
      </trkpt>
      <trkpt lat="46.25749" lon="2.63113">
        <ele>417.35</ele>
        <time>2022-07-22T07:02:09Z</time>
      </trkpt>
      <trkpt lat="46.25742" lon="2.63104">
        <ele>419.27</ele>
        <time>2022-07-22T07:02:23Z</time>
      </trkpt>
      <trkpt lat="46.25732" lon="2.63092">
        <ele>421.19</ele>
        <time>2022-07-22T07:02:39Z</time>
      </trkpt>
      <trkpt lat="46.25724" lon="2.63083">
        <ele>420.71</ele>
        <time>2022-07-22T07:02:52Z</time>
      </trkpt>
      <trkpt lat="46.25711" lon="2.63066">
        <ele>422.16</ele>
        <time>2022-07-22T07:03:09Z</time>
      </trkpt>
      <trkpt lat="46.25697" lon="2.63053">
        <ele>425.04</ele>
        <time>2022-07-22T07:03:24Z</time>
      </trkpt>
      <trkpt lat="46.25679" lon="2.63043">
        <ele>427.92</ele>
        <time>2022-07-22T07:03:41Z</time>
      </trkpt>
      <trkpt lat="46.25661" lon="2.63034">
        <ele>429.37</ele>
        <time>2022-07-22T07:03:57Z</time>
      </trkpt>
      <trkpt lat="46.25645" lon="2.63022">
        <ele>429.85</ele>
        <time>2022-07-22T07:04:13Z</time>
      </trkpt>
      <trkpt lat="46.2563" lon="2.63009">
        <ele>429.85</ele>
        <time>2022-07-22T07:04:29Z</time>
      </trkpt>
      <trkpt lat="46.25612" lon="2.63002">
        <ele>432.25</ele>
        <time>2022-07-22T07:04:44Z</time>
      </trkpt>
      <trkpt lat="46.25603" lon="2.63003">
        <ele>432.73</ele>
        <time>2022-07-22T07:04:52Z</time>
      </trkpt>
      <trkpt lat="46.25579" lon="2.63">
        <ele>435.13</ele>
        <time>2022-07-22T07:05:12Z</time>
      </trkpt>
      <trkpt lat="46.2556" lon="2.62998">
        <ele>436.1</ele>
        <time>2022-07-22T07:05:27Z</time>
      </trkpt>
      <trkpt lat="46.25537" lon="2.62992">
        <ele>436.58</ele>
        <time>2022-07-22T07:05:47Z</time>
      </trkpt>
      <trkpt lat="46.25513" lon="2.62985">
        <ele>435.61</ele>
        <time>2022-07-22T07:06:07Z</time>
      </trkpt>
      <trkpt lat="46.25493" lon="2.62975">
        <ele>435.61</ele>
        <time>2022-07-22T07:06:25Z</time>
      </trkpt>
      <trkpt lat="46.25469" lon="2.6296">
        <ele>436.58</ele>
        <time>2022-07-22T07:06:46Z</time>
      </trkpt>
      <trkpt lat="46.25449" lon="2.62943">
        <ele>438.02</ele>
        <time>2022-07-22T07:07:05Z</time>
      </trkpt>
      <trkpt lat="46.25431" lon="2.62926">
        <ele>438.02</ele>
        <time>2022-07-22T07:07:22Z</time>
      </trkpt>
      <trkpt lat="46.2541" lon="2.62905">
        <ele>437.06</ele>
        <time>2022-07-22T07:07:43Z</time>
      </trkpt>
      <trkpt lat="46.25385" lon="2.6288">
        <ele>436.1</ele>
        <time>2022-07-22T07:08:07Z</time>
      </trkpt>
      <trkpt lat="46.25368" lon="2.62856">
        <ele>436.1</ele>
        <time>2022-07-22T07:08:26Z</time>
      </trkpt>
      <trkpt lat="46.25349" lon="2.62828">
        <ele>437.06</ele>
        <time>2022-07-22T07:08:47Z</time>
      </trkpt>
      <trkpt lat="46.25331" lon="2.62801">
        <ele>435.13</ele>
        <time>2022-07-22T07:09:09Z</time>
      </trkpt>
      <trkpt lat="46.25314" lon="2.62776">
        <ele>433.21</ele>
        <time>2022-07-22T07:09:30Z</time>
      </trkpt>
      <trkpt lat="46.25292" lon="2.62754">
        <ele>431.29</ele>
        <time>2022-07-22T07:09:52Z</time>
      </trkpt>
      <trkpt lat="46.25267" lon="2.62739">
        <ele>429.37</ele>
        <time>2022-07-22T07:10:14Z</time>
      </trkpt>
      <trkpt lat="46.25246" lon="2.62725">
        <ele>427.44</ele>
        <time>2022-07-22T07:10:34Z</time>
      </trkpt>
      <trkpt lat="46.25224" lon="2.62713">
        <ele>426.48</ele>
        <time>2022-07-22T07:10:53Z</time>
      </trkpt>
      <trkpt lat="46.25201" lon="2.62697">
        <ele>425.52</ele>
        <time>2022-07-22T07:11:14Z</time>
      </trkpt>
      <trkpt lat="46.25183" lon="2.62668">
        <ele>426.48</ele>
        <time>2022-07-22T07:11:36Z</time>
      </trkpt>
      <trkpt lat="46.25171" lon="2.62635">
        <ele>426.48</ele>
        <time>2022-07-22T07:11:58Z</time>
      </trkpt>
      <trkpt lat="46.25165" lon="2.62605">
        <ele>425.04</ele>
        <time>2022-07-22T07:12:16Z</time>
      </trkpt>
      <trkpt lat="46.25159" lon="2.62578">
        <ele>422.16</ele>
        <time>2022-07-22T07:12:34Z</time>
      </trkpt>
      <trkpt lat="46.25156" lon="2.62558">
        <ele>420.23</ele>
        <time>2022-07-22T07:12:48Z</time>
      </trkpt>
      <trkpt lat="46.25143" lon="2.62534">
        <ele>419.75</ele>
        <time>2022-07-22T07:13:06Z</time>
      </trkpt>
      <trkpt lat="46.2514" lon="2.62527">
        <ele>417.83</ele>
        <time>2022-07-22T07:13:20Z</time>
      </trkpt>
      <trkpt lat="46.25122" lon="2.62497">
        <ele>415.91</ele>
        <time>2022-07-22T07:13:42Z</time>
      </trkpt>
      <trkpt lat="46.25107" lon="2.62473">
        <ele>413.5</ele>
        <time>2022-07-22T07:14:02Z</time>
      </trkpt>
      <trkpt lat="46.25094" lon="2.62453">
        <ele>411.1</ele>
        <time>2022-07-22T07:14:20Z</time>
      </trkpt>
      <trkpt lat="46.25093" lon="2.6245">
        <ele>410.62</ele>
        <time>2022-07-22T07:14:22Z</time>
      </trkpt>
      <trkpt lat="46.25088" lon="2.62424">
        <ele>408.22</ele>
        <time>2022-07-22T07:14:38Z</time>
      </trkpt>
      <trkpt lat="46.2509" lon="2.62394">
        <ele>403.89</ele>
        <time>2022-07-22T07:14:56Z</time>
      </trkpt>
      <trkpt lat="46.2509" lon="2.6237">
        <ele>400.53</ele>
        <time>2022-07-22T07:15:11Z</time>
      </trkpt>
      <trkpt lat="46.25078" lon="2.62344">
        <ele>402.45</ele>
        <time>2022-07-22T07:15:28Z</time>
      </trkpt>
      <trkpt lat="46.25072" lon="2.62322">
        <ele>401.97</ele>
        <time>2022-07-22T07:15:43Z</time>
      </trkpt>
      <trkpt lat="46.25067" lon="2.62301">
        <ele>399.57</ele>
        <time>2022-07-22T07:15:57Z</time>
      </trkpt>
      <trkpt lat="46.25062" lon="2.62281">
        <ele>400.05</ele>
        <time>2022-07-22T07:16:10Z</time>
      </trkpt>
      <trkpt lat="46.25058" lon="2.62254">
        <ele>399.57</ele>
        <time>2022-07-22T07:16:26Z</time>
      </trkpt>
      <trkpt lat="46.25053" lon="2.62225">
        <ele>402.45</ele>
        <time>2022-07-22T07:16:43Z</time>
      </trkpt>
      <trkpt lat="46.2504" lon="2.6221">
        <ele>408.22</ele>
        <time>2022-07-22T07:17:00Z</time>
      </trkpt>
      <trkpt lat="46.25038" lon="2.62209">
        <ele>408.22</ele>
        <time>2022-07-22T07:17:09Z</time>
      </trkpt>
      <trkpt lat="46.25023" lon="2.62206">
        <ele>408.22</ele>
        <time>2022-07-22T07:17:25Z</time>
      </trkpt>
      <trkpt lat="46.25013" lon="2.62205">
        <ele>408.7</ele>
        <time>2022-07-22T07:17:39Z</time>
      </trkpt>
      <trkpt lat="46.25007" lon="2.62203">
        <ele>414.47</ele>
        <time>2022-07-22T07:18:13Z</time>
      </trkpt>
      <trkpt lat="46.24995" lon="2.62201">
        <ele>414.47</ele>
        <time>2022-07-22T07:18:27Z</time>
      </trkpt>
      <trkpt lat="46.24979" lon="2.62198">
        <ele>415.43</ele>
        <time>2022-07-22T07:18:43Z</time>
      </trkpt>
      <trkpt lat="46.24973" lon="2.62197">
        <ele>415.43</ele>
        <time>2022-07-22T07:18:49Z</time>
      </trkpt>
      <trkpt lat="46.24969" lon="2.62198">
        <ele>415.91</ele>
        <time>2022-07-22T07:18:53Z</time>
      </trkpt>
      <trkpt lat="46.24957" lon="2.62183">
        <ele>419.27</ele>
        <time>2022-07-22T07:19:10Z</time>
      </trkpt>
      <trkpt lat="46.24954" lon="2.62179">
        <ele>418.79</ele>
        <time>2022-07-22T07:19:14Z</time>
      </trkpt>
      <trkpt lat="46.24948" lon="2.62163">
        <ele>417.83</ele>
        <time>2022-07-22T07:19:30Z</time>
      </trkpt>
      <trkpt lat="46.24941" lon="2.62147">
        <ele>417.83</ele>
        <time>2022-07-22T07:19:45Z</time>
      </trkpt>
      <trkpt lat="46.24933" lon="2.62125">
        <ele>415.91</ele>
        <time>2022-07-22T07:20:02Z</time>
      </trkpt>
      <trkpt lat="46.24929" lon="2.62107">
        <ele>413.5</ele>
        <time>2022-07-22T07:20:18Z</time>
      </trkpt>
      <trkpt lat="46.24923" lon="2.62082">
        <ele>412.54</ele>
        <time>2022-07-22T07:20:34Z</time>
      </trkpt>
      <trkpt lat="46.2492" lon="2.62063">
        <ele>412.06</ele>
        <time>2022-07-22T07:20:46Z</time>
      </trkpt>
      <trkpt lat="46.24919" lon="2.62057">
        <ele>412.54</ele>
        <time>2022-07-22T07:20:49Z</time>
      </trkpt>
      <trkpt lat="46.24914" lon="2.6203">
        <ele>413.5</ele>
        <time>2022-07-22T07:21:06Z</time>
      </trkpt>
      <trkpt lat="46.2491" lon="2.62016">
        <ele>415.43</ele>
        <time>2022-07-22T07:21:22Z</time>
      </trkpt>
      <trkpt lat="46.24905" lon="2.62002">
        <ele>416.39</ele>
        <time>2022-07-22T07:21:42Z</time>
      </trkpt>
      <trkpt lat="46.24897" lon="2.61976">
        <ele>416.39</ele>
        <time>2022-07-22T07:22:01Z</time>
      </trkpt>
      <trkpt lat="46.24891" lon="2.61954">
        <ele>417.35</ele>
        <time>2022-07-22T07:22:15Z</time>
      </trkpt>
      <trkpt lat="46.24883" lon="2.61927">
        <ele>419.27</ele>
        <time>2022-07-22T07:22:31Z</time>
      </trkpt>
      <trkpt lat="46.24875" lon="2.61903">
        <ele>419.75</ele>
        <time>2022-07-22T07:22:46Z</time>
      </trkpt>
      <trkpt lat="46.24874" lon="2.61897">
        <ele>419.27</ele>
        <time>2022-07-22T07:22:50Z</time>
      </trkpt>
      <trkpt lat="46.24874" lon="2.61894">
        <ele>419.75</ele>
        <time>2022-07-22T07:22:52Z</time>
      </trkpt>
      <trkpt lat="46.24877" lon="2.61891">
        <ele>419.27</ele>
        <time>2022-07-22T07:22:56Z</time>
      </trkpt>
      <trkpt lat="46.24898" lon="2.61892">
        <ele>417.35</ele>
        <time>2022-07-22T07:23:14Z</time>
      </trkpt>
      <trkpt lat="46.24921" lon="2.61888">
        <ele>413.02</ele>
        <time>2022-07-22T07:23:35Z</time>
      </trkpt>
      <trkpt lat="46.24944" lon="2.61885">
        <ele>408.7</ele>
        <time>2022-07-22T07:23:56Z</time>
      </trkpt>
      <trkpt lat="46.24965" lon="2.61881">
        <ele>407.26</ele>
        <time>2022-07-22T07:24:14Z</time>
      </trkpt>
      <trkpt lat="46.24986" lon="2.61865">
        <ele>403.89</ele>
        <time>2022-07-22T07:24:34Z</time>
      </trkpt>
      <trkpt lat="46.25003" lon="2.61851">
        <ele>400.53</ele>
        <time>2022-07-22T07:24:51Z</time>
      </trkpt>
      <trkpt lat="46.25007" lon="2.61844">
        <ele>399.08</ele>
        <time>2022-07-22T07:24:57Z</time>
      </trkpt>
      <trkpt lat="46.25027" lon="2.61822">
        <ele>395.24</ele>
        <time>2022-07-22T07:25:17Z</time>
      </trkpt>
      <trkpt lat="46.25041" lon="2.61806">
        <ele>395.72</ele>
        <time>2022-07-22T07:25:32Z</time>
      </trkpt>
      <trkpt lat="46.25046" lon="2.61801">
        <ele>395.72</ele>
        <time>2022-07-22T07:25:37Z</time>
      </trkpt>
      <trkpt lat="46.25063" lon="2.61788">
        <ele>394.28</ele>
        <time>2022-07-22T07:25:54Z</time>
      </trkpt>
      <trkpt lat="46.25079" lon="2.61777">
        <ele>392.84</ele>
        <time>2022-07-22T07:26:10Z</time>
      </trkpt>
      <trkpt lat="46.25086" lon="2.61772">
        <ele>393.32</ele>
        <time>2022-07-22T07:26:16Z</time>
      </trkpt>
      <trkpt lat="46.25088" lon="2.61762">
        <ele>394.76</ele>
        <time>2022-07-22T07:26:24Z</time>
      </trkpt>
      <trkpt lat="46.25072" lon="2.61749">
        <ele>397.16</ele>
        <time>2022-07-22T07:26:42Z</time>
      </trkpt>
      <trkpt lat="46.25067" lon="2.61745">
        <ele>398.12</ele>
        <time>2022-07-22T07:26:47Z</time>
      </trkpt>
      <trkpt lat="46.25065" lon="2.61743">
        <ele>398.12</ele>
        <time>2022-07-22T07:26:49Z</time>
      </trkpt>
      <trkpt lat="46.25047" lon="2.61729">
        <ele>401.01</ele>
        <time>2022-07-22T07:27:08Z</time>
      </trkpt>
      <trkpt lat="46.25033" lon="2.61722">
        <ele>403.89</ele>
        <time>2022-07-22T07:27:23Z</time>
      </trkpt>
      <trkpt lat="46.2502" lon="2.61714">
        <ele>404.37</ele>
        <time>2022-07-22T07:27:37Z</time>
      </trkpt>
      <trkpt lat="46.25001" lon="2.61707">
        <ele>405.33</ele>
        <time>2022-07-22T07:27:53Z</time>
      </trkpt>
      <trkpt lat="46.24982" lon="2.617">
        <ele>404.85</ele>
        <time>2022-07-22T07:28:10Z</time>
      </trkpt>
      <trkpt lat="46.24963" lon="2.61691">
        <ele>405.33</ele>
        <time>2022-07-22T07:28:27Z</time>
      </trkpt>
      <trkpt lat="46.24941" lon="2.61683">
        <ele>406.29</ele>
        <time>2022-07-22T07:28:45Z</time>
      </trkpt>
      <trkpt lat="46.24919" lon="2.61675">
        <ele>408.22</ele>
        <time>2022-07-22T07:29:03Z</time>
      </trkpt>
      <trkpt lat="46.249" lon="2.61669">
        <ele>410.14</ele>
        <time>2022-07-22T07:29:19Z</time>
      </trkpt>
      <trkpt lat="46.24884" lon="2.61666">
        <ele>409.18</ele>
        <time>2022-07-22T07:29:34Z</time>
      </trkpt>
      <trkpt lat="46.24882" lon="2.61666">
        <ele>409.18</ele>
        <time>2022-07-22T07:29:36Z</time>
      </trkpt>
      <trkpt lat="46.24866" lon="2.61659">
        <ele>408.7</ele>
        <time>2022-07-22T07:29:53Z</time>
      </trkpt>
      <trkpt lat="46.24854" lon="2.61649">
        <ele>409.66</ele>
        <time>2022-07-22T07:30:04Z</time>
      </trkpt>
      <trkpt lat="46.24842" lon="2.6164">
        <ele>410.14</ele>
        <time>2022-07-22T07:30:19Z</time>
      </trkpt>
      <trkpt lat="46.24828" lon="2.61632">
        <ele>411.58</ele>
        <time>2022-07-22T07:30:34Z</time>
      </trkpt>
      <trkpt lat="46.24812" lon="2.6162">
        <ele>411.1</ele>
        <time>2022-07-22T07:30:49Z</time>
      </trkpt>
      <trkpt lat="46.24802" lon="2.61615">
        <ele>411.58</ele>
        <time>2022-07-22T07:30:58Z</time>
      </trkpt>
      <trkpt lat="46.24785" lon="2.61605">
        <ele>411.58</ele>
        <time>2022-07-22T07:31:14Z</time>
      </trkpt>
      <trkpt lat="46.2477" lon="2.61597">
        <ele>412.06</ele>
        <time>2022-07-22T07:31:29Z</time>
      </trkpt>
      <trkpt lat="46.24755" lon="2.6159">
        <ele>411.58</ele>
        <time>2022-07-22T07:31:43Z</time>
      </trkpt>
      <trkpt lat="46.24738" lon="2.61582">
        <ele>412.54</ele>
        <time>2022-07-22T07:31:59Z</time>
      </trkpt>
      <trkpt lat="46.24722" lon="2.61572">
        <ele>414.47</ele>
        <time>2022-07-22T07:32:13Z</time>
      </trkpt>
      <trkpt lat="46.24703" lon="2.61562">
        <ele>416.39</ele>
        <time>2022-07-22T07:32:29Z</time>
      </trkpt>
      <trkpt lat="46.24685" lon="2.61556">
        <ele>416.87</ele>
        <time>2022-07-22T07:32:44Z</time>
      </trkpt>
      <trkpt lat="46.24666" lon="2.6155">
        <ele>418.31</ele>
        <time>2022-07-22T07:33:00Z</time>
      </trkpt>
      <trkpt lat="46.24647" lon="2.61539">
        <ele>423.12</ele>
        <time>2022-07-22T07:33:16Z</time>
      </trkpt>
      <trkpt lat="46.24635" lon="2.61531">
        <ele>424.56</ele>
        <time>2022-07-22T07:33:26Z</time>
      </trkpt>
      <trkpt lat="46.24617" lon="2.61518">
        <ele>427.92</ele>
        <time>2022-07-22T07:33:41Z</time>
      </trkpt>
      <trkpt lat="46.24605" lon="2.61512">
        <ele>429.85</ele>
        <time>2022-07-22T07:33:54Z</time>
      </trkpt>
      <trkpt lat="46.24606" lon="2.61509">
        <ele>428.89</ele>
        <time>2022-07-22T07:34:12Z</time>
      </trkpt>
      <trkpt lat="46.24607" lon="2.61507">
        <ele>428.89</ele>
        <time>2022-07-22T07:34:42Z</time>
      </trkpt>
      <trkpt lat="46.24605" lon="2.6151">
        <ele>426.48</ele>
        <time>2022-07-22T07:34:55Z</time>
      </trkpt>
      <trkpt lat="46.24604" lon="2.6151">
        <ele>426</ele>
        <time>2022-07-22T07:35:11Z</time>
      </trkpt>
      <trkpt lat="46.24589" lon="2.61498">
        <ele>425.52</ele>
        <time>2022-07-22T07:35:27Z</time>
      </trkpt>
      <trkpt lat="46.24574" lon="2.61489">
        <ele>422.16</ele>
        <time>2022-07-22T07:35:42Z</time>
      </trkpt>
      <trkpt lat="46.24565" lon="2.61485">
        <ele>420.71</ele>
        <time>2022-07-22T07:35:50Z</time>
      </trkpt>
      <trkpt lat="46.24549" lon="2.61473">
        <ele>420.71</ele>
        <time>2022-07-22T07:36:06Z</time>
      </trkpt>
      <trkpt lat="46.24539" lon="2.6146">
        <ele>421.68</ele>
        <time>2022-07-22T07:36:15Z</time>
      </trkpt>
      <trkpt lat="46.24524" lon="2.61448">
        <ele>418.79</ele>
        <time>2022-07-22T07:36:31Z</time>
      </trkpt>
      <trkpt lat="46.24508" lon="2.61438">
        <ele>413.98</ele>
        <time>2022-07-22T07:36:49Z</time>
      </trkpt>
      <trkpt lat="46.24493" lon="2.61428">
        <ele>410.14</ele>
        <time>2022-07-22T07:37:04Z</time>
      </trkpt>
      <trkpt lat="46.24475" lon="2.61415">
        <ele>408.7</ele>
        <time>2022-07-22T07:37:21Z</time>
      </trkpt>
      <trkpt lat="46.24462" lon="2.61405">
        <ele>408.22</ele>
        <time>2022-07-22T07:37:35Z</time>
      </trkpt>
      <trkpt lat="46.24445" lon="2.61397">
        <ele>406.29</ele>
        <time>2022-07-22T07:37:49Z</time>
      </trkpt>
      <trkpt lat="46.24423" lon="2.61389">
        <ele>406.29</ele>
        <time>2022-07-22T07:38:05Z</time>
      </trkpt>
      <trkpt lat="46.24408" lon="2.61385">
        <ele>404.85</ele>
        <time>2022-07-22T07:38:17Z</time>
      </trkpt>
      <trkpt lat="46.24387" lon="2.6138">
        <ele>401.97</ele>
        <time>2022-07-22T07:38:36Z</time>
      </trkpt>
      <trkpt lat="46.24367" lon="2.61379">
        <ele>400.05</ele>
        <time>2022-07-22T07:38:54Z</time>
      </trkpt>
      <trkpt lat="46.24348" lon="2.61378">
        <ele>398.12</ele>
        <time>2022-07-22T07:39:10Z</time>
      </trkpt>
      <trkpt lat="46.24332" lon="2.61379">
        <ele>394.76</ele>
        <time>2022-07-22T07:39:26Z</time>
      </trkpt>
      <trkpt lat="46.24314" lon="2.61383">
        <ele>392.36</ele>
        <time>2022-07-22T07:39:43Z</time>
      </trkpt>
      <trkpt lat="46.24289" lon="2.61395">
        <ele>390.91</ele>
        <time>2022-07-22T07:40:01Z</time>
      </trkpt>
      <trkpt lat="46.24275" lon="2.61406">
        <ele>391.87</ele>
        <time>2022-07-22T07:40:16Z</time>
      </trkpt>
      <trkpt lat="46.24263" lon="2.61413">
        <ele>392.84</ele>
        <time>2022-07-22T07:40:29Z</time>
      </trkpt>
      <trkpt lat="46.24245" lon="2.61419">
        <ele>391.39</ele>
        <time>2022-07-22T07:40:44Z</time>
      </trkpt>
      <trkpt lat="46.24226" lon="2.61417">
        <ele>390.91</ele>
        <time>2022-07-22T07:41:00Z</time>
      </trkpt>
      <trkpt lat="46.24224" lon="2.61417">
        <ele>390.91</ele>
        <time>2022-07-22T07:41:02Z</time>
      </trkpt>
      <trkpt lat="46.24212" lon="2.61416">
        <ele>388.03</ele>
        <time>2022-07-22T07:41:17Z</time>
      </trkpt>
      <trkpt lat="46.24199" lon="2.61407">
        <ele>385.63</ele>
        <time>2022-07-22T07:41:34Z</time>
      </trkpt>
      <trkpt lat="46.24191" lon="2.61397">
        <ele>382.26</ele>
        <time>2022-07-22T07:41:48Z</time>
      </trkpt>
      <trkpt lat="46.24183" lon="2.61376">
        <ele>380.34</ele>
        <time>2022-07-22T07:42:05Z</time>
      </trkpt>
      <trkpt lat="46.24176" lon="2.61356">
        <ele>380.34</ele>
        <time>2022-07-22T07:42:17Z</time>
      </trkpt>
      <trkpt lat="46.24174" lon="2.61346">
        <ele>378.42</ele>
        <time>2022-07-22T07:42:33Z</time>
      </trkpt>
      <trkpt lat="46.24167" lon="2.61326">
        <ele>378.9</ele>
        <time>2022-07-22T07:42:46Z</time>
      </trkpt>
      <trkpt lat="46.24155" lon="2.613">
        <ele>376.01</ele>
        <time>2022-07-22T07:43:01Z</time>
      </trkpt>
      <trkpt lat="46.2415" lon="2.61285">
        <ele>374.57</ele>
        <time>2022-07-22T07:43:13Z</time>
      </trkpt>
      <trkpt lat="46.24142" lon="2.61267">
        <ele>373.13</ele>
        <time>2022-07-22T07:43:27Z</time>
      </trkpt>
      <trkpt lat="46.24137" lon="2.61253">
        <ele>371.69</ele>
        <time>2022-07-22T07:43:39Z</time>
      </trkpt>
      <trkpt lat="46.24133" lon="2.61245">
        <ele>371.21</ele>
        <time>2022-07-22T07:43:44Z</time>
      </trkpt>
      <trkpt lat="46.24119" lon="2.6123">
        <ele>373.61</ele>
        <time>2022-07-22T07:43:56Z</time>
      </trkpt>
      <trkpt lat="46.24112" lon="2.61218">
        <ele>374.57</ele>
        <time>2022-07-22T07:44:07Z</time>
      </trkpt>
      <trkpt lat="46.24107" lon="2.61195">
        <ele>379.86</ele>
        <time>2022-07-22T07:44:21Z</time>
      </trkpt>
      <trkpt lat="46.24109" lon="2.61187">
        <ele>382.26</ele>
        <time>2022-07-22T07:44:35Z</time>
      </trkpt>
      <trkpt lat="46.24114" lon="2.61174">
        <ele>380.82</ele>
        <time>2022-07-22T07:44:46Z</time>
      </trkpt>
      <trkpt lat="46.24118" lon="2.61155">
        <ele>383.7</ele>
        <time>2022-07-22T07:44:57Z</time>
      </trkpt>
      <trkpt lat="46.24121" lon="2.61143">
        <ele>387.07</ele>
        <time>2022-07-22T07:45:11Z</time>
      </trkpt>
      <trkpt lat="46.24128" lon="2.61131">
        <ele>384.18</ele>
        <time>2022-07-22T07:45:25Z</time>
      </trkpt>
      <trkpt lat="46.24138" lon="2.61122">
        <ele>379.86</ele>
        <time>2022-07-22T07:45:40Z</time>
      </trkpt>
      <trkpt lat="46.24144" lon="2.6111">
        <ele>376.97</ele>
        <time>2022-07-22T07:45:53Z</time>
      </trkpt>
      <trkpt lat="46.2415" lon="2.61088">
        <ele>378.9</ele>
        <time>2022-07-22T07:46:08Z</time>
      </trkpt>
      <trkpt lat="46.24154" lon="2.6107">
        <ele>377.45</ele>
        <time>2022-07-22T07:46:23Z</time>
      </trkpt>
      <trkpt lat="46.24154" lon="2.61055">
        <ele>375.53</ele>
        <time>2022-07-22T07:46:36Z</time>
      </trkpt>
      <trkpt lat="46.24158" lon="2.61038">
        <ele>376.49</ele>
        <time>2022-07-22T07:46:51Z</time>
      </trkpt>
      <trkpt lat="46.24166" lon="2.61026">
        <ele>375.53</ele>
        <time>2022-07-22T07:47:06Z</time>
      </trkpt>
      <trkpt lat="46.24178" lon="2.61014">
        <ele>373.61</ele>
        <time>2022-07-22T07:47:21Z</time>
      </trkpt>
      <trkpt lat="46.24191" lon="2.60998">
        <ele>380.34</ele>
        <time>2022-07-22T07:47:37Z</time>
      </trkpt>
      <trkpt lat="46.24192" lon="2.60982">
        <ele>386.11</ele>
        <time>2022-07-22T07:47:52Z</time>
      </trkpt>
      <trkpt lat="46.24183" lon="2.60974">
        <ele>389.47</ele>
        <time>2022-07-22T07:48:07Z</time>
      </trkpt>
      <trkpt lat="46.24168" lon="2.60966">
        <ele>392.36</ele>
        <time>2022-07-22T07:48:23Z</time>
      </trkpt>
      <trkpt lat="46.24159" lon="2.60958">
        <ele>394.76</ele>
        <time>2022-07-22T07:48:37Z</time>
      </trkpt>
      <trkpt lat="46.24149" lon="2.60953">
        <ele>398.12</ele>
        <time>2022-07-22T07:48:54Z</time>
      </trkpt>
      <trkpt lat="46.24137" lon="2.60953">
        <ele>399.08</ele>
        <time>2022-07-22T07:49:07Z</time>
      </trkpt>
      <trkpt lat="46.24124" lon="2.60958">
        <ele>397.16</ele>
        <time>2022-07-22T07:49:22Z</time>
      </trkpt>
      <trkpt lat="46.24108" lon="2.60965">
        <ele>394.76</ele>
        <time>2022-07-22T07:49:39Z</time>
      </trkpt>
      <trkpt lat="46.24097" lon="2.60975">
        <ele>392.36</ele>
        <time>2022-07-22T07:49:52Z</time>
      </trkpt>
      <trkpt lat="46.24082" lon="2.60986">
        <ele>392.36</ele>
        <time>2022-07-22T07:50:07Z</time>
      </trkpt>
      <trkpt lat="46.24063" lon="2.60989">
        <ele>396.68</ele>
        <time>2022-07-22T07:50:21Z</time>
      </trkpt>
      <trkpt lat="46.24047" lon="2.60987">
        <ele>402.93</ele>
        <time>2022-07-22T07:50:35Z</time>
      </trkpt>
      <trkpt lat="46.2403" lon="2.60978">
        <ele>407.26</ele>
        <time>2022-07-22T07:50:52Z</time>
      </trkpt>
      <trkpt lat="46.24016" lon="2.60961">
        <ele>409.66</ele>
        <time>2022-07-22T07:51:07Z</time>
      </trkpt>
      <trkpt lat="46.24007" lon="2.60954">
        <ele>410.62</ele>
        <time>2022-07-22T07:51:16Z</time>
      </trkpt>
      <trkpt lat="46.23993" lon="2.60943">
        <ele>410.62</ele>
        <time>2022-07-22T07:51:31Z</time>
      </trkpt>
      <trkpt lat="46.23979" lon="2.60931">
        <ele>414.47</ele>
        <time>2022-07-22T07:51:44Z</time>
      </trkpt>
      <trkpt lat="46.23969" lon="2.60915">
        <ele>416.87</ele>
        <time>2022-07-22T07:52:01Z</time>
      </trkpt>
      <trkpt lat="46.23958" lon="2.60899">
        <ele>418.79</ele>
        <time>2022-07-22T07:52:16Z</time>
      </trkpt>
      <trkpt lat="46.23952" lon="2.60886">
        <ele>421.19</ele>
        <time>2022-07-22T07:52:30Z</time>
      </trkpt>
      <trkpt lat="46.23948" lon="2.60882">
        <ele>422.64</ele>
        <time>2022-07-22T07:52:55Z</time>
      </trkpt>
      <trkpt lat="46.23937" lon="2.60865">
        <ele>423.12</ele>
        <time>2022-07-22T07:53:10Z</time>
      </trkpt>
      <trkpt lat="46.23929" lon="2.60851">
        <ele>423.6</ele>
        <time>2022-07-22T07:53:25Z</time>
      </trkpt>
      <trkpt lat="46.23922" lon="2.60839">
        <ele>424.56</ele>
        <time>2022-07-22T07:53:36Z</time>
      </trkpt>
      <trkpt lat="46.23914" lon="2.60827">
        <ele>425.52</ele>
        <time>2022-07-22T07:53:47Z</time>
      </trkpt>
      <trkpt lat="46.239" lon="2.60808">
        <ele>426</ele>
        <time>2022-07-22T07:54:04Z</time>
      </trkpt>
      <trkpt lat="46.23897" lon="2.60805">
        <ele>427.44</ele>
        <time>2022-07-22T07:54:18Z</time>
      </trkpt>
      <trkpt lat="46.23898" lon="2.60804">
        <ele>430.81</ele>
        <time>2022-07-22T07:54:41Z</time>
      </trkpt>
      <trkpt lat="46.23891" lon="2.60794">
        <ele>428.4</ele>
        <time>2022-07-22T07:54:57Z</time>
      </trkpt>
      <trkpt lat="46.23878" lon="2.60777">
        <ele>426.48</ele>
        <time>2022-07-22T07:55:13Z</time>
      </trkpt>
      <trkpt lat="46.23864" lon="2.60759">
        <ele>426</ele>
        <time>2022-07-22T07:55:30Z</time>
      </trkpt>
      <trkpt lat="46.23848" lon="2.6074">
        <ele>426.48</ele>
        <time>2022-07-22T07:55:47Z</time>
      </trkpt>
      <trkpt lat="46.23828" lon="2.60718">
        <ele>427.92</ele>
        <time>2022-07-22T07:56:05Z</time>
      </trkpt>
      <trkpt lat="46.23811" lon="2.607">
        <ele>429.37</ele>
        <time>2022-07-22T07:56:21Z</time>
      </trkpt>
      <trkpt lat="46.23791" lon="2.60681">
        <ele>430.33</ele>
        <time>2022-07-22T07:56:41Z</time>
      </trkpt>
      <trkpt lat="46.23777" lon="2.60668">
        <ele>431.29</ele>
        <time>2022-07-22T07:56:55Z</time>
      </trkpt>
      <trkpt lat="46.23763" lon="2.60654">
        <ele>431.77</ele>
        <time>2022-07-22T07:57:10Z</time>
      </trkpt>
      <trkpt lat="46.2375" lon="2.60643">
        <ele>432.73</ele>
        <time>2022-07-22T07:57:24Z</time>
      </trkpt>
      <trkpt lat="46.23737" lon="2.60623">
        <ele>434.17</ele>
        <time>2022-07-22T07:57:40Z</time>
      </trkpt>
      <trkpt lat="46.23726" lon="2.60606">
        <ele>432.73</ele>
        <time>2022-07-22T07:57:55Z</time>
      </trkpt>
      <trkpt lat="46.23713" lon="2.60587">
        <ele>432.73</ele>
        <time>2022-07-22T07:58:11Z</time>
      </trkpt>
      <trkpt lat="46.23698" lon="2.60565">
        <ele>432.73</ele>
        <time>2022-07-22T07:58:29Z</time>
      </trkpt>
      <trkpt lat="46.23684" lon="2.60544">
        <ele>433.21</ele>
        <time>2022-07-22T07:58:46Z</time>
      </trkpt>
      <trkpt lat="46.23675" lon="2.60531">
        <ele>433.21</ele>
        <time>2022-07-22T07:58:58Z</time>
      </trkpt>
      <trkpt lat="46.23661" lon="2.60507">
        <ele>433.21</ele>
        <time>2022-07-22T07:59:16Z</time>
      </trkpt>
      <trkpt lat="46.23646" lon="2.60477">
        <ele>433.69</ele>
        <time>2022-07-22T07:59:37Z</time>
      </trkpt>
      <trkpt lat="46.23632" lon="2.60452">
        <ele>434.17</ele>
        <time>2022-07-22T07:59:55Z</time>
      </trkpt>
      <trkpt lat="46.2362" lon="2.60431">
        <ele>434.65</ele>
        <time>2022-07-22T08:00:12Z</time>
      </trkpt>
      <trkpt lat="46.23606" lon="2.60403">
        <ele>437.06</ele>
        <time>2022-07-22T08:00:32Z</time>
      </trkpt>
      <trkpt lat="46.23595" lon="2.6038">
        <ele>438.5</ele>
        <time>2022-07-22T08:00:49Z</time>
      </trkpt>
      <trkpt lat="46.23582" lon="2.60358">
        <ele>438.5</ele>
        <time>2022-07-22T08:01:07Z</time>
      </trkpt>
      <trkpt lat="46.23568" lon="2.60334">
        <ele>440.42</ele>
        <time>2022-07-22T08:01:25Z</time>
      </trkpt>
      <trkpt lat="46.23558" lon="2.60314">
        <ele>441.86</ele>
        <time>2022-07-22T08:01:40Z</time>
      </trkpt>
      <trkpt lat="46.23549" lon="2.60296">
        <ele>441.86</ele>
        <time>2022-07-22T08:01:54Z</time>
      </trkpt>
      <trkpt lat="46.23532" lon="2.60271">
        <ele>440.42</ele>
        <time>2022-07-22T08:02:13Z</time>
      </trkpt>
      <trkpt lat="46.23517" lon="2.60249">
        <ele>439.94</ele>
        <time>2022-07-22T08:02:31Z</time>
      </trkpt>
      <trkpt lat="46.23504" lon="2.6023">
        <ele>441.38</ele>
        <time>2022-07-22T08:02:47Z</time>
      </trkpt>
      <trkpt lat="46.23494" lon="2.60212">
        <ele>440.42</ele>
        <time>2022-07-22T08:03:01Z</time>
      </trkpt>
      <trkpt lat="46.23487" lon="2.60199">
        <ele>439.46</ele>
        <time>2022-07-22T08:03:15Z</time>
      </trkpt>
      <trkpt lat="46.23477" lon="2.6018">
        <ele>439.46</ele>
        <time>2022-07-22T08:03:30Z</time>
      </trkpt>
      <trkpt lat="46.23463" lon="2.60152">
        <ele>438.5</ele>
        <time>2022-07-22T08:03:50Z</time>
      </trkpt>
      <trkpt lat="46.23456" lon="2.60138">
        <ele>437.06</ele>
        <time>2022-07-22T08:04:00Z</time>
      </trkpt>
      <trkpt lat="46.23447" lon="2.60119">
        <ele>436.58</ele>
        <time>2022-07-22T08:04:15Z</time>
      </trkpt>
      <trkpt lat="46.23446" lon="2.60117">
        <ele>437.54</ele>
        <time>2022-07-22T08:04:31Z</time>
      </trkpt>
      <trkpt lat="46.23446" lon="2.60116">
        <ele>438.02</ele>
        <time>2022-07-22T08:04:49Z</time>
      </trkpt>
      <trkpt lat="46.2345" lon="2.60116">
        <ele>436.1</ele>
        <time>2022-07-22T08:05:14Z</time>
      </trkpt>
      <trkpt lat="46.23447" lon="2.60116">
        <ele>435.13</ele>
        <time>2022-07-22T08:05:55Z</time>
      </trkpt>
      <trkpt lat="46.23444" lon="2.60112">
        <ele>436.58</ele>
        <time>2022-07-22T08:06:39Z</time>
      </trkpt>
      <trkpt lat="46.23445" lon="2.60114">
        <ele>438.02</ele>
        <time>2022-07-22T08:07:21Z</time>
      </trkpt>
      <trkpt lat="46.2345" lon="2.60114">
        <ele>436.1</ele>
        <time>2022-07-22T08:07:58Z</time>
      </trkpt>
      <trkpt lat="46.23449" lon="2.60116">
        <ele>437.06</ele>
        <time>2022-07-22T08:08:38Z</time>
      </trkpt>
      <trkpt lat="46.23448" lon="2.60115">
        <ele>437.54</ele>
        <time>2022-07-22T08:09:28Z</time>
      </trkpt>
      <trkpt lat="46.23444" lon="2.60111">
        <ele>437.06</ele>
        <time>2022-07-22T08:10:16Z</time>
      </trkpt>
      <trkpt lat="46.23447" lon="2.60113">
        <ele>438.5</ele>
        <time>2022-07-22T08:10:59Z</time>
      </trkpt>
      <trkpt lat="46.23451" lon="2.60115">
        <ele>438.02</ele>
        <time>2022-07-22T08:11:39Z</time>
      </trkpt>
      <trkpt lat="46.23452" lon="2.60115">
        <ele>437.54</ele>
        <time>2022-07-22T08:12:20Z</time>
      </trkpt>
      <trkpt lat="46.23447" lon="2.60116">
        <ele>436.1</ele>
        <time>2022-07-22T08:13:10Z</time>
      </trkpt>
      <trkpt lat="46.23449" lon="2.60116">
        <ele>435.61</ele>
        <time>2022-07-22T08:13:50Z</time>
      </trkpt>
      <trkpt lat="46.2345" lon="2.60117">
        <ele>438.5</ele>
        <time>2022-07-22T08:14:25Z</time>
      </trkpt>
      <trkpt lat="46.23451" lon="2.60116">
        <ele>436.1</ele>
        <time>2022-07-22T08:15:01Z</time>
      </trkpt>
      <trkpt lat="46.2345" lon="2.60119">
        <ele>435.13</ele>
        <time>2022-07-22T08:15:18Z</time>
      </trkpt>
      <trkpt lat="46.23447" lon="2.60118">
        <ele>436.58</ele>
        <time>2022-07-22T08:15:38Z</time>
      </trkpt>
      <trkpt lat="46.23444" lon="2.60114">
        <ele>433.21</ele>
        <time>2022-07-22T08:16:06Z</time>
      </trkpt>
      <trkpt lat="46.23442" lon="2.60107">
        <ele>432.73</ele>
        <time>2022-07-22T08:16:28Z</time>
      </trkpt>
      <trkpt lat="46.23429" lon="2.60079">
        <ele>433.21</ele>
        <time>2022-07-22T08:16:44Z</time>
      </trkpt>
      <trkpt lat="46.23419" lon="2.60055">
        <ele>432.73</ele>
        <time>2022-07-22T08:17:01Z</time>
      </trkpt>
      <trkpt lat="46.23403" lon="2.60025">
        <ele>432.73</ele>
        <time>2022-07-22T08:17:21Z</time>
      </trkpt>
      <trkpt lat="46.23391" lon="2.59999">
        <ele>433.21</ele>
        <time>2022-07-22T08:17:39Z</time>
      </trkpt>
      <trkpt lat="46.2338" lon="2.59977">
        <ele>434.65</ele>
        <time>2022-07-22T08:17:55Z</time>
      </trkpt>
      <trkpt lat="46.23369" lon="2.59954">
        <ele>433.69</ele>
        <time>2022-07-22T08:18:12Z</time>
      </trkpt>
      <trkpt lat="46.23361" lon="2.5994">
        <ele>433.69</ele>
        <time>2022-07-22T08:18:22Z</time>
      </trkpt>
      <trkpt lat="46.2335" lon="2.5992">
        <ele>432.73</ele>
        <time>2022-07-22T08:18:38Z</time>
      </trkpt>
      <trkpt lat="46.2334" lon="2.599">
        <ele>432.25</ele>
        <time>2022-07-22T08:18:53Z</time>
      </trkpt>
      <trkpt lat="46.2333" lon="2.5988">
        <ele>432.73</ele>
        <time>2022-07-22T08:19:07Z</time>
      </trkpt>
      <trkpt lat="46.23317" lon="2.59857">
        <ele>433.69</ele>
        <time>2022-07-22T08:19:24Z</time>
      </trkpt>
      <trkpt lat="46.23302" lon="2.59829">
        <ele>435.61</ele>
        <time>2022-07-22T08:19:43Z</time>
      </trkpt>
      <trkpt lat="46.23295" lon="2.59807">
        <ele>436.58</ele>
        <time>2022-07-22T08:19:59Z</time>
      </trkpt>
      <trkpt lat="46.23294" lon="2.59805">
        <ele>436.58</ele>
        <time>2022-07-22T08:20:01Z</time>
      </trkpt>
      <trkpt lat="46.23284" lon="2.59781">
        <ele>437.06</ele>
        <time>2022-07-22T08:20:18Z</time>
      </trkpt>
      <trkpt lat="46.23273" lon="2.59758">
        <ele>436.58</ele>
        <time>2022-07-22T08:20:35Z</time>
      </trkpt>
      <trkpt lat="46.23264" lon="2.59734">
        <ele>436.58</ele>
        <time>2022-07-22T08:20:51Z</time>
      </trkpt>
      <trkpt lat="46.23252" lon="2.59708">
        <ele>437.54</ele>
        <time>2022-07-22T08:21:08Z</time>
      </trkpt>
      <trkpt lat="46.23237" lon="2.5968">
        <ele>439.46</ele>
        <time>2022-07-22T08:21:27Z</time>
      </trkpt>
      <trkpt lat="46.23224" lon="2.59651">
        <ele>439.46</ele>
        <time>2022-07-22T08:21:47Z</time>
      </trkpt>
      <trkpt lat="46.2321" lon="2.59625">
        <ele>438.5</ele>
        <time>2022-07-22T08:22:05Z</time>
      </trkpt>
      <trkpt lat="46.23201" lon="2.59599">
        <ele>438.5</ele>
        <time>2022-07-22T08:22:21Z</time>
      </trkpt>
      <trkpt lat="46.23189" lon="2.59573">
        <ele>439.46</ele>
        <time>2022-07-22T08:22:40Z</time>
      </trkpt>
      <trkpt lat="46.2318" lon="2.59552">
        <ele>440.42</ele>
        <time>2022-07-22T08:22:56Z</time>
      </trkpt>
      <trkpt lat="46.23171" lon="2.59531">
        <ele>439.94</ele>
        <time>2022-07-22T08:23:11Z</time>
      </trkpt>
      <trkpt lat="46.2316" lon="2.5951">
        <ele>438.5</ele>
        <time>2022-07-22T08:23:26Z</time>
      </trkpt>
      <trkpt lat="46.23145" lon="2.59483">
        <ele>438.98</ele>
        <time>2022-07-22T08:23:44Z</time>
      </trkpt>
      <trkpt lat="46.23132" lon="2.59464">
        <ele>440.9</ele>
        <time>2022-07-22T08:23:59Z</time>
      </trkpt>
      <trkpt lat="46.23121" lon="2.59455">
        <ele>441.86</ele>
        <time>2022-07-22T08:24:11Z</time>
      </trkpt>
      <trkpt lat="46.23111" lon="2.59444">
        <ele>440.9</ele>
        <time>2022-07-22T08:24:24Z</time>
      </trkpt>
      <trkpt lat="46.23097" lon="2.5943">
        <ele>439.94</ele>
        <time>2022-07-22T08:24:40Z</time>
      </trkpt>
      <trkpt lat="46.23095" lon="2.59426">
        <ele>440.42</ele>
        <time>2022-07-22T08:24:43Z</time>
      </trkpt>
      <trkpt lat="46.23094" lon="2.59423">
        <ele>440.42</ele>
        <time>2022-07-22T08:24:45Z</time>
      </trkpt>
      <trkpt lat="46.23084" lon="2.59405">
        <ele>439.94</ele>
        <time>2022-07-22T08:24:59Z</time>
      </trkpt>
      <trkpt lat="46.23079" lon="2.59386">
        <ele>441.38</ele>
        <time>2022-07-22T08:25:12Z</time>
      </trkpt>
      <trkpt lat="46.23073" lon="2.59369">
        <ele>442.34</ele>
        <time>2022-07-22T08:25:25Z</time>
      </trkpt>
      <trkpt lat="46.2307" lon="2.59351">
        <ele>442.34</ele>
        <time>2022-07-22T08:25:38Z</time>
      </trkpt>
      <trkpt lat="46.23064" lon="2.59327">
        <ele>445.23</ele>
        <time>2022-07-22T08:25:54Z</time>
      </trkpt>
      <trkpt lat="46.23059" lon="2.59304">
        <ele>446.19</ele>
        <time>2022-07-22T08:26:09Z</time>
      </trkpt>
      <trkpt lat="46.23049" lon="2.59274">
        <ele>446.19</ele>
        <time>2022-07-22T08:26:27Z</time>
      </trkpt>
      <trkpt lat="46.23046" lon="2.59267">
        <ele>446.19</ele>
        <time>2022-07-22T08:26:32Z</time>
      </trkpt>
      <trkpt lat="46.2303" lon="2.59239">
        <ele>447.63</ele>
        <time>2022-07-22T08:26:52Z</time>
      </trkpt>
      <trkpt lat="46.23015" lon="2.59221">
        <ele>449.07</ele>
        <time>2022-07-22T08:27:09Z</time>
      </trkpt>
      <trkpt lat="46.23008" lon="2.59209">
        <ele>450.52</ele>
        <time>2022-07-22T08:27:18Z</time>
      </trkpt>
      <trkpt lat="46.23003" lon="2.59203">
        <ele>451</ele>
        <time>2022-07-22T08:27:24Z</time>
      </trkpt>
      <trkpt lat="46.22994" lon="2.59189">
        <ele>451.96</ele>
        <time>2022-07-22T08:27:35Z</time>
      </trkpt>
      <trkpt lat="46.22981" lon="2.59172">
        <ele>453.4</ele>
        <time>2022-07-22T08:27:49Z</time>
      </trkpt>
      <trkpt lat="46.22969" lon="2.59159">
        <ele>453.88</ele>
        <time>2022-07-22T08:28:01Z</time>
      </trkpt>
      <trkpt lat="46.22953" lon="2.5914">
        <ele>454.36</ele>
        <time>2022-07-22T08:28:19Z</time>
      </trkpt>
      <trkpt lat="46.22937" lon="2.59116">
        <ele>457.24</ele>
        <time>2022-07-22T08:28:40Z</time>
      </trkpt>
      <trkpt lat="46.22924" lon="2.59097">
        <ele>460.13</ele>
        <time>2022-07-22T08:28:55Z</time>
      </trkpt>
      <trkpt lat="46.22903" lon="2.59065">
        <ele>460.61</ele>
        <time>2022-07-22T08:29:20Z</time>
      </trkpt>
      <trkpt lat="46.2289" lon="2.59039">
        <ele>460.13</ele>
        <time>2022-07-22T08:29:40Z</time>
      </trkpt>
      <trkpt lat="46.22874" lon="2.59011">
        <ele>459.65</ele>
        <time>2022-07-22T08:30:00Z</time>
      </trkpt>
      <trkpt lat="46.22856" lon="2.5898">
        <ele>460.61</ele>
        <time>2022-07-22T08:30:23Z</time>
      </trkpt>
      <trkpt lat="46.22844" lon="2.58956">
        <ele>461.09</ele>
        <time>2022-07-22T08:30:41Z</time>
      </trkpt>
      <trkpt lat="46.2284" lon="2.58948">
        <ele>461.09</ele>
        <time>2022-07-22T08:30:53Z</time>
      </trkpt>
      <trkpt lat="46.22827" lon="2.58916">
        <ele>460.13</ele>
        <time>2022-07-22T08:31:13Z</time>
      </trkpt>
      <trkpt lat="46.22816" lon="2.58894">
        <ele>459.17</ele>
        <time>2022-07-22T08:31:29Z</time>
      </trkpt>
      <trkpt lat="46.22799" lon="2.58864">
        <ele>456.76</ele>
        <time>2022-07-22T08:31:50Z</time>
      </trkpt>
      <trkpt lat="46.22779" lon="2.58828">
        <ele>457.24</ele>
        <time>2022-07-22T08:32:14Z</time>
      </trkpt>
      <trkpt lat="46.22757" lon="2.58795">
        <ele>454.84</ele>
        <time>2022-07-22T08:32:40Z</time>
      </trkpt>
      <trkpt lat="46.22741" lon="2.58771">
        <ele>454.84</ele>
        <time>2022-07-22T08:32:58Z</time>
      </trkpt>
      <trkpt lat="46.22723" lon="2.58737">
        <ele>455.8</ele>
        <time>2022-07-22T08:33:22Z</time>
      </trkpt>
      <trkpt lat="46.22711" lon="2.587">
        <ele>454.36</ele>
        <time>2022-07-22T08:33:45Z</time>
      </trkpt>
      <trkpt lat="46.227" lon="2.58662">
        <ele>449.07</ele>
        <time>2022-07-22T08:34:08Z</time>
      </trkpt>
      <trkpt lat="46.22691" lon="2.58631">
        <ele>443.79</ele>
        <time>2022-07-22T08:34:28Z</time>
      </trkpt>
      <trkpt lat="46.22682" lon="2.58602">
        <ele>439.94</ele>
        <time>2022-07-22T08:34:48Z</time>
      </trkpt>
      <trkpt lat="46.22669" lon="2.58566">
        <ele>439.94</ele>
        <time>2022-07-22T08:35:10Z</time>
      </trkpt>
      <trkpt lat="46.22652" lon="2.58532">
        <ele>438.5</ele>
        <time>2022-07-22T08:35:32Z</time>
      </trkpt>
      <trkpt lat="46.22637" lon="2.58513">
        <ele>437.06</ele>
        <time>2022-07-22T08:35:48Z</time>
      </trkpt>
      <trkpt lat="46.22619" lon="2.58483">
        <ele>433.21</ele>
        <time>2022-07-22T08:36:11Z</time>
      </trkpt>
      <trkpt lat="46.22602" lon="2.58452">
        <ele>432.25</ele>
        <time>2022-07-22T08:36:32Z</time>
      </trkpt>
      <trkpt lat="46.22587" lon="2.58423">
        <ele>431.29</ele>
        <time>2022-07-22T08:36:52Z</time>
      </trkpt>
      <trkpt lat="46.22569" lon="2.58389">
        <ele>429.37</ele>
        <time>2022-07-22T08:37:16Z</time>
      </trkpt>
      <trkpt lat="46.22552" lon="2.58352">
        <ele>426.48</ele>
        <time>2022-07-22T08:37:41Z</time>
      </trkpt>
      <trkpt lat="46.22542" lon="2.58319">
        <ele>423.6</ele>
        <time>2022-07-22T08:38:02Z</time>
      </trkpt>
      <trkpt lat="46.2253" lon="2.58288">
        <ele>420.71</ele>
        <time>2022-07-22T08:38:22Z</time>
      </trkpt>
      <trkpt lat="46.22514" lon="2.5825">
        <ele>420.71</ele>
        <time>2022-07-22T08:38:45Z</time>
      </trkpt>
      <trkpt lat="46.225" lon="2.58224">
        <ele>420.23</ele>
        <time>2022-07-22T08:39:03Z</time>
      </trkpt>
      <trkpt lat="46.22489" lon="2.58204">
        <ele>421.19</ele>
        <time>2022-07-22T08:39:17Z</time>
      </trkpt>
      <trkpt lat="46.22475" lon="2.58181">
        <ele>424.56</ele>
        <time>2022-07-22T08:39:33Z</time>
      </trkpt>
      <trkpt lat="46.22462" lon="2.5816">
        <ele>425.04</ele>
        <time>2022-07-22T08:39:49Z</time>
      </trkpt>
      <trkpt lat="46.22448" lon="2.58138">
        <ele>428.89</ele>
        <time>2022-07-22T08:40:05Z</time>
      </trkpt>
      <trkpt lat="46.22438" lon="2.58118">
        <ele>431.29</ele>
        <time>2022-07-22T08:40:19Z</time>
      </trkpt>
      <trkpt lat="46.22428" lon="2.58099">
        <ele>432.73</ele>
        <time>2022-07-22T08:40:33Z</time>
      </trkpt>
      <trkpt lat="46.2242" lon="2.58084">
        <ele>434.17</ele>
        <time>2022-07-22T08:40:45Z</time>
      </trkpt>
      <trkpt lat="46.22405" lon="2.58058">
        <ele>435.61</ele>
        <time>2022-07-22T08:41:04Z</time>
      </trkpt>
      <trkpt lat="46.22388" lon="2.58028">
        <ele>436.1</ele>
        <time>2022-07-22T08:41:27Z</time>
      </trkpt>
      <trkpt lat="46.22374" lon="2.58">
        <ele>437.54</ele>
        <time>2022-07-22T08:41:47Z</time>
      </trkpt>
      <trkpt lat="46.2236" lon="2.57971">
        <ele>438.5</ele>
        <time>2022-07-22T08:42:08Z</time>
      </trkpt>
      <trkpt lat="46.22348" lon="2.57948">
        <ele>439.94</ele>
        <time>2022-07-22T08:42:25Z</time>
      </trkpt>
      <trkpt lat="46.22331" lon="2.57919">
        <ele>440.9</ele>
        <time>2022-07-22T08:42:46Z</time>
      </trkpt>
      <trkpt lat="46.22315" lon="2.57893">
        <ele>442.82</ele>
        <time>2022-07-22T08:43:05Z</time>
      </trkpt>
      <trkpt lat="46.22299" lon="2.5787">
        <ele>443.79</ele>
        <time>2022-07-22T08:43:22Z</time>
      </trkpt>
      <trkpt lat="46.22291" lon="2.57856">
        <ele>444.75</ele>
        <time>2022-07-22T08:43:33Z</time>
      </trkpt>
      <trkpt lat="46.22276" lon="2.57838">
        <ele>442.82</ele>
        <time>2022-07-22T08:43:51Z</time>
      </trkpt>
      <trkpt lat="46.22258" lon="2.57823">
        <ele>441.38</ele>
        <time>2022-07-22T08:44:06Z</time>
      </trkpt>
      <trkpt lat="46.2224" lon="2.57804">
        <ele>441.38</ele>
        <time>2022-07-22T08:44:24Z</time>
      </trkpt>
      <trkpt lat="46.22233" lon="2.5779">
        <ele>440.9</ele>
        <time>2022-07-22T08:44:37Z</time>
      </trkpt>
      <trkpt lat="46.22235" lon="2.57757">
        <ele>439.94</ele>
        <time>2022-07-22T08:44:57Z</time>
      </trkpt>
      <trkpt lat="46.22238" lon="2.57724">
        <ele>438.98</ele>
        <time>2022-07-22T08:45:17Z</time>
      </trkpt>
      <trkpt lat="46.2224" lon="2.5769">
        <ele>439.46</ele>
        <time>2022-07-22T08:45:36Z</time>
      </trkpt>
      <trkpt lat="46.22243" lon="2.57652">
        <ele>440.9</ele>
        <time>2022-07-22T08:45:58Z</time>
      </trkpt>
      <trkpt lat="46.2224" lon="2.57615">
        <ele>442.82</ele>
        <time>2022-07-22T08:46:19Z</time>
      </trkpt>
      <trkpt lat="46.22238" lon="2.57582">
        <ele>446.19</ele>
        <time>2022-07-22T08:46:37Z</time>
      </trkpt>
      <trkpt lat="46.22234" lon="2.57553">
        <ele>444.75</ele>
        <time>2022-07-22T08:46:56Z</time>
      </trkpt>
      <trkpt lat="46.2223" lon="2.57519">
        <ele>444.75</ele>
        <time>2022-07-22T08:47:17Z</time>
      </trkpt>
      <trkpt lat="46.22228" lon="2.57492">
        <ele>444.75</ele>
        <time>2022-07-22T08:47:33Z</time>
      </trkpt>
      <trkpt lat="46.22224" lon="2.57457">
        <ele>446.67</ele>
        <time>2022-07-22T08:47:53Z</time>
      </trkpt>
      <trkpt lat="46.22221" lon="2.57428">
        <ele>447.15</ele>
        <time>2022-07-22T08:48:10Z</time>
      </trkpt>
      <trkpt lat="46.22218" lon="2.574">
        <ele>447.15</ele>
        <time>2022-07-22T08:48:26Z</time>
      </trkpt>
      <trkpt lat="46.22212" lon="2.57371">
        <ele>447.15</ele>
        <time>2022-07-22T08:48:43Z</time>
      </trkpt>
      <trkpt lat="46.22205" lon="2.57333">
        <ele>449.07</ele>
        <time>2022-07-22T08:49:05Z</time>
      </trkpt>
      <trkpt lat="46.22198" lon="2.573">
        <ele>448.59</ele>
        <time>2022-07-22T08:49:24Z</time>
      </trkpt>
      <trkpt lat="46.22186" lon="2.57268">
        <ele>448.11</ele>
        <time>2022-07-22T08:49:44Z</time>
      </trkpt>
      <trkpt lat="46.22168" lon="2.57247">
        <ele>448.59</ele>
        <time>2022-07-22T08:50:02Z</time>
      </trkpt>
      <trkpt lat="46.22147" lon="2.57225">
        <ele>449.55</ele>
        <time>2022-07-22T08:50:23Z</time>
      </trkpt>
      <trkpt lat="46.22129" lon="2.57204">
        <ele>449.55</ele>
        <time>2022-07-22T08:50:42Z</time>
      </trkpt>
      <trkpt lat="46.2211" lon="2.5718">
        <ele>451.48</ele>
        <time>2022-07-22T08:51:02Z</time>
      </trkpt>
      <trkpt lat="46.22094" lon="2.57153">
        <ele>452.44</ele>
        <time>2022-07-22T08:51:23Z</time>
      </trkpt>
      <trkpt lat="46.2208" lon="2.57129">
        <ele>451.96</ele>
        <time>2022-07-22T08:51:41Z</time>
      </trkpt>
      <trkpt lat="46.22067" lon="2.57108">
        <ele>452.92</ele>
        <time>2022-07-22T08:51:58Z</time>
      </trkpt>
      <trkpt lat="46.22049" lon="2.5708">
        <ele>454.84</ele>
        <time>2022-07-22T08:52:19Z</time>
      </trkpt>
      <trkpt lat="46.22035" lon="2.57055">
        <ele>456.28</ele>
        <time>2022-07-22T08:52:38Z</time>
      </trkpt>
      <trkpt lat="46.22022" lon="2.57032">
        <ele>458.21</ele>
        <time>2022-07-22T08:52:56Z</time>
      </trkpt>
      <trkpt lat="46.2201" lon="2.57">
        <ele>459.65</ele>
        <time>2022-07-22T08:53:17Z</time>
      </trkpt>
      <trkpt lat="46.22004" lon="2.56968">
        <ele>461.09</ele>
        <time>2022-07-22T08:53:37Z</time>
      </trkpt>
      <trkpt lat="46.22" lon="2.56942">
        <ele>460.61</ele>
        <time>2022-07-22T08:53:53Z</time>
      </trkpt>
      <trkpt lat="46.21995" lon="2.5691">
        <ele>461.09</ele>
        <time>2022-07-22T08:54:13Z</time>
      </trkpt>
      <trkpt lat="46.21988" lon="2.56877">
        <ele>463.49</ele>
        <time>2022-07-22T08:54:33Z</time>
      </trkpt>
      <trkpt lat="46.21981" lon="2.56841">
        <ele>467.82</ele>
        <time>2022-07-22T08:54:53Z</time>
      </trkpt>
      <trkpt lat="46.21973" lon="2.56811">
        <ele>469.74</ele>
        <time>2022-07-22T08:55:11Z</time>
      </trkpt>
      <trkpt lat="46.21965" lon="2.56777">
        <ele>472.63</ele>
        <time>2022-07-22T08:55:31Z</time>
      </trkpt>
      <trkpt lat="46.21959" lon="2.56744">
        <ele>474.07</ele>
        <time>2022-07-22T08:55:50Z</time>
      </trkpt>
      <trkpt lat="46.21953" lon="2.56709">
        <ele>475.51</ele>
        <time>2022-07-22T08:56:10Z</time>
      </trkpt>
      <trkpt lat="46.21947" lon="2.56681">
        <ele>476.95</ele>
        <time>2022-07-22T08:56:27Z</time>
      </trkpt>
      <trkpt lat="46.21945" lon="2.56671">
        <ele>475.51</ele>
        <time>2022-07-22T08:56:43Z</time>
      </trkpt>
      <trkpt lat="46.21948" lon="2.56672">
        <ele>471.18</ele>
        <time>2022-07-22T08:57:05Z</time>
      </trkpt>
      <trkpt lat="46.21951" lon="2.56673">
        <ele>469.74</ele>
        <time>2022-07-22T08:57:37Z</time>
      </trkpt>
      <trkpt lat="46.21949" lon="2.56673">
        <ele>470.22</ele>
        <time>2022-07-22T08:58:05Z</time>
      </trkpt>
      <trkpt lat="46.21948" lon="2.56672">
        <ele>471.18</ele>
        <time>2022-07-22T08:58:32Z</time>
      </trkpt>
      <trkpt lat="46.21948" lon="2.56671">
        <ele>472.63</ele>
        <time>2022-07-22T08:59:11Z</time>
      </trkpt>
      <trkpt lat="46.2195" lon="2.56673">
        <ele>473.11</ele>
        <time>2022-07-22T08:59:33Z</time>
      </trkpt>
      <trkpt lat="46.21952" lon="2.56652">
        <ele>472.14</ele>
        <time>2022-07-22T08:59:48Z</time>
      </trkpt>
      <trkpt lat="46.21952" lon="2.56644">
        <ele>471.66</ele>
        <time>2022-07-22T08:59:53Z</time>
      </trkpt>
      <trkpt lat="46.21954" lon="2.56627">
        <ele>473.11</ele>
        <time>2022-07-22T09:00:02Z</time>
      </trkpt>
      <trkpt lat="46.21954" lon="2.56597">
        <ele>472.14</ele>
        <time>2022-07-22T09:00:20Z</time>
      </trkpt>
      <trkpt lat="46.21956" lon="2.56571">
        <ele>470.22</ele>
        <time>2022-07-22T09:00:36Z</time>
      </trkpt>
      <trkpt lat="46.21956" lon="2.56538">
        <ele>469.26</ele>
        <time>2022-07-22T09:00:55Z</time>
      </trkpt>
      <trkpt lat="46.21957" lon="2.56508">
        <ele>468.3</ele>
        <time>2022-07-22T09:01:11Z</time>
      </trkpt>
      <trkpt lat="46.21958" lon="2.56473">
        <ele>467.34</ele>
        <time>2022-07-22T09:01:31Z</time>
      </trkpt>
      <trkpt lat="46.21959" lon="2.56437">
        <ele>466.38</ele>
        <time>2022-07-22T09:01:51Z</time>
      </trkpt>
      <trkpt lat="46.21958" lon="2.56403">
        <ele>465.42</ele>
        <time>2022-07-22T09:02:11Z</time>
      </trkpt>
      <trkpt lat="46.21956" lon="2.56399">
        <ele>465.42</ele>
        <time>2022-07-22T09:02:17Z</time>
      </trkpt>
      <trkpt lat="46.21955" lon="2.56372">
        <ele>464.45</ele>
        <time>2022-07-22T09:02:33Z</time>
      </trkpt>
      <trkpt lat="46.21955" lon="2.56341">
        <ele>461.57</ele>
        <time>2022-07-22T09:02:51Z</time>
      </trkpt>
      <trkpt lat="46.21955" lon="2.56316">
        <ele>461.09</ele>
        <time>2022-07-22T09:03:06Z</time>
      </trkpt>
      <trkpt lat="46.21955" lon="2.56287">
        <ele>459.17</ele>
        <time>2022-07-22T09:03:23Z</time>
      </trkpt>
      <trkpt lat="46.21953" lon="2.56249">
        <ele>457.72</ele>
        <time>2022-07-22T09:03:44Z</time>
      </trkpt>
      <trkpt lat="46.21952" lon="2.56214">
        <ele>457.24</ele>
        <time>2022-07-22T09:04:04Z</time>
      </trkpt>
      <trkpt lat="46.21951" lon="2.56189">
        <ele>456.76</ele>
        <time>2022-07-22T09:04:18Z</time>
      </trkpt>
      <trkpt lat="46.2195" lon="2.56155">
        <ele>455.32</ele>
        <time>2022-07-22T09:04:37Z</time>
      </trkpt>
      <trkpt lat="46.2195" lon="2.5612">
        <ele>452.92</ele>
        <time>2022-07-22T09:04:57Z</time>
      </trkpt>
      <trkpt lat="46.21949" lon="2.56087">
        <ele>450.03</ele>
        <time>2022-07-22T09:05:16Z</time>
      </trkpt>
      <trkpt lat="46.21948" lon="2.56065">
        <ele>447.63</ele>
        <time>2022-07-22T09:05:30Z</time>
      </trkpt>
      <trkpt lat="46.21945" lon="2.56045">
        <ele>445.71</ele>
        <time>2022-07-22T09:05:41Z</time>
      </trkpt>
      <trkpt lat="46.21938" lon="2.56021">
        <ele>444.75</ele>
        <time>2022-07-22T09:05:56Z</time>
      </trkpt>
      <trkpt lat="46.21929" lon="2.55991">
        <ele>445.23</ele>
        <time>2022-07-22T09:06:13Z</time>
      </trkpt>
      <trkpt lat="46.2192" lon="2.55965">
        <ele>446.67</ele>
        <time>2022-07-22T09:06:28Z</time>
      </trkpt>
      <trkpt lat="46.21913" lon="2.55944">
        <ele>447.63</ele>
        <time>2022-07-22T09:06:45Z</time>
      </trkpt>
      <trkpt lat="46.21903" lon="2.55918">
        <ele>445.71</ele>
        <time>2022-07-22T09:07:01Z</time>
      </trkpt>
      <trkpt lat="46.21891" lon="2.55893">
        <ele>444.75</ele>
        <time>2022-07-22T09:07:19Z</time>
      </trkpt>
      <trkpt lat="46.21878" lon="2.55863">
        <ele>443.31</ele>
        <time>2022-07-22T09:07:39Z</time>
      </trkpt>
      <trkpt lat="46.2187" lon="2.55836">
        <ele>443.31</ele>
        <time>2022-07-22T09:07:56Z</time>
      </trkpt>
      <trkpt lat="46.21862" lon="2.55814">
        <ele>440.9</ele>
        <time>2022-07-22T09:08:11Z</time>
      </trkpt>
      <trkpt lat="46.21852" lon="2.55784">
        <ele>442.34</ele>
        <time>2022-07-22T09:08:28Z</time>
      </trkpt>
      <trkpt lat="46.2184" lon="2.55751">
        <ele>441.38</ele>
        <time>2022-07-22T09:08:49Z</time>
      </trkpt>
      <trkpt lat="46.21828" lon="2.55716">
        <ele>442.82</ele>
        <time>2022-07-22T09:09:10Z</time>
      </trkpt>
      <trkpt lat="46.21824" lon="2.55708">
        <ele>442.34</ele>
        <time>2022-07-22T09:09:16Z</time>
      </trkpt>
      <trkpt lat="46.21815" lon="2.55675">
        <ele>440.9</ele>
        <time>2022-07-22T09:09:34Z</time>
      </trkpt>
      <trkpt lat="46.21802" lon="2.55642">
        <ele>440.42</ele>
        <time>2022-07-22T09:09:55Z</time>
      </trkpt>
      <trkpt lat="46.21792" lon="2.55613">
        <ele>440.42</ele>
        <time>2022-07-22T09:10:12Z</time>
      </trkpt>
      <trkpt lat="46.21783" lon="2.55587">
        <ele>440.42</ele>
        <time>2022-07-22T09:10:29Z</time>
      </trkpt>
      <trkpt lat="46.21778" lon="2.55563">
        <ele>441.86</ele>
        <time>2022-07-22T09:10:44Z</time>
      </trkpt>
      <trkpt lat="46.21767" lon="2.55533">
        <ele>439.46</ele>
        <time>2022-07-22T09:11:02Z</time>
      </trkpt>
      <trkpt lat="46.2176" lon="2.5551">
        <ele>438.02</ele>
        <time>2022-07-22T09:11:17Z</time>
      </trkpt>
      <trkpt lat="46.21757" lon="2.55502">
        <ele>439.46</ele>
        <time>2022-07-22T09:11:41Z</time>
      </trkpt>
      <trkpt lat="46.21752" lon="2.55478">
        <ele>439.94</ele>
        <time>2022-07-22T09:11:55Z</time>
      </trkpt>
      <trkpt lat="46.21748" lon="2.5545">
        <ele>438.02</ele>
        <time>2022-07-22T09:12:11Z</time>
      </trkpt>
      <trkpt lat="46.21743" lon="2.55421">
        <ele>434.65</ele>
        <time>2022-07-22T09:12:28Z</time>
      </trkpt>
      <trkpt lat="46.21739" lon="2.55391">
        <ele>431.77</ele>
        <time>2022-07-22T09:12:45Z</time>
      </trkpt>
      <trkpt lat="46.21741" lon="2.55357">
        <ele>427.44</ele>
        <time>2022-07-22T09:13:05Z</time>
      </trkpt>
      <trkpt lat="46.21744" lon="2.55322">
        <ele>423.12</ele>
        <time>2022-07-22T09:13:26Z</time>
      </trkpt>
      <trkpt lat="46.21744" lon="2.55282">
        <ele>422.64</ele>
        <time>2022-07-22T09:13:48Z</time>
      </trkpt>
      <trkpt lat="46.21743" lon="2.55246">
        <ele>421.19</ele>
        <time>2022-07-22T09:14:08Z</time>
      </trkpt>
      <trkpt lat="46.2174" lon="2.55211">
        <ele>419.75</ele>
        <time>2022-07-22T09:14:28Z</time>
      </trkpt>
      <trkpt lat="46.21736" lon="2.55189">
        <ele>419.75</ele>
        <time>2022-07-22T09:14:44Z</time>
      </trkpt>
      <trkpt lat="46.21717" lon="2.55172">
        <ele>418.79</ele>
        <time>2022-07-22T09:15:03Z</time>
      </trkpt>
      <trkpt lat="46.21716" lon="2.55163">
        <ele>419.27</ele>
        <time>2022-07-22T09:15:16Z</time>
      </trkpt>
      <trkpt lat="46.21716" lon="2.55157">
        <ele>419.75</ele>
        <time>2022-07-22T09:15:33Z</time>
      </trkpt>
      <trkpt lat="46.21714" lon="2.55136">
        <ele>415.91</ele>
        <time>2022-07-22T09:15:47Z</time>
      </trkpt>
      <trkpt lat="46.21709" lon="2.55106">
        <ele>410.14</ele>
        <time>2022-07-22T09:16:05Z</time>
      </trkpt>
      <trkpt lat="46.21707" lon="2.55083">
        <ele>408.7</ele>
        <time>2022-07-22T09:16:20Z</time>
      </trkpt>
      <trkpt lat="46.21703" lon="2.55046">
        <ele>406.77</ele>
        <time>2022-07-22T09:16:39Z</time>
      </trkpt>
      <trkpt lat="46.217" lon="2.55017">
        <ele>405.81</ele>
        <time>2022-07-22T09:16:55Z</time>
      </trkpt>
      <trkpt lat="46.21703" lon="2.54983">
        <ele>408.22</ele>
        <time>2022-07-22T09:17:14Z</time>
      </trkpt>
      <trkpt lat="46.21709" lon="2.54955">
        <ele>410.14</ele>
        <time>2022-07-22T09:17:31Z</time>
      </trkpt>
      <trkpt lat="46.21711" lon="2.54933">
        <ele>411.58</ele>
        <time>2022-07-22T09:17:48Z</time>
      </trkpt>
      <trkpt lat="46.2171" lon="2.54914">
        <ele>412.06</ele>
        <time>2022-07-22T09:18:01Z</time>
      </trkpt>
      <trkpt lat="46.21707" lon="2.54903">
        <ele>413.5</ele>
        <time>2022-07-22T09:18:08Z</time>
      </trkpt>
      <trkpt lat="46.21707" lon="2.54877">
        <ele>417.35</ele>
        <time>2022-07-22T09:18:24Z</time>
      </trkpt>
      <trkpt lat="46.21709" lon="2.54846">
        <ele>417.83</ele>
        <time>2022-07-22T09:18:42Z</time>
      </trkpt>
      <trkpt lat="46.21707" lon="2.54818">
        <ele>417.83</ele>
        <time>2022-07-22T09:18:58Z</time>
      </trkpt>
      <trkpt lat="46.21703" lon="2.54786">
        <ele>417.35</ele>
        <time>2022-07-22T09:19:18Z</time>
      </trkpt>
      <trkpt lat="46.21698" lon="2.5476">
        <ele>418.79</ele>
        <time>2022-07-22T09:19:34Z</time>
      </trkpt>
      <trkpt lat="46.21694" lon="2.54729">
        <ele>419.27</ele>
        <time>2022-07-22T09:19:52Z</time>
      </trkpt>
      <trkpt lat="46.21692" lon="2.54702">
        <ele>420.23</ele>
        <time>2022-07-22T09:20:08Z</time>
      </trkpt>
      <trkpt lat="46.21685" lon="2.54676">
        <ele>420.71</ele>
        <time>2022-07-22T09:20:24Z</time>
      </trkpt>
      <trkpt lat="46.21676" lon="2.54646">
        <ele>421.68</ele>
        <time>2022-07-22T09:20:42Z</time>
      </trkpt>
      <trkpt lat="46.21666" lon="2.54618">
        <ele>423.12</ele>
        <time>2022-07-22T09:21:00Z</time>
      </trkpt>
      <trkpt lat="46.21657" lon="2.54591">
        <ele>424.08</ele>
        <time>2022-07-22T09:21:17Z</time>
      </trkpt>
      <trkpt lat="46.21645" lon="2.5456">
        <ele>425.52</ele>
        <time>2022-07-22T09:21:37Z</time>
      </trkpt>
      <trkpt lat="46.21637" lon="2.54549">
        <ele>425.52</ele>
        <time>2022-07-22T09:21:47Z</time>
      </trkpt>
      <trkpt lat="46.21624" lon="2.5452">
        <ele>424.56</ele>
        <time>2022-07-22T09:22:07Z</time>
      </trkpt>
      <trkpt lat="46.21609" lon="2.54495">
        <ele>425.52</ele>
        <time>2022-07-22T09:22:25Z</time>
      </trkpt>
      <trkpt lat="46.21592" lon="2.54464">
        <ele>425.52</ele>
        <time>2022-07-22T09:22:47Z</time>
      </trkpt>
      <trkpt lat="46.21577" lon="2.54437">
        <ele>426.48</ele>
        <time>2022-07-22T09:23:07Z</time>
      </trkpt>
      <trkpt lat="46.2156" lon="2.54405">
        <ele>428.89</ele>
        <time>2022-07-22T09:23:29Z</time>
      </trkpt>
      <trkpt lat="46.21544" lon="2.54373">
        <ele>430.33</ele>
        <time>2022-07-22T09:23:52Z</time>
      </trkpt>
      <trkpt lat="46.21529" lon="2.54348">
        <ele>429.37</ele>
        <time>2022-07-22T09:24:10Z</time>
      </trkpt>
      <trkpt lat="46.2152" lon="2.54328">
        <ele>429.85</ele>
        <time>2022-07-22T09:24:23Z</time>
      </trkpt>
      <trkpt lat="46.21507" lon="2.54301">
        <ele>429.37</ele>
        <time>2022-07-22T09:24:41Z</time>
      </trkpt>
      <trkpt lat="46.21493" lon="2.54272">
        <ele>429.37</ele>
        <time>2022-07-22T09:25:02Z</time>
      </trkpt>
      <trkpt lat="46.21479" lon="2.54243">
        <ele>428.4</ele>
        <time>2022-07-22T09:25:22Z</time>
      </trkpt>
      <trkpt lat="46.21465" lon="2.54213">
        <ele>427.92</ele>
        <time>2022-07-22T09:25:42Z</time>
      </trkpt>
      <trkpt lat="46.21452" lon="2.54185">
        <ele>427.92</ele>
        <time>2022-07-22T09:26:01Z</time>
      </trkpt>
      <trkpt lat="46.21441" lon="2.54162">
        <ele>426.48</ele>
        <time>2022-07-22T09:26:18Z</time>
      </trkpt>
      <trkpt lat="46.21428" lon="2.54135">
        <ele>424.56</ele>
        <time>2022-07-22T09:26:37Z</time>
      </trkpt>
      <trkpt lat="46.21413" lon="2.54106">
        <ele>425.52</ele>
        <time>2022-07-22T09:26:56Z</time>
      </trkpt>
      <trkpt lat="46.21403" lon="2.54082">
        <ele>425.04</ele>
        <time>2022-07-22T09:27:12Z</time>
      </trkpt>
      <trkpt lat="46.21389" lon="2.54055">
        <ele>426.48</ele>
        <time>2022-07-22T09:27:30Z</time>
      </trkpt>
      <trkpt lat="46.21375" lon="2.54024">
        <ele>426.96</ele>
        <time>2022-07-22T09:27:50Z</time>
      </trkpt>
      <trkpt lat="46.21357" lon="2.5399">
        <ele>425.52</ele>
        <time>2022-07-22T09:28:14Z</time>
      </trkpt>
      <trkpt lat="46.21341" lon="2.53957">
        <ele>427.44</ele>
        <time>2022-07-22T09:28:36Z</time>
      </trkpt>
      <trkpt lat="46.21337" lon="2.5395">
        <ele>427.44</ele>
        <time>2022-07-22T09:28:51Z</time>
      </trkpt>
      <trkpt lat="46.21323" lon="2.53924">
        <ele>427.44</ele>
        <time>2022-07-22T09:29:10Z</time>
      </trkpt>
      <trkpt lat="46.21308" lon="2.53898">
        <ele>426.96</ele>
        <time>2022-07-22T09:29:29Z</time>
      </trkpt>
      <trkpt lat="46.21294" lon="2.53868">
        <ele>425.52</ele>
        <time>2022-07-22T09:29:49Z</time>
      </trkpt>
      <trkpt lat="46.21284" lon="2.53844">
        <ele>424.08</ele>
        <time>2022-07-22T09:30:07Z</time>
      </trkpt>
      <trkpt lat="46.21273" lon="2.53823">
        <ele>421.68</ele>
        <time>2022-07-22T09:30:23Z</time>
      </trkpt>
      <trkpt lat="46.21259" lon="2.53799">
        <ele>421.19</ele>
        <time>2022-07-22T09:30:41Z</time>
      </trkpt>
      <trkpt lat="46.21248" lon="2.53781">
        <ele>421.19</ele>
        <time>2022-07-22T09:30:56Z</time>
      </trkpt>
      <trkpt lat="46.2124" lon="2.53761">
        <ele>420.71</ele>
        <time>2022-07-22T09:31:11Z</time>
      </trkpt>
      <trkpt lat="46.21233" lon="2.53739">
        <ele>419.27</ele>
        <time>2022-07-22T09:31:26Z</time>
      </trkpt>
      <trkpt lat="46.21224" lon="2.53714">
        <ele>417.83</ele>
        <time>2022-07-22T09:31:42Z</time>
      </trkpt>
      <trkpt lat="46.21216" lon="2.53684">
        <ele>416.39</ele>
        <time>2022-07-22T09:32:00Z</time>
      </trkpt>
      <trkpt lat="46.21208" lon="2.53652">
        <ele>415.43</ele>
        <time>2022-07-22T09:32:18Z</time>
      </trkpt>
      <trkpt lat="46.212" lon="2.53621">
        <ele>415.91</ele>
        <time>2022-07-22T09:32:37Z</time>
      </trkpt>
      <trkpt lat="46.21199" lon="2.5362">
        <ele>415.91</ele>
        <time>2022-07-22T09:32:38Z</time>
      </trkpt>
      <trkpt lat="46.21193" lon="2.53587">
        <ele>413.5</ele>
        <time>2022-07-22T09:32:57Z</time>
      </trkpt>
      <trkpt lat="46.21188" lon="2.53565">
        <ele>413.98</ele>
        <time>2022-07-22T09:33:11Z</time>
      </trkpt>
      <trkpt lat="46.2118" lon="2.53534">
        <ele>414.47</ele>
        <time>2022-07-22T09:33:28Z</time>
      </trkpt>
      <trkpt lat="46.21175" lon="2.53505">
        <ele>413.98</ele>
        <time>2022-07-22T09:33:44Z</time>
      </trkpt>
      <trkpt lat="46.21169" lon="2.53473">
        <ele>414.95</ele>
        <time>2022-07-22T09:34:03Z</time>
      </trkpt>
      <trkpt lat="46.21163" lon="2.53446">
        <ele>414.47</ele>
        <time>2022-07-22T09:34:19Z</time>
      </trkpt>
      <trkpt lat="46.21154" lon="2.53421">
        <ele>416.39</ele>
        <time>2022-07-22T09:34:35Z</time>
      </trkpt>
      <trkpt lat="46.21139" lon="2.53392">
        <ele>416.39</ele>
        <time>2022-07-22T09:34:55Z</time>
      </trkpt>
      <trkpt lat="46.21127" lon="2.53367">
        <ele>415.43</ele>
        <time>2022-07-22T09:35:13Z</time>
      </trkpt>
      <trkpt lat="46.21111" lon="2.53338">
        <ele>416.39</ele>
        <time>2022-07-22T09:35:34Z</time>
      </trkpt>
      <trkpt lat="46.21097" lon="2.53304">
        <ele>414.47</ele>
        <time>2022-07-22T09:35:56Z</time>
      </trkpt>
      <trkpt lat="46.21083" lon="2.53271">
        <ele>413.5</ele>
        <time>2022-07-22T09:36:17Z</time>
      </trkpt>
      <trkpt lat="46.21068" lon="2.53241">
        <ele>413.5</ele>
        <time>2022-07-22T09:36:38Z</time>
      </trkpt>
      <trkpt lat="46.21054" lon="2.53208">
        <ele>412.06</ele>
        <time>2022-07-22T09:36:59Z</time>
      </trkpt>
      <trkpt lat="46.21044" lon="2.53185">
        <ele>410.62</ele>
        <time>2022-07-22T09:37:15Z</time>
      </trkpt>
      <trkpt lat="46.21034" lon="2.53161">
        <ele>408.7</ele>
        <time>2022-07-22T09:37:31Z</time>
      </trkpt>
      <trkpt lat="46.21019" lon="2.53143">
        <ele>407.74</ele>
        <time>2022-07-22T09:37:48Z</time>
      </trkpt>
      <trkpt lat="46.21007" lon="2.5313">
        <ele>406.29</ele>
        <time>2022-07-22T09:38:01Z</time>
      </trkpt>
      <trkpt lat="46.20993" lon="2.53106">
        <ele>405.33</ele>
        <time>2022-07-22T09:38:18Z</time>
      </trkpt>
      <trkpt lat="46.20977" lon="2.53081">
        <ele>404.37</ele>
        <time>2022-07-22T09:38:36Z</time>
      </trkpt>
      <trkpt lat="46.20962" lon="2.53063">
        <ele>403.41</ele>
        <time>2022-07-22T09:38:52Z</time>
      </trkpt>
      <trkpt lat="46.20944" lon="2.53038">
        <ele>404.37</ele>
        <time>2022-07-22T09:39:11Z</time>
      </trkpt>
      <trkpt lat="46.20929" lon="2.53018">
        <ele>402.45</ele>
        <time>2022-07-22T09:39:28Z</time>
      </trkpt>
      <trkpt lat="46.20917" lon="2.52998">
        <ele>400.05</ele>
        <time>2022-07-22T09:39:45Z</time>
      </trkpt>
      <trkpt lat="46.20901" lon="2.5298">
        <ele>398.12</ele>
        <time>2022-07-22T09:40:03Z</time>
      </trkpt>
      <trkpt lat="46.20894" lon="2.52962">
        <ele>395.72</ele>
        <time>2022-07-22T09:40:20Z</time>
      </trkpt>
      <trkpt lat="46.20893" lon="2.52958">
        <ele>395.24</ele>
        <time>2022-07-22T09:40:24Z</time>
      </trkpt>
      <trkpt lat="46.20886" lon="2.52939">
        <ele>391.87</ele>
        <time>2022-07-22T09:40:40Z</time>
      </trkpt>
      <trkpt lat="46.20881" lon="2.5293">
        <ele>388.51</ele>
        <time>2022-07-22T09:40:52Z</time>
      </trkpt>
      <trkpt lat="46.20872" lon="2.52916">
        <ele>384.18</ele>
        <time>2022-07-22T09:41:07Z</time>
      </trkpt>
      <trkpt lat="46.20864" lon="2.52905">
        <ele>382.26</ele>
        <time>2022-07-22T09:41:20Z</time>
      </trkpt>
      <trkpt lat="46.20858" lon="2.52894">
        <ele>380.82</ele>
        <time>2022-07-22T09:41:30Z</time>
      </trkpt>
      <trkpt lat="46.20847" lon="2.52883">
        <ele>381.3</ele>
        <time>2022-07-22T09:41:44Z</time>
      </trkpt>
      <trkpt lat="46.20832" lon="2.52872">
        <ele>380.34</ele>
        <time>2022-07-22T09:41:59Z</time>
      </trkpt>
      <trkpt lat="46.20819" lon="2.52861">
        <ele>377.45</ele>
        <time>2022-07-22T09:42:12Z</time>
      </trkpt>
      <trkpt lat="46.20806" lon="2.52849">
        <ele>376.49</ele>
        <time>2022-07-22T09:42:26Z</time>
      </trkpt>
      <trkpt lat="46.20801" lon="2.52831">
        <ele>373.61</ele>
        <time>2022-07-22T09:42:41Z</time>
      </trkpt>
      <trkpt lat="46.20795" lon="2.52817">
        <ele>370.24</ele>
        <time>2022-07-22T09:42:54Z</time>
      </trkpt>
      <trkpt lat="46.20793" lon="2.52816">
        <ele>367.36</ele>
        <time>2022-07-22T09:42:59Z</time>
      </trkpt>
      <trkpt lat="46.2078" lon="2.52811">
        <ele>361.59</ele>
        <time>2022-07-22T09:43:13Z</time>
      </trkpt>
      <trkpt lat="46.20766" lon="2.52801">
        <ele>358.71</ele>
        <time>2022-07-22T09:43:27Z</time>
      </trkpt>
      <trkpt lat="46.2075" lon="2.52793">
        <ele>357.27</ele>
        <time>2022-07-22T09:43:41Z</time>
      </trkpt>
      <trkpt lat="46.2073" lon="2.52787">
        <ele>353.42</ele>
        <time>2022-07-22T09:43:58Z</time>
      </trkpt>
      <trkpt lat="46.20709" lon="2.52779">
        <ele>351.5</ele>
        <time>2022-07-22T09:44:16Z</time>
      </trkpt>
      <trkpt lat="46.2069" lon="2.52766">
        <ele>349.58</ele>
        <time>2022-07-22T09:44:33Z</time>
      </trkpt>
      <trkpt lat="46.20671" lon="2.52752">
        <ele>351.02</ele>
        <time>2022-07-22T09:44:49Z</time>
      </trkpt>
      <trkpt lat="46.20649" lon="2.52734">
        <ele>351.98</ele>
        <time>2022-07-22T09:45:08Z</time>
      </trkpt>
      <trkpt lat="46.20629" lon="2.52715">
        <ele>355.34</ele>
        <time>2022-07-22T09:45:28Z</time>
      </trkpt>
      <trkpt lat="46.20611" lon="2.52701">
        <ele>354.38</ele>
        <time>2022-07-22T09:45:47Z</time>
      </trkpt>
      <trkpt lat="46.20592" lon="2.52685">
        <ele>352.46</ele>
        <time>2022-07-22T09:46:04Z</time>
      </trkpt>
      <trkpt lat="46.20575" lon="2.5267">
        <ele>351.02</ele>
        <time>2022-07-22T09:46:19Z</time>
      </trkpt>
      <trkpt lat="46.20558" lon="2.52651">
        <ele>351.5</ele>
        <time>2022-07-22T09:46:35Z</time>
      </trkpt>
      <trkpt lat="46.20538" lon="2.52632">
        <ele>348.13</ele>
        <time>2022-07-22T09:46:54Z</time>
      </trkpt>
      <trkpt lat="46.20518" lon="2.52615">
        <ele>348.13</ele>
        <time>2022-07-22T09:47:13Z</time>
      </trkpt>
      <trkpt lat="46.20507" lon="2.52603">
        <ele>350.06</ele>
        <time>2022-07-22T09:47:32Z</time>
      </trkpt>
      <trkpt lat="46.20504" lon="2.526">
        <ele>349.58</ele>
        <time>2022-07-22T09:47:45Z</time>
      </trkpt>
      <trkpt lat="46.20496" lon="2.52597">
        <ele>348.62</ele>
        <time>2022-07-22T09:47:58Z</time>
      </trkpt>
      <trkpt lat="46.2049" lon="2.52596">
        <ele>346.69</ele>
        <time>2022-07-22T09:48:08Z</time>
      </trkpt>
      <trkpt lat="46.2048" lon="2.52599">
        <ele>344.77</ele>
        <time>2022-07-22T09:48:18Z</time>
      </trkpt>
      <trkpt lat="46.20466" lon="2.52589">
        <ele>340.44</ele>
        <time>2022-07-22T09:48:34Z</time>
      </trkpt>
      <trkpt lat="46.20461" lon="2.52578">
        <ele>339.96</ele>
        <time>2022-07-22T09:48:42Z</time>
      </trkpt>
      <trkpt lat="46.20453" lon="2.52554">
        <ele>333.71</ele>
        <time>2022-07-22T09:49:00Z</time>
      </trkpt>
      <trkpt lat="46.20445" lon="2.52531">
        <ele>331.79</ele>
        <time>2022-07-22T09:49:16Z</time>
      </trkpt>
      <trkpt lat="46.20437" lon="2.52507">
        <ele>329.39</ele>
        <time>2022-07-22T09:49:32Z</time>
      </trkpt>
      <trkpt lat="46.2043" lon="2.52487">
        <ele>326.5</ele>
        <time>2022-07-22T09:49:47Z</time>
      </trkpt>
      <trkpt lat="46.20424" lon="2.52461">
        <ele>323.14</ele>
        <time>2022-07-22T09:50:04Z</time>
      </trkpt>
      <trkpt lat="46.20423" lon="2.52458">
        <ele>322.66</ele>
        <time>2022-07-22T09:50:06Z</time>
      </trkpt>
      <trkpt lat="46.20416" lon="2.5243">
        <ele>320.74</ele>
        <time>2022-07-22T09:50:24Z</time>
      </trkpt>
      <trkpt lat="46.20413" lon="2.52412">
        <ele>320.26</ele>
        <time>2022-07-22T09:50:36Z</time>
      </trkpt>
      <trkpt lat="46.2041" lon="2.52391">
        <ele>317.37</ele>
        <time>2022-07-22T09:50:51Z</time>
      </trkpt>
      <trkpt lat="46.20398" lon="2.52373">
        <ele>316.89</ele>
        <time>2022-07-22T09:51:06Z</time>
      </trkpt>
      <trkpt lat="46.20389" lon="2.52362">
        <ele>314.49</ele>
        <time>2022-07-22T09:51:17Z</time>
      </trkpt>
      <trkpt lat="46.20367" lon="2.52351">
        <ele>311.12</ele>
        <time>2022-07-22T09:51:36Z</time>
      </trkpt>
      <trkpt lat="46.20356" lon="2.52331">
        <ele>311.6</ele>
        <time>2022-07-22T09:51:52Z</time>
      </trkpt>
      <trkpt lat="46.20348" lon="2.52302">
        <ele>313.05</ele>
        <time>2022-07-22T09:52:09Z</time>
      </trkpt>
      <trkpt lat="46.20338" lon="2.52271">
        <ele>313.05</ele>
        <time>2022-07-22T09:52:29Z</time>
      </trkpt>
      <trkpt lat="46.20329" lon="2.52249">
        <ele>310.64</ele>
        <time>2022-07-22T09:52:44Z</time>
      </trkpt>
      <trkpt lat="46.20322" lon="2.52225">
        <ele>308.24</ele>
        <time>2022-07-22T09:52:59Z</time>
      </trkpt>
      <trkpt lat="46.20319" lon="2.52215">
        <ele>308.72</ele>
        <time>2022-07-22T09:53:04Z</time>
      </trkpt>
      <trkpt lat="46.2031" lon="2.52187">
        <ele>309.2</ele>
        <time>2022-07-22T09:53:22Z</time>
      </trkpt>
      <trkpt lat="46.20307" lon="2.5217">
        <ele>307.76</ele>
        <time>2022-07-22T09:53:36Z</time>
      </trkpt>
      <trkpt lat="46.20303" lon="2.52159">
        <ele>305.84</ele>
        <time>2022-07-22T09:53:49Z</time>
      </trkpt>
      <trkpt lat="46.203" lon="2.52157">
        <ele>301.51</ele>
        <time>2022-07-22T09:54:10Z</time>
      </trkpt>
      <trkpt lat="46.20296" lon="2.52144">
        <ele>304.39</ele>
        <time>2022-07-22T09:54:26Z</time>
      </trkpt>
      <trkpt lat="46.20289" lon="2.52122">
        <ele>306.8</ele>
        <time>2022-07-22T09:54:41Z</time>
      </trkpt>
      <trkpt lat="46.20283" lon="2.52101">
        <ele>305.84</ele>
        <time>2022-07-22T09:54:56Z</time>
      </trkpt>
      <trkpt lat="46.20278" lon="2.52105">
        <ele>310.64</ele>
        <time>2022-07-22T09:55:10Z</time>
      </trkpt>
      <trkpt lat="46.20278" lon="2.52106">
        <ele>311.6</ele>
        <time>2022-07-22T09:55:11Z</time>
      </trkpt>
      <trkpt lat="46.20278" lon="2.52114">
        <ele>314.49</ele>
        <time>2022-07-22T09:55:24Z</time>
      </trkpt>
      <trkpt lat="46.20279" lon="2.52113">
        <ele>313.53</ele>
        <time>2022-07-22T09:55:42Z</time>
      </trkpt>
      <trkpt lat="46.20278" lon="2.52118">
        <ele>314.01</ele>
        <time>2022-07-22T09:56:10Z</time>
      </trkpt>
      <trkpt lat="46.20275" lon="2.52119">
        <ele>314.01</ele>
        <time>2022-07-22T09:56:44Z</time>
      </trkpt>
      <trkpt lat="46.20274" lon="2.52114">
        <ele>314.01</ele>
        <time>2022-07-22T09:57:21Z</time>
      </trkpt>
      <trkpt lat="46.20275" lon="2.52116">
        <ele>315.45</ele>
        <time>2022-07-22T09:57:31Z</time>
      </trkpt>
      <trkpt lat="46.20263" lon="2.52127">
        <ele>314.97</ele>
        <time>2022-07-22T09:57:44Z</time>
      </trkpt>
      <trkpt lat="46.20261" lon="2.52134">
        <ele>314.49</ele>
        <time>2022-07-22T09:57:52Z</time>
      </trkpt>
      <trkpt lat="46.20249" lon="2.52139">
        <ele>312.57</ele>
        <time>2022-07-22T09:58:06Z</time>
      </trkpt>
      <trkpt lat="46.20233" lon="2.52152">
        <ele>312.09</ele>
        <time>2022-07-22T09:58:22Z</time>
      </trkpt>
      <trkpt lat="46.20227" lon="2.52152">
        <ele>312.09</ele>
        <time>2022-07-22T09:58:34Z</time>
      </trkpt>
      <trkpt lat="46.20221" lon="2.52153">
        <ele>313.05</ele>
        <time>2022-07-22T09:58:45Z</time>
      </trkpt>
      <trkpt lat="46.20215" lon="2.52154">
        <ele>314.49</ele>
        <time>2022-07-22T09:58:55Z</time>
      </trkpt>
      <trkpt lat="46.20202" lon="2.52155">
        <ele>315.93</ele>
        <time>2022-07-22T09:59:10Z</time>
      </trkpt>
      <trkpt lat="46.202" lon="2.52144">
        <ele>315.93</ele>
        <time>2022-07-22T09:59:22Z</time>
      </trkpt>
      <trkpt lat="46.20206" lon="2.52128">
        <ele>318.81</ele>
        <time>2022-07-22T09:59:37Z</time>
      </trkpt>
      <trkpt lat="46.20214" lon="2.52113">
        <ele>323.62</ele>
        <time>2022-07-22T09:59:52Z</time>
      </trkpt>
      <trkpt lat="46.20214" lon="2.52099">
        <ele>326.99</ele>
        <time>2022-07-22T10:00:06Z</time>
      </trkpt>
      <trkpt lat="46.20209" lon="2.52089">
        <ele>328.43</ele>
        <time>2022-07-22T10:00:19Z</time>
      </trkpt>
      <trkpt lat="46.20204" lon="2.52081">
        <ele>328.91</ele>
        <time>2022-07-22T10:00:33Z</time>
      </trkpt>
      <trkpt lat="46.20199" lon="2.52069">
        <ele>330.83</ele>
        <time>2022-07-22T10:00:46Z</time>
      </trkpt>
      <trkpt lat="46.20194" lon="2.52059">
        <ele>332.75</ele>
        <time>2022-07-22T10:01:01Z</time>
      </trkpt>
      <trkpt lat="46.2019" lon="2.52053">
        <ele>332.27</ele>
        <time>2022-07-22T10:01:13Z</time>
      </trkpt>
      <trkpt lat="46.20185" lon="2.52048">
        <ele>333.23</ele>
        <time>2022-07-22T10:01:23Z</time>
      </trkpt>
      <trkpt lat="46.20178" lon="2.52033">
        <ele>335.64</ele>
        <time>2022-07-22T10:01:37Z</time>
      </trkpt>
      <trkpt lat="46.20173" lon="2.5202">
        <ele>342.85</ele>
        <time>2022-07-22T10:01:51Z</time>
      </trkpt>
      <trkpt lat="46.20167" lon="2.52015">
        <ele>345.73</ele>
        <time>2022-07-22T10:02:04Z</time>
      </trkpt>
      <trkpt lat="46.2016" lon="2.52024">
        <ele>352.46</ele>
        <time>2022-07-22T10:02:19Z</time>
      </trkpt>
      <trkpt lat="46.20159" lon="2.52024">
        <ele>353.42</ele>
        <time>2022-07-22T10:02:21Z</time>
      </trkpt>
      <trkpt lat="46.20151" lon="2.52031">
        <ele>357.75</ele>
        <time>2022-07-22T10:02:36Z</time>
      </trkpt>
      <trkpt lat="46.20145" lon="2.52031">
        <ele>359.67</ele>
        <time>2022-07-22T10:02:53Z</time>
      </trkpt>
      <trkpt lat="46.20144" lon="2.52023">
        <ele>358.23</ele>
        <time>2022-07-22T10:03:10Z</time>
      </trkpt>
      <trkpt lat="46.20141" lon="2.52024">
        <ele>360.63</ele>
        <time>2022-07-22T10:03:37Z</time>
      </trkpt>
      <trkpt lat="46.2014" lon="2.52012">
        <ele>357.27</ele>
        <time>2022-07-22T10:03:55Z</time>
      </trkpt>
      <trkpt lat="46.20137" lon="2.51999">
        <ele>358.23</ele>
        <time>2022-07-22T10:04:08Z</time>
      </trkpt>
      <trkpt lat="46.20132" lon="2.51986">
        <ele>361.11</ele>
        <time>2022-07-22T10:04:22Z</time>
      </trkpt>
      <trkpt lat="46.20129" lon="2.51974">
        <ele>360.63</ele>
        <time>2022-07-22T10:04:37Z</time>
      </trkpt>
      <trkpt lat="46.20125" lon="2.5196">
        <ele>362.55</ele>
        <time>2022-07-22T10:04:51Z</time>
      </trkpt>
      <trkpt lat="46.20123" lon="2.51949">
        <ele>361.59</ele>
        <time>2022-07-22T10:05:06Z</time>
      </trkpt>
      <trkpt lat="46.2012" lon="2.51937">
        <ele>363.04</ele>
        <time>2022-07-22T10:05:19Z</time>
      </trkpt>
      <trkpt lat="46.20114" lon="2.51937">
        <ele>366.88</ele>
        <time>2022-07-22T10:05:34Z</time>
      </trkpt>
      <trkpt lat="46.20111" lon="2.51948">
        <ele>370.24</ele>
        <time>2022-07-22T10:05:45Z</time>
      </trkpt>
      <trkpt lat="46.20107" lon="2.51965">
        <ele>374.09</ele>
        <time>2022-07-22T10:05:59Z</time>
      </trkpt>
      <trkpt lat="46.20104" lon="2.5198">
        <ele>377.94</ele>
        <time>2022-07-22T10:06:11Z</time>
      </trkpt>
      <trkpt lat="46.20095" lon="2.51989">
        <ele>380.34</ele>
        <time>2022-07-22T10:06:24Z</time>
      </trkpt>
      <trkpt lat="46.20082" lon="2.51996">
        <ele>383.22</ele>
        <time>2022-07-22T10:06:37Z</time>
      </trkpt>
      <trkpt lat="46.20068" lon="2.51996">
        <ele>384.18</ele>
        <time>2022-07-22T10:06:52Z</time>
      </trkpt>
      <trkpt lat="46.20064" lon="2.51994">
        <ele>385.15</ele>
        <time>2022-07-22T10:06:56Z</time>
      </trkpt>
      <trkpt lat="46.20051" lon="2.51991">
        <ele>388.51</ele>
        <time>2022-07-22T10:07:10Z</time>
      </trkpt>
      <trkpt lat="46.2005" lon="2.51991">
        <ele>388.51</ele>
        <time>2022-07-22T10:07:11Z</time>
      </trkpt>
      <trkpt lat="46.20039" lon="2.51988">
        <ele>390.43</ele>
        <time>2022-07-22T10:07:24Z</time>
      </trkpt>
      <trkpt lat="46.20027" lon="2.51984">
        <ele>392.36</ele>
        <time>2022-07-22T10:07:37Z</time>
      </trkpt>
      <trkpt lat="46.20014" lon="2.51984">
        <ele>395.72</ele>
        <time>2022-07-22T10:07:51Z</time>
      </trkpt>
      <trkpt lat="46.20002" lon="2.51981">
        <ele>399.57</ele>
        <time>2022-07-22T10:08:04Z</time>
      </trkpt>
      <trkpt lat="46.1999" lon="2.51978">
        <ele>401.49</ele>
        <time>2022-07-22T10:08:17Z</time>
      </trkpt>
      <trkpt lat="46.19978" lon="2.51976">
        <ele>402.93</ele>
        <time>2022-07-22T10:08:31Z</time>
      </trkpt>
      <trkpt lat="46.19966" lon="2.51973">
        <ele>405.33</ele>
        <time>2022-07-22T10:08:44Z</time>
      </trkpt>
      <trkpt lat="46.19951" lon="2.51969">
        <ele>407.26</ele>
        <time>2022-07-22T10:09:00Z</time>
      </trkpt>
      <trkpt lat="46.19936" lon="2.51964">
        <ele>410.62</ele>
        <time>2022-07-22T10:09:16Z</time>
      </trkpt>
      <trkpt lat="46.1993" lon="2.51966">
        <ele>411.58</ele>
        <time>2022-07-22T10:09:29Z</time>
      </trkpt>
      <trkpt lat="46.19931" lon="2.51966">
        <ele>410.62</ele>
        <time>2022-07-22T10:09:49Z</time>
      </trkpt>
      <trkpt lat="46.19922" lon="2.51962">
        <ele>411.1</ele>
        <time>2022-07-22T10:10:03Z</time>
      </trkpt>
      <trkpt lat="46.19918" lon="2.5196">
        <ele>411.58</ele>
        <time>2022-07-22T10:10:07Z</time>
      </trkpt>
      <trkpt lat="46.19897" lon="2.51957">
        <ele>413.5</ele>
        <time>2022-07-22T10:10:25Z</time>
      </trkpt>
      <trkpt lat="46.19877" lon="2.51953">
        <ele>414.95</ele>
        <time>2022-07-22T10:10:42Z</time>
      </trkpt>
      <trkpt lat="46.1986" lon="2.51948">
        <ele>415.91</ele>
        <time>2022-07-22T10:10:57Z</time>
      </trkpt>
      <trkpt lat="46.19841" lon="2.51936">
        <ele>416.87</ele>
        <time>2022-07-22T10:11:15Z</time>
      </trkpt>
      <trkpt lat="46.19824" lon="2.51923">
        <ele>417.83</ele>
        <time>2022-07-22T10:11:32Z</time>
      </trkpt>
      <trkpt lat="46.19806" lon="2.51909">
        <ele>420.23</ele>
        <time>2022-07-22T10:11:50Z</time>
      </trkpt>
      <trkpt lat="46.19788" lon="2.51897">
        <ele>422.64</ele>
        <time>2022-07-22T10:12:08Z</time>
      </trkpt>
      <trkpt lat="46.19771" lon="2.51885">
        <ele>425.04</ele>
        <time>2022-07-22T10:12:25Z</time>
      </trkpt>
      <trkpt lat="46.19753" lon="2.5187">
        <ele>427.44</ele>
        <time>2022-07-22T10:12:44Z</time>
      </trkpt>
      <trkpt lat="46.19741" lon="2.51856">
        <ele>428.89</ele>
        <time>2022-07-22T10:12:58Z</time>
      </trkpt>
      <trkpt lat="46.1973" lon="2.5184">
        <ele>429.37</ele>
        <time>2022-07-22T10:13:13Z</time>
      </trkpt>
      <trkpt lat="46.19719" lon="2.51822">
        <ele>431.77</ele>
        <time>2022-07-22T10:13:29Z</time>
      </trkpt>
      <trkpt lat="46.1971" lon="2.51805">
        <ele>432.73</ele>
        <time>2022-07-22T10:13:44Z</time>
      </trkpt>
      <trkpt lat="46.19699" lon="2.51785">
        <ele>433.69</ele>
        <time>2022-07-22T10:14:00Z</time>
      </trkpt>
      <trkpt lat="46.19687" lon="2.51765">
        <ele>436.1</ele>
        <time>2022-07-22T10:14:16Z</time>
      </trkpt>
      <trkpt lat="46.19675" lon="2.51743">
        <ele>438.98</ele>
        <time>2022-07-22T10:14:34Z</time>
      </trkpt>
      <trkpt lat="46.19663" lon="2.51721">
        <ele>441.38</ele>
        <time>2022-07-22T10:14:51Z</time>
      </trkpt>
      <trkpt lat="46.19651" lon="2.51702">
        <ele>442.34</ele>
        <time>2022-07-22T10:15:08Z</time>
      </trkpt>
      <trkpt lat="46.19641" lon="2.51685">
        <ele>445.23</ele>
        <time>2022-07-22T10:15:23Z</time>
      </trkpt>
      <trkpt lat="46.1963" lon="2.51668">
        <ele>448.11</ele>
        <time>2022-07-22T10:15:38Z</time>
      </trkpt>
      <trkpt lat="46.1963" lon="2.5166">
        <ele>448.11</ele>
        <time>2022-07-22T10:15:51Z</time>
      </trkpt>
      <trkpt lat="46.19632" lon="2.51659">
        <ele>447.15</ele>
        <time>2022-07-22T10:16:07Z</time>
      </trkpt>
      <trkpt lat="46.19634" lon="2.51658">
        <ele>446.19</ele>
        <time>2022-07-22T10:16:25Z</time>
      </trkpt>
      <trkpt lat="46.19635" lon="2.51654">
        <ele>445.71</ele>
        <time>2022-07-22T10:16:39Z</time>
      </trkpt>
      <trkpt lat="46.19641" lon="2.51647">
        <ele>445.71</ele>
        <time>2022-07-22T10:16:48Z</time>
      </trkpt>
      <trkpt lat="46.19654" lon="2.51625">
        <ele>443.79</ele>
        <time>2022-07-22T10:17:08Z</time>
      </trkpt>
      <trkpt lat="46.19664" lon="2.51606">
        <ele>441.38</ele>
        <time>2022-07-22T10:17:23Z</time>
      </trkpt>
      <trkpt lat="46.19672" lon="2.51585">
        <ele>438.02</ele>
        <time>2022-07-22T10:17:39Z</time>
      </trkpt>
      <trkpt lat="46.19679" lon="2.51568">
        <ele>435.61</ele>
        <time>2022-07-22T10:17:53Z</time>
      </trkpt>
      <trkpt lat="46.19686" lon="2.51545">
        <ele>435.61</ele>
        <time>2022-07-22T10:18:11Z</time>
      </trkpt>
      <trkpt lat="46.19681" lon="2.51541">
        <ele>435.61</ele>
        <time>2022-07-22T10:18:26Z</time>
      </trkpt>
      <trkpt lat="46.19682" lon="2.51543">
        <ele>435.61</ele>
        <time>2022-07-22T10:18:43Z</time>
      </trkpt>
      <trkpt lat="46.19682" lon="2.51544">
        <ele>436.58</ele>
        <time>2022-07-22T10:18:58Z</time>
      </trkpt>
      <trkpt lat="46.19682" lon="2.51539">
        <ele>436.58</ele>
        <time>2022-07-22T10:19:31Z</time>
      </trkpt>
      <trkpt lat="46.19683" lon="2.51537">
        <ele>439.46</ele>
        <time>2022-07-22T10:19:59Z</time>
      </trkpt>
      <trkpt lat="46.19683" lon="2.51535">
        <ele>442.82</ele>
        <time>2022-07-22T10:20:38Z</time>
      </trkpt>
      <trkpt lat="46.19682" lon="2.51535">
        <ele>444.75</ele>
        <time>2022-07-22T10:21:18Z</time>
      </trkpt>
      <trkpt lat="46.19682" lon="2.51536">
        <ele>444.27</ele>
        <time>2022-07-22T10:21:53Z</time>
      </trkpt>
      <trkpt lat="46.19682" lon="2.51534">
        <ele>441.86</ele>
        <time>2022-07-22T10:22:30Z</time>
      </trkpt>
      <trkpt lat="46.1968" lon="2.51535">
        <ele>441.86</ele>
        <time>2022-07-22T10:23:10Z</time>
      </trkpt>
      <trkpt lat="46.19682" lon="2.51534">
        <ele>443.79</ele>
        <time>2022-07-22T10:23:50Z</time>
      </trkpt>
      <trkpt lat="46.19682" lon="2.51537">
        <ele>443.31</ele>
        <time>2022-07-22T10:24:29Z</time>
      </trkpt>
      <trkpt lat="46.19685" lon="2.51535">
        <ele>443.79</ele>
        <time>2022-07-22T10:24:59Z</time>
      </trkpt>
      <trkpt lat="46.19685" lon="2.51533">
        <ele>443.31</ele>
        <time>2022-07-22T10:25:29Z</time>
      </trkpt>
      <trkpt lat="46.19686" lon="2.51537">
        <ele>442.34</ele>
        <time>2022-07-22T10:26:05Z</time>
      </trkpt>
      <trkpt lat="46.19687" lon="2.51538">
        <ele>442.34</ele>
        <time>2022-07-22T10:26:38Z</time>
      </trkpt>
      <trkpt lat="46.19688" lon="2.51536">
        <ele>443.31</ele>
        <time>2022-07-22T10:27:13Z</time>
      </trkpt>
      <trkpt lat="46.19687" lon="2.51536">
        <ele>439.94</ele>
        <time>2022-07-22T10:27:46Z</time>
      </trkpt>
      <trkpt lat="46.19687" lon="2.51538">
        <ele>439.94</ele>
        <time>2022-07-22T10:28:17Z</time>
      </trkpt>
      <trkpt lat="46.19687" lon="2.51537">
        <ele>439.94</ele>
        <time>2022-07-22T10:28:52Z</time>
      </trkpt>
      <trkpt lat="46.19686" lon="2.5154">
        <ele>440.9</ele>
        <time>2022-07-22T10:29:26Z</time>
      </trkpt>
      <trkpt lat="46.19685" lon="2.51537">
        <ele>443.31</ele>
        <time>2022-07-22T10:29:57Z</time>
      </trkpt>
      <trkpt lat="46.19688" lon="2.51536">
        <ele>446.19</ele>
        <time>2022-07-22T10:30:35Z</time>
      </trkpt>
      <trkpt lat="46.19687" lon="2.5154">
        <ele>444.27</ele>
        <time>2022-07-22T10:31:05Z</time>
      </trkpt>
      <trkpt lat="46.19687" lon="2.51538">
        <ele>447.63</ele>
        <time>2022-07-22T10:31:48Z</time>
      </trkpt>
      <trkpt lat="46.19687" lon="2.51542">
        <ele>446.67</ele>
        <time>2022-07-22T10:32:32Z</time>
      </trkpt>
      <trkpt lat="46.19684" lon="2.51539">
        <ele>441.38</ele>
        <time>2022-07-22T10:33:06Z</time>
      </trkpt>
      <trkpt lat="46.19682" lon="2.51538">
        <ele>441.86</ele>
        <time>2022-07-22T10:33:46Z</time>
      </trkpt>
      <trkpt lat="46.19683" lon="2.51539">
        <ele>440.9</ele>
        <time>2022-07-22T10:34:21Z</time>
      </trkpt>
      <trkpt lat="46.19683" lon="2.51537">
        <ele>441.38</ele>
        <time>2022-07-22T10:34:51Z</time>
      </trkpt>
      <trkpt lat="46.19683" lon="2.51539">
        <ele>443.31</ele>
        <time>2022-07-22T10:35:22Z</time>
      </trkpt>
      <trkpt lat="46.19687" lon="2.51536">
        <ele>442.82</ele>
        <time>2022-07-22T10:36:03Z</time>
      </trkpt>
      <trkpt lat="46.19685" lon="2.51536">
        <ele>442.82</ele>
        <time>2022-07-22T10:36:51Z</time>
      </trkpt>
      <trkpt lat="46.19684" lon="2.51539">
        <ele>439.46</ele>
        <time>2022-07-22T10:37:25Z</time>
      </trkpt>
      <trkpt lat="46.19684" lon="2.51538">
        <ele>439.46</ele>
        <time>2022-07-22T10:38:04Z</time>
      </trkpt>
      <trkpt lat="46.19683" lon="2.51542">
        <ele>436.58</ele>
        <time>2022-07-22T10:38:50Z</time>
      </trkpt>
      <trkpt lat="46.19683" lon="2.51537">
        <ele>435.13</ele>
        <time>2022-07-22T10:39:32Z</time>
      </trkpt>
      <trkpt lat="46.19682" lon="2.5154">
        <ele>437.54</ele>
        <time>2022-07-22T10:40:01Z</time>
      </trkpt>
      <trkpt lat="46.1968" lon="2.51539">
        <ele>436.58</ele>
        <time>2022-07-22T10:40:36Z</time>
      </trkpt>
      <trkpt lat="46.19679" lon="2.5154">
        <ele>436.1</ele>
        <time>2022-07-22T10:41:13Z</time>
      </trkpt>
      <trkpt lat="46.19682" lon="2.51536">
        <ele>433.21</ele>
        <time>2022-07-22T10:41:49Z</time>
      </trkpt>
      <trkpt lat="46.19683" lon="2.51539">
        <ele>434.65</ele>
        <time>2022-07-22T10:42:28Z</time>
      </trkpt>
      <trkpt lat="46.19678" lon="2.5154">
        <ele>434.65</ele>
        <time>2022-07-22T10:43:05Z</time>
      </trkpt>
      <trkpt lat="46.19677" lon="2.51542">
        <ele>430.33</ele>
        <time>2022-07-22T10:43:49Z</time>
      </trkpt>
      <trkpt lat="46.19678" lon="2.5154">
        <ele>432.25</ele>
        <time>2022-07-22T10:44:29Z</time>
      </trkpt>
      <trkpt lat="46.19678" lon="2.51542">
        <ele>432.25</ele>
        <time>2022-07-22T10:45:11Z</time>
      </trkpt>
      <trkpt lat="46.19678" lon="2.5154">
        <ele>432.25</ele>
        <time>2022-07-22T10:45:49Z</time>
      </trkpt>
      <trkpt lat="46.19679" lon="2.5154">
        <ele>433.21</ele>
        <time>2022-07-22T10:46:24Z</time>
      </trkpt>
      <trkpt lat="46.19681" lon="2.5154">
        <ele>434.17</ele>
        <time>2022-07-22T10:46:50Z</time>
      </trkpt>
      <trkpt lat="46.19679" lon="2.51538">
        <ele>431.29</ele>
        <time>2022-07-22T10:47:23Z</time>
      </trkpt>
      <trkpt lat="46.19681" lon="2.51538">
        <ele>431.77</ele>
        <time>2022-07-22T10:47:55Z</time>
      </trkpt>
      <trkpt lat="46.19682" lon="2.51539">
        <ele>432.25</ele>
        <time>2022-07-22T10:48:25Z</time>
      </trkpt>
      <trkpt lat="46.19683" lon="2.51537">
        <ele>433.69</ele>
        <time>2022-07-22T10:49:05Z</time>
      </trkpt>
      <trkpt lat="46.19685" lon="2.51539">
        <ele>435.61</ele>
        <time>2022-07-22T10:49:17Z</time>
      </trkpt>
      <trkpt lat="46.19685" lon="2.51539">
        <ele>438.98</ele>
        <time>2022-07-22T10:49:37Z</time>
      </trkpt>
      <trkpt lat="46.19685" lon="2.51537">
        <ele>438.02</ele>
        <time>2022-07-22T10:49:53Z</time>
      </trkpt>
      <trkpt lat="46.19683" lon="2.51531">
        <ele>439.94</ele>
        <time>2022-07-22T10:50:18Z</time>
      </trkpt>
      <trkpt lat="46.19693" lon="2.51528">
        <ele>438.02</ele>
        <time>2022-07-22T10:50:34Z</time>
      </trkpt>
      <trkpt lat="46.19695" lon="2.51515">
        <ele>437.06</ele>
        <time>2022-07-22T10:50:43Z</time>
      </trkpt>
      <trkpt lat="46.19702" lon="2.51479">
        <ele>435.61</ele>
        <time>2022-07-22T10:51:05Z</time>
      </trkpt>
      <trkpt lat="46.19711" lon="2.51444">
        <ele>432.25</ele>
        <time>2022-07-22T10:51:26Z</time>
      </trkpt>
      <trkpt lat="46.19716" lon="2.51415">
        <ele>430.33</ele>
        <time>2022-07-22T10:51:44Z</time>
      </trkpt>
      <trkpt lat="46.19723" lon="2.51384">
        <ele>426.96</ele>
        <time>2022-07-22T10:52:05Z</time>
      </trkpt>
      <trkpt lat="46.19739" lon="2.51359">
        <ele>423.6</ele>
        <time>2022-07-22T10:52:24Z</time>
      </trkpt>
      <trkpt lat="46.19759" lon="2.51339">
        <ele>423.12</ele>
        <time>2022-07-22T10:52:43Z</time>
      </trkpt>
      <trkpt lat="46.19779" lon="2.51313">
        <ele>426</ele>
        <time>2022-07-22T10:53:04Z</time>
      </trkpt>
      <trkpt lat="46.19788" lon="2.51284">
        <ele>426</ele>
        <time>2022-07-22T10:53:22Z</time>
      </trkpt>
      <trkpt lat="46.19788" lon="2.51274">
        <ele>426</ele>
        <time>2022-07-22T10:53:37Z</time>
      </trkpt>
      <trkpt lat="46.19768" lon="2.51261">
        <ele>426.48</ele>
        <time>2022-07-22T10:53:56Z</time>
      </trkpt>
      <trkpt lat="46.19748" lon="2.51252">
        <ele>426.96</ele>
        <time>2022-07-22T10:54:15Z</time>
      </trkpt>
      <trkpt lat="46.19733" lon="2.51244">
        <ele>426.48</ele>
        <time>2022-07-22T10:54:29Z</time>
      </trkpt>
      <trkpt lat="46.19714" lon="2.51232">
        <ele>426.96</ele>
        <time>2022-07-22T10:54:47Z</time>
      </trkpt>
      <trkpt lat="46.19696" lon="2.51218">
        <ele>429.37</ele>
        <time>2022-07-22T10:55:05Z</time>
      </trkpt>
      <trkpt lat="46.19677" lon="2.51203">
        <ele>432.25</ele>
        <time>2022-07-22T10:55:23Z</time>
      </trkpt>
      <trkpt lat="46.19654" lon="2.51188">
        <ele>434.65</ele>
        <time>2022-07-22T10:55:42Z</time>
      </trkpt>
      <trkpt lat="46.1963" lon="2.51169">
        <ele>437.06</ele>
        <time>2022-07-22T10:56:03Z</time>
      </trkpt>
      <trkpt lat="46.19606" lon="2.5115">
        <ele>438.02</ele>
        <time>2022-07-22T10:56:25Z</time>
      </trkpt>
      <trkpt lat="46.19581" lon="2.51127">
        <ele>439.94</ele>
        <time>2022-07-22T10:56:47Z</time>
      </trkpt>
      <trkpt lat="46.1956" lon="2.51107">
        <ele>440.9</ele>
        <time>2022-07-22T10:57:08Z</time>
      </trkpt>
      <trkpt lat="46.19538" lon="2.51085">
        <ele>441.86</ele>
        <time>2022-07-22T10:57:30Z</time>
      </trkpt>
      <trkpt lat="46.19517" lon="2.51066">
        <ele>442.34</ele>
        <time>2022-07-22T10:57:50Z</time>
      </trkpt>
      <trkpt lat="46.19494" lon="2.51046">
        <ele>443.31</ele>
        <time>2022-07-22T10:58:12Z</time>
      </trkpt>
      <trkpt lat="46.19469" lon="2.51033">
        <ele>443.31</ele>
        <time>2022-07-22T10:58:34Z</time>
      </trkpt>
      <trkpt lat="46.19445" lon="2.51025">
        <ele>442.82</ele>
        <time>2022-07-22T10:58:54Z</time>
      </trkpt>
      <trkpt lat="46.19421" lon="2.51025">
        <ele>444.27</ele>
        <time>2022-07-22T10:59:14Z</time>
      </trkpt>
      <trkpt lat="46.19397" lon="2.5103">
        <ele>445.23</ele>
        <time>2022-07-22T10:59:34Z</time>
      </trkpt>
      <trkpt lat="46.19376" lon="2.51032">
        <ele>446.67</ele>
        <time>2022-07-22T10:59:50Z</time>
      </trkpt>
      <trkpt lat="46.1935" lon="2.51024">
        <ele>448.11</ele>
        <time>2022-07-22T11:00:10Z</time>
      </trkpt>
      <trkpt lat="46.19328" lon="2.51013">
        <ele>448.59</ele>
        <time>2022-07-22T11:00:29Z</time>
      </trkpt>
      <trkpt lat="46.19303" lon="2.51">
        <ele>448.11</ele>
        <time>2022-07-22T11:00:50Z</time>
      </trkpt>
      <trkpt lat="46.19282" lon="2.50992">
        <ele>449.55</ele>
        <time>2022-07-22T11:01:06Z</time>
      </trkpt>
      <trkpt lat="46.19259" lon="2.50983">
        <ele>450.03</ele>
        <time>2022-07-22T11:01:25Z</time>
      </trkpt>
      <trkpt lat="46.19241" lon="2.50975">
        <ele>450.52</ele>
        <time>2022-07-22T11:01:41Z</time>
      </trkpt>
      <trkpt lat="46.19231" lon="2.50971">
        <ele>451</ele>
        <time>2022-07-22T11:01:57Z</time>
      </trkpt>
      <trkpt lat="46.19234" lon="2.50971">
        <ele>450.52</ele>
        <time>2022-07-22T11:02:16Z</time>
      </trkpt>
      <trkpt lat="46.19221" lon="2.50965">
        <ele>450.52</ele>
        <time>2022-07-22T11:02:30Z</time>
      </trkpt>
      <trkpt lat="46.19198" lon="2.50949">
        <ele>451.48</ele>
        <time>2022-07-22T11:02:51Z</time>
      </trkpt>
      <trkpt lat="46.19173" lon="2.50927">
        <ele>453.4</ele>
        <time>2022-07-22T11:03:14Z</time>
      </trkpt>
      <trkpt lat="46.19149" lon="2.50906">
        <ele>454.36</ele>
        <time>2022-07-22T11:03:36Z</time>
      </trkpt>
      <trkpt lat="46.19125" lon="2.50887">
        <ele>453.88</ele>
        <time>2022-07-22T11:03:58Z</time>
      </trkpt>
      <trkpt lat="46.19103" lon="2.5087">
        <ele>452.92</ele>
        <time>2022-07-22T11:04:18Z</time>
      </trkpt>
      <trkpt lat="46.19082" lon="2.50852">
        <ele>452.44</ele>
        <time>2022-07-22T11:04:37Z</time>
      </trkpt>
      <trkpt lat="46.1906" lon="2.5083">
        <ele>452.92</ele>
        <time>2022-07-22T11:04:59Z</time>
      </trkpt>
      <trkpt lat="46.19037" lon="2.50808">
        <ele>452.44</ele>
        <time>2022-07-22T11:05:21Z</time>
      </trkpt>
      <trkpt lat="46.19012" lon="2.50783">
        <ele>451.96</ele>
        <time>2022-07-22T11:05:45Z</time>
      </trkpt>
      <trkpt lat="46.18989" lon="2.50762">
        <ele>451.96</ele>
        <time>2022-07-22T11:06:07Z</time>
      </trkpt>
      <trkpt lat="46.1898" lon="2.50754">
        <ele>453.4</ele>
        <time>2022-07-22T11:06:23Z</time>
      </trkpt>
      <trkpt lat="46.18962" lon="2.50736">
        <ele>454.36</ele>
        <time>2022-07-22T11:06:40Z</time>
      </trkpt>
      <trkpt lat="46.18946" lon="2.50719">
        <ele>453.88</ele>
        <time>2022-07-22T11:06:56Z</time>
      </trkpt>
      <trkpt lat="46.18927" lon="2.507">
        <ele>452.44</ele>
        <time>2022-07-22T11:07:16Z</time>
      </trkpt>
      <trkpt lat="46.18904" lon="2.50679">
        <ele>452.44</ele>
        <time>2022-07-22T11:07:37Z</time>
      </trkpt>
      <trkpt lat="46.18881" lon="2.50657">
        <ele>451.96</ele>
        <time>2022-07-22T11:07:58Z</time>
      </trkpt>
      <trkpt lat="46.18855" lon="2.50634">
        <ele>451.48</ele>
        <time>2022-07-22T11:08:22Z</time>
      </trkpt>
      <trkpt lat="46.18836" lon="2.5062">
        <ele>449.55</ele>
        <time>2022-07-22T11:08:39Z</time>
      </trkpt>
      <trkpt lat="46.18811" lon="2.50597">
        <ele>449.55</ele>
        <time>2022-07-22T11:09:03Z</time>
      </trkpt>
      <trkpt lat="46.18786" lon="2.50572">
        <ele>448.59</ele>
        <time>2022-07-22T11:09:27Z</time>
      </trkpt>
      <trkpt lat="46.1876" lon="2.50547">
        <ele>448.11</ele>
        <time>2022-07-22T11:09:52Z</time>
      </trkpt>
      <trkpt lat="46.18756" lon="2.50542">
        <ele>449.07</ele>
        <time>2022-07-22T11:09:57Z</time>
      </trkpt>
      <trkpt lat="46.18731" lon="2.50522">
        <ele>449.55</ele>
        <time>2022-07-22T11:10:20Z</time>
      </trkpt>
      <trkpt lat="46.18704" lon="2.50501">
        <ele>450.52</ele>
        <time>2022-07-22T11:10:44Z</time>
      </trkpt>
      <trkpt lat="46.18677" lon="2.5048">
        <ele>449.55</ele>
        <time>2022-07-22T11:11:09Z</time>
      </trkpt>
      <trkpt lat="46.1865" lon="2.50459">
        <ele>449.55</ele>
        <time>2022-07-22T11:11:34Z</time>
      </trkpt>
      <trkpt lat="46.18621" lon="2.50438">
        <ele>451</ele>
        <time>2022-07-22T11:11:59Z</time>
      </trkpt>
      <trkpt lat="46.18594" lon="2.50418">
        <ele>451.96</ele>
        <time>2022-07-22T11:12:23Z</time>
      </trkpt>
      <trkpt lat="46.18566" lon="2.50399">
        <ele>452.44</ele>
        <time>2022-07-22T11:12:48Z</time>
      </trkpt>
      <trkpt lat="46.18545" lon="2.50384">
        <ele>451</ele>
        <time>2022-07-22T11:13:07Z</time>
      </trkpt>
      <trkpt lat="46.18524" lon="2.50374">
        <ele>450.03</ele>
        <time>2022-07-22T11:13:25Z</time>
      </trkpt>
      <trkpt lat="46.18501" lon="2.50361">
        <ele>449.07</ele>
        <time>2022-07-22T11:13:45Z</time>
      </trkpt>
      <trkpt lat="46.18475" lon="2.50348">
        <ele>449.55</ele>
        <time>2022-07-22T11:14:07Z</time>
      </trkpt>
      <trkpt lat="46.18451" lon="2.5033">
        <ele>450.03</ele>
        <time>2022-07-22T11:14:28Z</time>
      </trkpt>
      <trkpt lat="46.18426" lon="2.5031">
        <ele>449.07</ele>
        <time>2022-07-22T11:14:51Z</time>
      </trkpt>
      <trkpt lat="46.18402" lon="2.50288">
        <ele>446.67</ele>
        <time>2022-07-22T11:15:14Z</time>
      </trkpt>
      <trkpt lat="46.18376" lon="2.50267">
        <ele>445.71</ele>
        <time>2022-07-22T11:15:38Z</time>
      </trkpt>
      <trkpt lat="46.1835" lon="2.50247">
        <ele>444.27</ele>
        <time>2022-07-22T11:16:01Z</time>
      </trkpt>
      <trkpt lat="46.18323" lon="2.50225">
        <ele>442.82</ele>
        <time>2022-07-22T11:16:26Z</time>
      </trkpt>
      <trkpt lat="46.18298" lon="2.50205">
        <ele>441.38</ele>
        <time>2022-07-22T11:16:50Z</time>
      </trkpt>
      <trkpt lat="46.1827" lon="2.50182">
        <ele>440.9</ele>
        <time>2022-07-22T11:17:15Z</time>
      </trkpt>
      <trkpt lat="46.18247" lon="2.50163">
        <ele>440.42</ele>
        <time>2022-07-22T11:17:36Z</time>
      </trkpt>
      <trkpt lat="46.18222" lon="2.50143">
        <ele>439.46</ele>
        <time>2022-07-22T11:17:59Z</time>
      </trkpt>
      <trkpt lat="46.18195" lon="2.50124">
        <ele>438.98</ele>
        <time>2022-07-22T11:18:23Z</time>
      </trkpt>
      <trkpt lat="46.18171" lon="2.50109">
        <ele>437.06</ele>
        <time>2022-07-22T11:18:44Z</time>
      </trkpt>
      <trkpt lat="46.18144" lon="2.50093">
        <ele>435.61</ele>
        <time>2022-07-22T11:19:08Z</time>
      </trkpt>
      <trkpt lat="46.18118" lon="2.50076">
        <ele>435.13</ele>
        <time>2022-07-22T11:19:31Z</time>
      </trkpt>
      <trkpt lat="46.18092" lon="2.50053">
        <ele>436.58</ele>
        <time>2022-07-22T11:19:55Z</time>
      </trkpt>
      <trkpt lat="46.18071" lon="2.50024">
        <ele>436.1</ele>
        <time>2022-07-22T11:20:18Z</time>
      </trkpt>
      <trkpt lat="46.18053" lon="2.49997">
        <ele>436.58</ele>
        <time>2022-07-22T11:20:39Z</time>
      </trkpt>
      <trkpt lat="46.18031" lon="2.49965">
        <ele>437.06</ele>
        <time>2022-07-22T11:21:03Z</time>
      </trkpt>
      <trkpt lat="46.18009" lon="2.49935">
        <ele>436.58</ele>
        <time>2022-07-22T11:21:27Z</time>
      </trkpt>
      <trkpt lat="46.17988" lon="2.49911">
        <ele>435.13</ele>
        <time>2022-07-22T11:21:49Z</time>
      </trkpt>
      <trkpt lat="46.1796" lon="2.49887">
        <ele>433.21</ele>
        <time>2022-07-22T11:22:14Z</time>
      </trkpt>
      <trkpt lat="46.17933" lon="2.49869">
        <ele>431.29</ele>
        <time>2022-07-22T11:22:37Z</time>
      </trkpt>
      <trkpt lat="46.17907" lon="2.49851">
        <ele>429.37</ele>
        <time>2022-07-22T11:23:00Z</time>
      </trkpt>
      <trkpt lat="46.17879" lon="2.49832">
        <ele>427.92</ele>
        <time>2022-07-22T11:23:24Z</time>
      </trkpt>
      <trkpt lat="46.17852" lon="2.49821">
        <ele>425.52</ele>
        <time>2022-07-22T11:23:46Z</time>
      </trkpt>
      <trkpt lat="46.17822" lon="2.49817">
        <ele>425.04</ele>
        <time>2022-07-22T11:24:10Z</time>
      </trkpt>
      <trkpt lat="46.17796" lon="2.4982">
        <ele>424.08</ele>
        <time>2022-07-22T11:24:31Z</time>
      </trkpt>
      <trkpt lat="46.17764" lon="2.49828">
        <ele>423.12</ele>
        <time>2022-07-22T11:24:56Z</time>
      </trkpt>
      <trkpt lat="46.17741" lon="2.4984">
        <ele>420.71</ele>
        <time>2022-07-22T11:25:16Z</time>
      </trkpt>
      <trkpt lat="46.17722" lon="2.49853">
        <ele>420.71</ele>
        <time>2022-07-22T11:25:32Z</time>
      </trkpt>
      <trkpt lat="46.17701" lon="2.4987">
        <ele>421.19</ele>
        <time>2022-07-22T11:25:52Z</time>
      </trkpt>
      <trkpt lat="46.17695" lon="2.49877">
        <ele>421.68</ele>
        <time>2022-07-22T11:25:58Z</time>
      </trkpt>
      <trkpt lat="46.17688" lon="2.49882">
        <ele>422.16</ele>
        <time>2022-07-22T11:26:04Z</time>
      </trkpt>
      <trkpt lat="46.17668" lon="2.49898">
        <ele>421.19</ele>
        <time>2022-07-22T11:26:23Z</time>
      </trkpt>
      <trkpt lat="46.17652" lon="2.499">
        <ele>421.68</ele>
        <time>2022-07-22T11:26:37Z</time>
      </trkpt>
      <trkpt lat="46.17632" lon="2.49883">
        <ele>418.79</ele>
        <time>2022-07-22T11:26:57Z</time>
      </trkpt>
      <trkpt lat="46.1761" lon="2.49854">
        <ele>419.27</ele>
        <time>2022-07-22T11:27:20Z</time>
      </trkpt>
      <trkpt lat="46.17594" lon="2.49829">
        <ele>418.31</ele>
        <time>2022-07-22T11:27:40Z</time>
      </trkpt>
      <trkpt lat="46.17578" lon="2.49802">
        <ele>417.83</ele>
        <time>2022-07-22T11:27:59Z</time>
      </trkpt>
      <trkpt lat="46.17564" lon="2.49779">
        <ele>417.83</ele>
        <time>2022-07-22T11:28:16Z</time>
      </trkpt>
      <trkpt lat="46.17548" lon="2.49758">
        <ele>415.91</ele>
        <time>2022-07-22T11:28:34Z</time>
      </trkpt>
      <trkpt lat="46.17525" lon="2.49738">
        <ele>414.47</ele>
        <time>2022-07-22T11:28:55Z</time>
      </trkpt>
      <trkpt lat="46.17502" lon="2.4972">
        <ele>414.95</ele>
        <time>2022-07-22T11:29:15Z</time>
      </trkpt>
      <trkpt lat="46.17475" lon="2.49702">
        <ele>416.87</ele>
        <time>2022-07-22T11:29:38Z</time>
      </trkpt>
      <trkpt lat="46.17451" lon="2.49685">
        <ele>413.5</ele>
        <time>2022-07-22T11:29:58Z</time>
      </trkpt>
      <trkpt lat="46.1743" lon="2.49669">
        <ele>411.58</ele>
        <time>2022-07-22T11:30:17Z</time>
      </trkpt>
      <trkpt lat="46.17411" lon="2.49656">
        <ele>409.18</ele>
        <time>2022-07-22T11:30:35Z</time>
      </trkpt>
      <trkpt lat="46.17394" lon="2.49644">
        <ele>405.33</ele>
        <time>2022-07-22T11:30:51Z</time>
      </trkpt>
      <trkpt lat="46.17373" lon="2.49627">
        <ele>406.77</ele>
        <time>2022-07-22T11:31:10Z</time>
      </trkpt>
      <trkpt lat="46.17358" lon="2.49603">
        <ele>408.7</ele>
        <time>2022-07-22T11:31:28Z</time>
      </trkpt>
      <trkpt lat="46.17355" lon="2.49577">
        <ele>409.18</ele>
        <time>2022-07-22T11:31:43Z</time>
      </trkpt>
      <trkpt lat="46.17353" lon="2.49571">
        <ele>409.18</ele>
        <time>2022-07-22T11:31:58Z</time>
      </trkpt>
      <trkpt lat="46.17354" lon="2.49571">
        <ele>410.14</ele>
        <time>2022-07-22T11:32:07Z</time>
      </trkpt>
      <trkpt lat="46.17362" lon="2.49561">
        <ele>409.66</ele>
        <time>2022-07-22T11:32:25Z</time>
      </trkpt>
      <trkpt lat="46.17361" lon="2.49558">
        <ele>410.14</ele>
        <time>2022-07-22T11:32:27Z</time>
      </trkpt>
      <trkpt lat="46.17358" lon="2.49529">
        <ele>412.06</ele>
        <time>2022-07-22T11:32:45Z</time>
      </trkpt>
      <trkpt lat="46.17358" lon="2.49523">
        <ele>413.5</ele>
        <time>2022-07-22T11:32:59Z</time>
      </trkpt>
      <trkpt lat="46.17356" lon="2.49506">
        <ele>413.02</ele>
        <time>2022-07-22T11:33:10Z</time>
      </trkpt>
      <trkpt lat="46.17354" lon="2.49479">
        <ele>414.95</ele>
        <time>2022-07-22T11:33:28Z</time>
      </trkpt>
      <trkpt lat="46.17354" lon="2.49468">
        <ele>415.43</ele>
        <time>2022-07-22T11:33:41Z</time>
      </trkpt>
      <trkpt lat="46.17357" lon="2.49464">
        <ele>414.95</ele>
        <time>2022-07-22T11:33:54Z</time>
      </trkpt>
      <trkpt lat="46.17357" lon="2.49462">
        <ele>414.95</ele>
        <time>2022-07-22T11:33:56Z</time>
      </trkpt>
      <trkpt lat="46.17365" lon="2.49432">
        <ele>415.91</ele>
        <time>2022-07-22T11:34:15Z</time>
      </trkpt>
      <trkpt lat="46.1737" lon="2.49412">
        <ele>416.39</ele>
        <time>2022-07-22T11:34:28Z</time>
      </trkpt>
      <trkpt lat="46.17369" lon="2.49401">
        <ele>417.83</ele>
        <time>2022-07-22T11:34:35Z</time>
      </trkpt>
      <trkpt lat="46.17374" lon="2.49376">
        <ele>420.23</ele>
        <time>2022-07-22T11:34:50Z</time>
      </trkpt>
      <trkpt lat="46.17378" lon="2.49358">
        <ele>422.16</ele>
        <time>2022-07-22T11:35:04Z</time>
      </trkpt>
      <trkpt lat="46.17384" lon="2.49347">
        <ele>421.68</ele>
        <time>2022-07-22T11:35:12Z</time>
      </trkpt>
      <trkpt lat="46.17389" lon="2.49328">
        <ele>421.68</ele>
        <time>2022-07-22T11:35:24Z</time>
      </trkpt>
      <trkpt lat="46.17391" lon="2.49322">
        <ele>422.64</ele>
        <time>2022-07-22T11:35:28Z</time>
      </trkpt>
      <trkpt lat="46.17396" lon="2.49304">
        <ele>422.64</ele>
        <time>2022-07-22T11:35:40Z</time>
      </trkpt>
      <trkpt lat="46.17403" lon="2.49279">
        <ele>424.08</ele>
        <time>2022-07-22T11:35:56Z</time>
      </trkpt>
      <trkpt lat="46.17406" lon="2.49271">
        <ele>423.6</ele>
        <time>2022-07-22T11:36:02Z</time>
      </trkpt>
      <trkpt lat="46.17411" lon="2.49244">
        <ele>423.12</ele>
        <time>2022-07-22T11:36:19Z</time>
      </trkpt>
      <trkpt lat="46.17413" lon="2.49234">
        <ele>423.12</ele>
        <time>2022-07-22T11:36:25Z</time>
      </trkpt>
      <trkpt lat="46.17417" lon="2.49214">
        <ele>424.56</ele>
        <time>2022-07-22T11:36:38Z</time>
      </trkpt>
      <trkpt lat="46.1742" lon="2.49189">
        <ele>427.92</ele>
        <time>2022-07-22T11:36:53Z</time>
      </trkpt>
      <trkpt lat="46.17419" lon="2.49171">
        <ele>429.85</ele>
        <time>2022-07-22T11:37:02Z</time>
      </trkpt>
      <trkpt lat="46.17421" lon="2.49145">
        <ele>429.37</ele>
        <time>2022-07-22T11:37:18Z</time>
      </trkpt>
      <trkpt lat="46.1742" lon="2.49123">
        <ele>427.44</ele>
        <time>2022-07-22T11:37:31Z</time>
      </trkpt>
      <trkpt lat="46.17422" lon="2.49116">
        <ele>426.48</ele>
        <time>2022-07-22T11:37:36Z</time>
      </trkpt>
      <trkpt lat="46.17421" lon="2.49098">
        <ele>425.52</ele>
        <time>2022-07-22T11:37:47Z</time>
      </trkpt>
      <trkpt lat="46.17425" lon="2.49089">
        <ele>426.96</ele>
        <time>2022-07-22T11:37:52Z</time>
      </trkpt>
      <trkpt lat="46.17428" lon="2.49086">
        <ele>426.96</ele>
        <time>2022-07-22T11:37:55Z</time>
      </trkpt>
      <trkpt lat="46.17431" lon="2.49055">
        <ele>429.85</ele>
        <time>2022-07-22T11:38:12Z</time>
      </trkpt>
      <trkpt lat="46.17432" lon="2.49043">
        <ele>431.77</ele>
        <time>2022-07-22T11:38:19Z</time>
      </trkpt>
      <trkpt lat="46.17438" lon="2.49014">
        <ele>435.61</ele>
        <time>2022-07-22T11:38:35Z</time>
      </trkpt>
      <trkpt lat="46.17445" lon="2.4899">
        <ele>439.94</ele>
        <time>2022-07-22T11:38:51Z</time>
      </trkpt>
      <trkpt lat="46.17448" lon="2.48981">
        <ele>439.94</ele>
        <time>2022-07-22T11:38:57Z</time>
      </trkpt>
      <trkpt lat="46.17451" lon="2.48978">
        <ele>439.94</ele>
        <time>2022-07-22T11:39:00Z</time>
      </trkpt>
      <trkpt lat="46.17453" lon="2.48973">
        <ele>439.94</ele>
        <time>2022-07-22T11:39:04Z</time>
      </trkpt>
      <trkpt lat="46.17461" lon="2.48953">
        <ele>438.98</ele>
        <time>2022-07-22T11:39:19Z</time>
      </trkpt>
      <trkpt lat="46.1746" lon="2.4895">
        <ele>438.98</ele>
        <time>2022-07-22T11:39:21Z</time>
      </trkpt>
      <trkpt lat="46.17464" lon="2.48926">
        <ele>436.58</ele>
        <time>2022-07-22T11:39:36Z</time>
      </trkpt>
      <trkpt lat="46.17466" lon="2.48909">
        <ele>433.69</ele>
        <time>2022-07-22T11:39:48Z</time>
      </trkpt>
      <trkpt lat="46.17471" lon="2.48889">
        <ele>437.06</ele>
        <time>2022-07-22T11:40:01Z</time>
      </trkpt>
      <trkpt lat="46.17472" lon="2.48888">
        <ele>439.46</ele>
        <time>2022-07-22T11:40:05Z</time>
      </trkpt>
      <trkpt lat="46.17485" lon="2.48892">
        <ele>443.31</ele>
        <time>2022-07-22T11:40:17Z</time>
      </trkpt>
      <trkpt lat="46.17505" lon="2.48883">
        <ele>448.11</ele>
        <time>2022-07-22T11:40:33Z</time>
      </trkpt>
      <trkpt lat="46.17516" lon="2.48877">
        <ele>449.07</ele>
        <time>2022-07-22T11:40:43Z</time>
      </trkpt>
      <trkpt lat="46.1753" lon="2.48864">
        <ele>449.55</ele>
        <time>2022-07-22T11:40:57Z</time>
      </trkpt>
      <trkpt lat="46.17543" lon="2.48853">
        <ele>449.55</ele>
        <time>2022-07-22T11:41:09Z</time>
      </trkpt>
      <trkpt lat="46.17556" lon="2.48831">
        <ele>451</ele>
        <time>2022-07-22T11:41:24Z</time>
      </trkpt>
      <trkpt lat="46.17567" lon="2.48815">
        <ele>450.03</ele>
        <time>2022-07-22T11:41:35Z</time>
      </trkpt>
      <trkpt lat="46.17576" lon="2.48804">
        <ele>447.63</ele>
        <time>2022-07-22T11:41:46Z</time>
      </trkpt>
      <trkpt lat="46.17594" lon="2.4879">
        <ele>446.19</ele>
        <time>2022-07-22T11:42:03Z</time>
      </trkpt>
      <trkpt lat="46.1761" lon="2.48779">
        <ele>449.55</ele>
        <time>2022-07-22T11:42:18Z</time>
      </trkpt>
      <trkpt lat="46.17625" lon="2.48771">
        <ele>449.55</ele>
        <time>2022-07-22T11:42:30Z</time>
      </trkpt>
      <trkpt lat="46.17637" lon="2.48763">
        <ele>448.11</ele>
        <time>2022-07-22T11:42:43Z</time>
      </trkpt>
      <trkpt lat="46.17653" lon="2.48755">
        <ele>443.31</ele>
        <time>2022-07-22T11:42:59Z</time>
      </trkpt>
      <trkpt lat="46.17674" lon="2.48746">
        <ele>439.94</ele>
        <time>2022-07-22T11:43:17Z</time>
      </trkpt>
      <trkpt lat="46.17686" lon="2.4874">
        <ele>439.46</ele>
        <time>2022-07-22T11:43:28Z</time>
      </trkpt>
      <trkpt lat="46.17688" lon="2.48738">
        <ele>439.46</ele>
        <time>2022-07-22T11:43:30Z</time>
      </trkpt>
      <trkpt lat="46.17694" lon="2.48734">
        <ele>442.34</ele>
        <time>2022-07-22T11:43:36Z</time>
      </trkpt>
      <trkpt lat="46.17708" lon="2.48739">
        <ele>443.31</ele>
        <time>2022-07-22T11:43:49Z</time>
      </trkpt>
      <trkpt lat="46.17712" lon="2.48742">
        <ele>444.27</ele>
        <time>2022-07-22T11:43:54Z</time>
      </trkpt>
      <trkpt lat="46.17717" lon="2.48774">
        <ele>445.23</ele>
        <time>2022-07-22T11:44:14Z</time>
      </trkpt>
      <trkpt lat="46.17719" lon="2.48785">
        <ele>444.27</ele>
        <time>2022-07-22T11:44:22Z</time>
      </trkpt>
      <trkpt lat="46.17726" lon="2.48817">
        <ele>445.23</ele>
        <time>2022-07-22T11:44:40Z</time>
      </trkpt>
      <trkpt lat="46.17731" lon="2.48824">
        <ele>446.67</ele>
        <time>2022-07-22T11:44:45Z</time>
      </trkpt>
      <trkpt lat="46.17746" lon="2.48845">
        <ele>446.67</ele>
        <time>2022-07-22T11:45:01Z</time>
      </trkpt>
      <trkpt lat="46.17757" lon="2.48866">
        <ele>446.67</ele>
        <time>2022-07-22T11:45:15Z</time>
      </trkpt>
      <trkpt lat="46.1777" lon="2.48884">
        <ele>445.71</ele>
        <time>2022-07-22T11:45:31Z</time>
      </trkpt>
      <trkpt lat="46.1778" lon="2.48907">
        <ele>444.27</ele>
        <time>2022-07-22T11:45:47Z</time>
      </trkpt>
      <trkpt lat="46.1778" lon="2.48915">
        <ele>443.79</ele>
        <time>2022-07-22T11:45:52Z</time>
      </trkpt>
      <trkpt lat="46.17781" lon="2.4893">
        <ele>442.82</ele>
        <time>2022-07-22T11:46:01Z</time>
      </trkpt>
      <trkpt lat="46.17786" lon="2.48962">
        <ele>442.34</ele>
        <time>2022-07-22T11:46:19Z</time>
      </trkpt>
      <trkpt lat="46.1779" lon="2.48979">
        <ele>442.82</ele>
        <time>2022-07-22T11:46:29Z</time>
      </trkpt>
      <trkpt lat="46.17799" lon="2.49">
        <ele>446.67</ele>
        <time>2022-07-22T11:46:45Z</time>
      </trkpt>
      <trkpt lat="46.178" lon="2.48999">
        <ele>447.15</ele>
        <time>2022-07-22T11:46:49Z</time>
      </trkpt>
      <trkpt lat="46.17804" lon="2.48996">
        <ele>447.15</ele>
        <time>2022-07-22T11:46:55Z</time>
      </trkpt>
      <trkpt lat="46.1781" lon="2.49007">
        <ele>448.59</ele>
        <time>2022-07-22T11:47:05Z</time>
      </trkpt>
      <trkpt lat="46.17815" lon="2.49009">
        <ele>448.59</ele>
        <time>2022-07-22T11:47:09Z</time>
      </trkpt>
      <trkpt lat="46.17816" lon="2.49009">
        <ele>448.59</ele>
        <time>2022-07-22T11:47:10Z</time>
      </trkpt>
      <trkpt lat="46.17817" lon="2.4901">
        <ele>448.59</ele>
        <time>2022-07-22T11:47:11Z</time>
      </trkpt>
      <trkpt lat="46.17818" lon="2.49011">
        <ele>448.59</ele>
        <time>2022-07-22T11:47:12Z</time>
      </trkpt>
      <trkpt lat="46.17819" lon="2.49012">
        <ele>448.11</ele>
        <time>2022-07-22T11:47:13Z</time>
      </trkpt>
      <trkpt lat="46.17831" lon="2.49012">
        <ele>446.19</ele>
        <time>2022-07-22T11:47:23Z</time>
      </trkpt>
      <trkpt lat="46.17851" lon="2.48996">
        <ele>446.19</ele>
        <time>2022-07-22T11:47:40Z</time>
      </trkpt>
      <trkpt lat="46.17864" lon="2.48977">
        <ele>448.11</ele>
        <time>2022-07-22T11:47:55Z</time>
      </trkpt>
      <trkpt lat="46.17877" lon="2.4896">
        <ele>448.11</ele>
        <time>2022-07-22T11:48:11Z</time>
      </trkpt>
      <trkpt lat="46.17886" lon="2.48947">
        <ele>448.59</ele>
        <time>2022-07-22T11:48:24Z</time>
      </trkpt>
      <trkpt lat="46.17884" lon="2.48948">
        <ele>451.96</ele>
        <time>2022-07-22T11:48:40Z</time>
      </trkpt>
      <trkpt lat="46.17893" lon="2.48943">
        <ele>452.92</ele>
        <time>2022-07-22T11:49:00Z</time>
      </trkpt>
      <trkpt lat="46.17911" lon="2.48926">
        <ele>451.96</ele>
        <time>2022-07-22T11:49:16Z</time>
      </trkpt>
      <trkpt lat="46.1792" lon="2.48907">
        <ele>451</ele>
        <time>2022-07-22T11:49:32Z</time>
      </trkpt>
      <trkpt lat="46.17918" lon="2.48904">
        <ele>447.63</ele>
        <time>2022-07-22T11:49:46Z</time>
      </trkpt>
      <trkpt lat="46.17917" lon="2.489">
        <ele>444.75</ele>
        <time>2022-07-22T11:50:02Z</time>
      </trkpt>
      <trkpt lat="46.17916" lon="2.48898">
        <ele>447.63</ele>
        <time>2022-07-22T11:50:35Z</time>
      </trkpt>
      <trkpt lat="46.17907" lon="2.4889">
        <ele>449.07</ele>
        <time>2022-07-22T11:50:48Z</time>
      </trkpt>
      <trkpt lat="46.17902" lon="2.48871">
        <ele>447.15</ele>
        <time>2022-07-22T11:51:05Z</time>
      </trkpt>
      <trkpt lat="46.17893" lon="2.48854">
        <ele>445.71</ele>
        <time>2022-07-22T11:51:19Z</time>
      </trkpt>
      <trkpt lat="46.17882" lon="2.4884">
        <ele>448.59</ele>
        <time>2022-07-22T11:51:37Z</time>
      </trkpt>
    </trkseg>
  </trk>
</gpx>